<?xml version='1.0' encoding='UTF-8'?><gpx version="1.1" creator="JPX - https://github.com/jenetics/jpx" xmlns="http://www.topografix.com/GPX/1/1"><trk><trkseg><trkpt lat="44.5510985" lon="8.8877788"><ele>783.0</ele><time>2026-04-11T11:25:03.277Z</time></trkpt><trkpt lat="44.5512072" lon="8.8877056"><ele>783.0</ele><time>2026-04-11T11:25:05.276Z</time></trkpt><trkpt lat="44.5512856" lon="8.8876572"><ele>783.0</ele><time>2026-04-11T11:25:06.277Z</time></trkpt><trkpt lat="44.5513671" lon="8.887607"><ele>783.0</ele><time>2026-04-11T11:25:07.276Z</time></trkpt><trkpt lat="44.5514526" lon="8.8875428"><ele>783.0</ele><time>2026-04-11T11:25:08.276Z</time></trkpt><trkpt lat="44.551531" lon="8.8874899"><ele>780.1666666666666</ele><time>2026-04-11T11:25:09.276Z</time></trkpt><trkpt lat="44.5515996" lon="8.8874228"><ele>777.3333333333334</ele><time>2026-04-11T11:25:10.276Z</time></trkpt><trkpt lat="44.5516707" lon="8.8873458"><ele>774.5</ele><time>2026-04-11T11:25:11.276Z</time></trkpt><trkpt lat="44.5517319" lon="8.8872845"><ele>771.6666666666667</ele><time>2026-04-11T11:25:12.277Z</time></trkpt><trkpt lat="44.5517949" lon="8.8872197"><ele>768.8333333333334</ele><time>2026-04-11T11:25:13.276Z</time></trkpt><trkpt lat="44.5518433" lon="8.8871341"><ele>766.0</ele><time>2026-04-11T11:25:14.276Z</time></trkpt><trkpt lat="44.5518905" lon="8.8870495"><ele>766.0</ele><time>2026-04-11T11:25:15.276Z</time></trkpt><trkpt lat="44.5519462" lon="8.8869641"><ele>766.0</ele><time>2026-04-11T11:25:16.276Z</time></trkpt><trkpt lat="44.5519911" lon="8.8868581"><ele>766.0</ele><time>2026-04-11T11:25:17.276Z</time></trkpt><trkpt lat="44.5520596" lon="8.8867365"><ele>766.0</ele><time>2026-04-11T11:25:18.276Z</time></trkpt><trkpt lat="44.5521397" lon="8.8866251"><ele>766.0</ele><time>2026-04-11T11:25:19.277Z</time></trkpt><trkpt lat="44.5522056" lon="8.8864975"><ele>765.8</ele><time>2026-04-11T11:25:20.277Z</time></trkpt><trkpt lat="44.5522621" lon="8.8863731"><ele>765.5999999999999</ele><time>2026-04-11T11:25:21.276Z</time></trkpt><trkpt lat="44.5522901" lon="8.8862422"><ele>765.4</ele><time>2026-04-11T11:25:22.276Z</time></trkpt><trkpt lat="44.5523231" lon="8.8861127"><ele>765.2</ele><time>2026-04-11T11:25:23.276Z</time></trkpt><trkpt lat="44.5523509" lon="8.8859854"><ele>765.0</ele><time>2026-04-11T11:25:24.277Z</time></trkpt><trkpt lat="44.552375" lon="8.8858633"><ele>765.0</ele><time>2026-04-11T11:25:25.277Z</time></trkpt><trkpt lat="44.5523959" lon="8.8857607"><ele>765.0</ele><time>2026-04-11T11:25:26.276Z</time></trkpt><trkpt lat="44.5524259" lon="8.8856099"><ele>765.0</ele><time>2026-04-11T11:25:28.276Z</time></trkpt><trkpt lat="44.5525291" lon="8.8855956"><ele>765.0</ele><time>2026-04-11T11:25:30.277Z</time></trkpt><trkpt lat="44.55258" lon="8.8856488"><ele>765.0</ele><time>2026-04-11T11:25:31.276Z</time></trkpt><trkpt lat="44.552608" lon="8.8857408"><ele>765.0</ele><time>2026-04-11T11:25:32.277Z</time></trkpt><trkpt lat="44.5526282" lon="8.8858736"><ele>762.2</ele><time>2026-04-11T11:25:33.276Z</time></trkpt><trkpt lat="44.5526506" lon="8.8860098"><ele>759.4</ele><time>2026-04-11T11:25:34.276Z</time></trkpt><trkpt lat="44.5526882" lon="8.8861426"><ele>756.5999999999999</ele><time>2026-04-11T11:25:35.277Z</time></trkpt><trkpt lat="44.5527226" lon="8.8862437"><ele>753.8</ele><time>2026-04-11T11:25:36.277Z</time></trkpt><trkpt lat="44.552778" lon="8.8863294"><ele>751.0</ele><time>2026-04-11T11:25:37.276Z</time></trkpt><trkpt lat="44.5528615" lon="8.8864051"><ele>751.1999999999999</ele><time>2026-04-11T11:25:38.276Z</time></trkpt><trkpt lat="44.5529582" lon="8.8864665"><ele>751.4</ele><time>2026-04-11T11:25:39.277Z</time></trkpt><trkpt lat="44.5530614" lon="8.8864927"><ele>751.6</ele><time>2026-04-11T11:25:40.276Z</time></trkpt><trkpt lat="44.5531604" lon="8.8865151"><ele>751.8</ele><time>2026-04-11T11:25:41.277Z</time></trkpt><trkpt lat="44.5532553" lon="8.886542"><ele>752.0</ele><time>2026-04-11T11:25:42.276Z</time></trkpt><trkpt lat="44.5533286" lon="8.8865978"><ele>752.0</ele><time>2026-04-11T11:25:43.276Z</time></trkpt><trkpt lat="44.5533706" lon="8.8866754"><ele>752.0</ele><time>2026-04-11T11:25:44.276Z</time></trkpt><trkpt lat="44.5533683" lon="8.8867793"><ele>752.0</ele><time>2026-04-11T11:25:45.276Z</time></trkpt><trkpt lat="44.5533405" lon="8.886905"><ele>752.0</ele><time>2026-04-11T11:25:46.276Z</time></trkpt><trkpt lat="44.5533188" lon="8.8870288"><ele>752.0</ele><time>2026-04-11T11:25:47.276Z</time></trkpt><trkpt lat="44.5533196" lon="8.8871492"><ele>752.0</ele><time>2026-04-11T11:25:48.277Z</time></trkpt><trkpt lat="44.553346" lon="8.8872554"><ele>748.0</ele><time>2026-04-11T11:25:49.276Z</time></trkpt><trkpt lat="44.5534095" lon="8.8873522"><ele>744.0</ele><time>2026-04-11T11:25:50.276Z</time></trkpt><trkpt lat="44.5534843" lon="8.8874113"><ele>740.0</ele><time>2026-04-11T11:25:51.275Z</time></trkpt><trkpt lat="44.5535818" lon="8.8874598"><ele>736.0</ele><time>2026-04-11T11:25:52.275Z</time></trkpt><trkpt lat="44.5536818" lon="8.8874982"><ele>732.0</ele><time>2026-04-11T11:25:53.276Z</time></trkpt><trkpt lat="44.5537932" lon="8.8875489"><ele>731.5</ele><time>2026-04-11T11:25:54.275Z</time></trkpt><trkpt lat="44.5538903" lon="8.887579"><ele>731.0</ele><time>2026-04-11T11:25:55.275Z</time></trkpt><trkpt lat="44.5540006" lon="8.8875775"><ele>730.5</ele><time>2026-04-11T11:25:56.276Z</time></trkpt><trkpt lat="44.5541272" lon="8.8875247"><ele>730.0</ele><time>2026-04-11T11:25:57.276Z</time></trkpt><trkpt lat="44.5542374" lon="8.8874329"><ele>730.0</ele><time>2026-04-11T11:25:58.275Z</time></trkpt><trkpt lat="44.5543277" lon="8.8873286"><ele>730.0</ele><time>2026-04-11T11:25:59.275Z</time></trkpt><trkpt lat="44.5543869" lon="8.8872372"><ele>730.0</ele><time>2026-04-11T11:26:00.276Z</time></trkpt><trkpt lat="44.5544527" lon="8.8871551"><ele>730.0</ele><time>2026-04-11T11:26:01.275Z</time></trkpt><trkpt lat="44.5545324" lon="8.8870956"><ele>730.0</ele><time>2026-04-11T11:26:02.276Z</time></trkpt><trkpt lat="44.5546214" lon="8.8870899"><ele>726.4</ele><time>2026-04-11T11:26:03.275Z</time></trkpt><trkpt lat="44.5547164" lon="8.8871279"><ele>722.8</ele><time>2026-04-11T11:26:04.276Z</time></trkpt><trkpt lat="44.5548029" lon="8.8872047"><ele>719.2</ele><time>2026-04-11T11:26:05.276Z</time></trkpt><trkpt lat="44.5548869" lon="8.8872761"><ele>715.6</ele><time>2026-04-11T11:26:06.275Z</time></trkpt><trkpt lat="44.554977" lon="8.8873134"><ele>712.0</ele><time>2026-04-11T11:26:07.275Z</time></trkpt><trkpt lat="44.5550616" lon="8.8873261"><ele>712.0</ele><time>2026-04-11T11:26:08.275Z</time></trkpt><trkpt lat="44.5551576" lon="8.8872937"><ele>712.0</ele><time>2026-04-11T11:26:09.276Z</time></trkpt><trkpt lat="44.5552503" lon="8.8872316"><ele>712.0</ele><time>2026-04-11T11:26:10.275Z</time></trkpt><trkpt lat="44.5553361" lon="8.8871425"><ele>712.0</ele><time>2026-04-11T11:26:11.276Z</time></trkpt><trkpt lat="44.555414" lon="8.8870317"><ele>712.0</ele><time>2026-04-11T11:26:12.275Z</time></trkpt><trkpt lat="44.5554943" lon="8.8868877"><ele>712.6</ele><time>2026-04-11T11:26:13.275Z</time></trkpt><trkpt lat="44.5555684" lon="8.8867572"><ele>713.2</ele><time>2026-04-11T11:26:14.276Z</time></trkpt><trkpt lat="44.5556467" lon="8.8866568"><ele>713.8</ele><time>2026-04-11T11:26:15.275Z</time></trkpt><trkpt lat="44.5557216" lon="8.8865954"><ele>714.4</ele><time>2026-04-11T11:26:16.276Z</time></trkpt><trkpt lat="44.5558039" lon="8.8865668"><ele>715.0</ele><time>2026-04-11T11:26:17.275Z</time></trkpt><trkpt lat="44.5558992" lon="8.8865795"><ele>715.0</ele><time>2026-04-11T11:26:18.275Z</time></trkpt><trkpt lat="44.5560062" lon="8.8866173"><ele>715.0</ele><time>2026-04-11T11:26:19.275Z</time></trkpt><trkpt lat="44.556137" lon="8.8866821"><ele>715.0</ele><time>2026-04-11T11:26:20.275Z</time></trkpt><trkpt lat="44.5562718" lon="8.8867434"><ele>715.0</ele><time>2026-04-11T11:26:21.275Z</time></trkpt><trkpt lat="44.5564079" lon="8.8867983"><ele>706.3333333333334</ele><time>2026-04-11T11:26:22.276Z</time></trkpt><trkpt lat="44.5565552" lon="8.8868322"><ele>697.6666666666666</ele><time>2026-04-11T11:26:23.275Z</time></trkpt><trkpt lat="44.5567179" lon="8.8868666"><ele>689.0</ele><time>2026-04-11T11:26:24.275Z</time></trkpt><trkpt lat="44.556877" lon="8.8869242"><ele>689.0</ele><time>2026-04-11T11:26:25.275Z</time></trkpt><trkpt lat="44.5570229" lon="8.8869925"><ele>689.0</ele><time>2026-04-11T11:26:26.276Z</time></trkpt><trkpt lat="44.5571605" lon="8.8870526"><ele>689.0</ele><time>2026-04-11T11:26:27.275Z</time></trkpt><trkpt lat="44.557274" lon="8.8871226"><ele>689.0</ele><time>2026-04-11T11:26:28.276Z</time></trkpt><trkpt lat="44.5573629" lon="8.8871816"><ele>688.3333333333333</ele><time>2026-04-11T11:26:29.275Z</time></trkpt><trkpt lat="44.5574296" lon="8.8872137"><ele>687.6666666666666</ele><time>2026-04-11T11:26:30.275Z</time></trkpt><trkpt lat="44.5575037" lon="8.8872231"><ele>687.0</ele><time>2026-04-11T11:26:31.275Z</time></trkpt><trkpt lat="44.5575756" lon="8.8872007"><ele>686.3333333333334</ele><time>2026-04-11T11:26:32.275Z</time></trkpt><trkpt lat="44.5576434" lon="8.887135"><ele>685.6666666666667</ele><time>2026-04-11T11:26:33.275Z</time></trkpt><trkpt lat="44.557682" lon="8.8870205"><ele>685.0</ele><time>2026-04-11T11:26:34.275Z</time></trkpt><trkpt lat="44.5576873" lon="8.8868936"><ele>685.0</ele><time>2026-04-11T11:26:35.275Z</time></trkpt><trkpt lat="44.5576714" lon="8.886773"><ele>685.0</ele><time>2026-04-11T11:26:36.275Z</time></trkpt><trkpt lat="44.5576319" lon="8.8866673"><ele>685.0</ele><time>2026-04-11T11:26:37.275Z</time></trkpt><trkpt lat="44.5575787" lon="8.8865774"><ele>685.0</ele><time>2026-04-11T11:26:38.275Z</time></trkpt><trkpt lat="44.5575201" lon="8.886503"><ele>685.0</ele><time>2026-04-11T11:26:39.275Z</time></trkpt><trkpt lat="44.5574474" lon="8.8864412"><ele>685.0</ele><time>2026-04-11T11:26:40.276Z</time></trkpt><trkpt lat="44.5573783" lon="8.8863943"><ele>686.6666666666667</ele><time>2026-04-11T11:26:41.275Z</time></trkpt><trkpt lat="44.5573293" lon="8.8863342"><ele>688.3333333333334</ele><time>2026-04-11T11:26:42.276Z</time></trkpt><trkpt lat="44.5573579" lon="8.8861846"><ele>690.0</ele><time>2026-04-11T11:26:44.276Z</time></trkpt><trkpt lat="44.5574366" lon="8.8861539"><ele>691.6666666666666</ele><time>2026-04-11T11:26:45.275Z</time></trkpt><trkpt lat="44.5575286" lon="8.8861629"><ele>693.3333333333333</ele><time>2026-04-11T11:26:46.276Z</time></trkpt><trkpt lat="44.557617" lon="8.8861979"><ele>695.0</ele><time>2026-04-11T11:26:47.276Z</time></trkpt><trkpt lat="44.557703" lon="8.8862456"><ele>695.0</ele><time>2026-04-11T11:26:48.275Z</time></trkpt><trkpt lat="44.557785" lon="8.8863024"><ele>695.0</ele><time>2026-04-11T11:26:49.275Z</time></trkpt><trkpt lat="44.5578569" lon="8.8863869"><ele>695.0</ele><time>2026-04-11T11:26:50.275Z</time></trkpt><trkpt lat="44.5579256" lon="8.886492"><ele>695.0</ele><time>2026-04-11T11:26:51.276Z</time></trkpt><trkpt lat="44.5579793" lon="8.8866126"><ele>695.0</ele><time>2026-04-11T11:26:52.275Z</time></trkpt><trkpt lat="44.5580223" lon="8.8867396"><ele>693.0</ele><time>2026-04-11T11:26:53.275Z</time></trkpt><trkpt lat="44.5580583" lon="8.8868652"><ele>691.0</ele><time>2026-04-11T11:26:54.275Z</time></trkpt><trkpt lat="44.5580931" lon="8.8869879"><ele>689.0</ele><time>2026-04-11T11:26:55.275Z</time></trkpt><trkpt lat="44.5581357" lon="8.8870993"><ele>687.0</ele><time>2026-04-11T11:26:56.276Z</time></trkpt><trkpt lat="44.5581905" lon="8.8871749"><ele>685.0</ele><time>2026-04-11T11:26:57.276Z</time></trkpt><trkpt lat="44.5582558" lon="8.8872095"><ele>683.0</ele><time>2026-04-11T11:26:58.275Z</time></trkpt><trkpt lat="44.5583365" lon="8.8872169"><ele>683.0</ele><time>2026-04-11T11:26:59.275Z</time></trkpt><trkpt lat="44.5584143" lon="8.8872238"><ele>683.0</ele><time>2026-04-11T11:27:00.276Z</time></trkpt><trkpt lat="44.5584856" lon="8.8872829"><ele>683.0</ele><time>2026-04-11T11:27:01.275Z</time></trkpt><trkpt lat="44.558542" lon="8.8873527"><ele>683.0</ele><time>2026-04-11T11:27:02.275Z</time></trkpt><trkpt lat="44.5585779" lon="8.8874721"><ele>683.0</ele><time>2026-04-11T11:27:03.276Z</time></trkpt><trkpt lat="44.5586022" lon="8.8876108"><ele>683.0</ele><time>2026-04-11T11:27:04.276Z</time></trkpt><trkpt lat="44.55862" lon="8.8877493"><ele>681.0</ele><time>2026-04-11T11:27:05.275Z</time></trkpt><trkpt lat="44.5586446" lon="8.8878917"><ele>679.0</ele><time>2026-04-11T11:27:06.275Z</time></trkpt><trkpt lat="44.5586938" lon="8.8880151"><ele>677.0</ele><time>2026-04-11T11:27:07.275Z</time></trkpt><trkpt lat="44.5587698" lon="8.8881016"><ele>675.0</ele><time>2026-04-11T11:27:08.275Z</time></trkpt><trkpt lat="44.558878" lon="8.8881576"><ele>673.0</ele><time>2026-04-11T11:27:09.275Z</time></trkpt><trkpt lat="44.558981" lon="8.8881961"><ele>672.4</ele><time>2026-04-11T11:27:10.275Z</time></trkpt><trkpt lat="44.5590796" lon="8.888213"><ele>671.8</ele><time>2026-04-11T11:27:11.275Z</time></trkpt><trkpt lat="44.55918" lon="8.8881662"><ele>671.2</ele><time>2026-04-11T11:27:12.275Z</time></trkpt><trkpt lat="44.5592745" lon="8.8880851"><ele>670.6</ele><time>2026-04-11T11:27:13.275Z</time></trkpt><trkpt lat="44.5593582" lon="8.8879975"><ele>670.0</ele><time>2026-04-11T11:27:14.275Z</time></trkpt><trkpt lat="44.5594583" lon="8.8879071"><ele>668.5</ele><time>2026-04-11T11:27:15.275Z</time></trkpt><trkpt lat="44.5595653" lon="8.8878405"><ele>667.0</ele><time>2026-04-11T11:27:16.276Z</time></trkpt><trkpt lat="44.5596804" lon="8.8877988"><ele>665.5</ele><time>2026-04-11T11:27:17.275Z</time></trkpt><trkpt lat="44.5598006" lon="8.8877853"><ele>664.0</ele><time>2026-04-11T11:27:18.276Z</time></trkpt><trkpt lat="44.5599362" lon="8.887782"><ele>664.0</ele><time>2026-04-11T11:27:19.275Z</time></trkpt><trkpt lat="44.5600825" lon="8.8877873"><ele>664.0</ele><time>2026-04-11T11:27:20.275Z</time></trkpt><trkpt lat="44.5602352" lon="8.8877981"><ele>664.0</ele><time>2026-04-11T11:27:21.275Z</time></trkpt><trkpt lat="44.5603908" lon="8.8878073"><ele>662.0</ele><time>2026-04-11T11:27:22.275Z</time></trkpt><trkpt lat="44.5605474" lon="8.8878214"><ele>660.0</ele><time>2026-04-11T11:27:23.276Z</time></trkpt><trkpt lat="44.5606992" lon="8.8878517"><ele>658.0</ele><time>2026-04-11T11:27:24.276Z</time></trkpt><trkpt lat="44.5608556" lon="8.8879047"><ele>658.0</ele><time>2026-04-11T11:27:25.275Z</time></trkpt><trkpt lat="44.561006" lon="8.8879433"><ele>658.0</ele><time>2026-04-11T11:27:26.275Z</time></trkpt><trkpt lat="44.5611595" lon="8.8879525"><ele>658.0</ele><time>2026-04-11T11:27:27.275Z</time></trkpt><trkpt lat="44.5613308" lon="8.8879295"><ele>659.6666666666667</ele><time>2026-04-11T11:27:28.276Z</time></trkpt><trkpt lat="44.561507" lon="8.8879067"><ele>661.3333333333334</ele><time>2026-04-11T11:27:29.275Z</time></trkpt><trkpt lat="44.5616883" lon="8.8878669"><ele>663.0</ele><time>2026-04-11T11:27:30.275Z</time></trkpt><trkpt lat="44.5618604" lon="8.8878453"><ele>663.0</ele><time>2026-04-11T11:27:31.276Z</time></trkpt><trkpt lat="44.5620273" lon="8.8878375"><ele>663.0</ele><time>2026-04-11T11:27:32.275Z</time></trkpt><trkpt lat="44.5621832" lon="8.8878514"><ele>663.0</ele><time>2026-04-11T11:27:33.275Z</time></trkpt><trkpt lat="44.5623156" lon="8.8878669"><ele>662.5</ele><time>2026-04-11T11:27:34.276Z</time></trkpt><trkpt lat="44.5624374" lon="8.8878768"><ele>662.0</ele><time>2026-04-11T11:27:35.276Z</time></trkpt><trkpt lat="44.5625511" lon="8.8878527"><ele>661.5</ele><time>2026-04-11T11:27:36.276Z</time></trkpt><trkpt lat="44.5626689" lon="8.8877936"><ele>661.0</ele><time>2026-04-11T11:27:37.275Z</time></trkpt><trkpt lat="44.5627915" lon="8.8877286"><ele>660.5</ele><time>2026-04-11T11:27:38.276Z</time></trkpt><trkpt lat="44.562919" lon="8.8876677"><ele>660.0</ele><time>2026-04-11T11:27:39.276Z</time></trkpt><trkpt lat="44.5630463" lon="8.8876201"><ele>659.5</ele><time>2026-04-11T11:27:40.276Z</time></trkpt><trkpt lat="44.5631836" lon="8.8876187"><ele>659.0</ele><time>2026-04-11T11:27:41.275Z</time></trkpt><trkpt lat="44.563323" lon="8.8876375"><ele>659.0</ele><time>2026-04-11T11:27:42.275Z</time></trkpt><trkpt lat="44.5634487" lon="8.8876223"><ele>659.0</ele><time>2026-04-11T11:27:43.275Z</time></trkpt><trkpt lat="44.5635755" lon="8.8875737"><ele>659.0</ele><time>2026-04-11T11:27:44.275Z</time></trkpt><trkpt lat="44.5637038" lon="8.8874733"><ele>659.0</ele><time>2026-04-11T11:27:45.275Z</time></trkpt><trkpt lat="44.5638382" lon="8.8873454"><ele>653.6666666666666</ele><time>2026-04-11T11:27:46.276Z</time></trkpt><trkpt lat="44.5639661" lon="8.8872204"><ele>648.3333333333334</ele><time>2026-04-11T11:27:47.275Z</time></trkpt><trkpt lat="44.5640963" lon="8.8871152"><ele>643.0</ele><time>2026-04-11T11:27:48.275Z</time></trkpt><trkpt lat="44.5642395" lon="8.8870329"><ele>643.0</ele><time>2026-04-11T11:27:49.275Z</time></trkpt><trkpt lat="44.5643727" lon="8.8870018"><ele>643.0</ele><time>2026-04-11T11:27:50.275Z</time></trkpt><trkpt lat="44.5645098" lon="8.8869914"><ele>643.0</ele><time>2026-04-11T11:27:51.276Z</time></trkpt><trkpt lat="44.5646415" lon="8.8870203"><ele>643.0</ele><time>2026-04-11T11:27:52.276Z</time></trkpt><trkpt lat="44.5647714" lon="8.8870939"><ele>642.75</ele><time>2026-04-11T11:27:53.276Z</time></trkpt><trkpt lat="44.5648972" lon="8.887167"><ele>642.5</ele><time>2026-04-11T11:27:54.275Z</time></trkpt><trkpt lat="44.5650208" lon="8.8872281"><ele>642.25</ele><time>2026-04-11T11:27:55.275Z</time></trkpt><trkpt lat="44.5651409" lon="8.8872688"><ele>642.0</ele><time>2026-04-11T11:27:56.275Z</time></trkpt><trkpt lat="44.5652627" lon="8.8873004"><ele>640.25</ele><time>2026-04-11T11:27:57.275Z</time></trkpt><trkpt lat="44.5653873" lon="8.8873121"><ele>638.5</ele><time>2026-04-11T11:27:58.275Z</time></trkpt><trkpt lat="44.565522" lon="8.8873307"><ele>636.75</ele><time>2026-04-11T11:27:59.276Z</time></trkpt><trkpt lat="44.5656624" lon="8.8873473"><ele>635.0</ele><time>2026-04-11T11:28:00.276Z</time></trkpt><trkpt lat="44.5657983" lon="8.8873699"><ele>635.0</ele><time>2026-04-11T11:28:01.276Z</time></trkpt><trkpt lat="44.5659278" lon="8.8873558"><ele>635.0</ele><time>2026-04-11T11:28:02.275Z</time></trkpt><trkpt lat="44.566055" lon="8.8873191"><ele>635.0</ele><time>2026-04-11T11:28:03.276Z</time></trkpt><trkpt lat="44.5661758" lon="8.8872865"><ele>635.0</ele><time>2026-04-11T11:28:04.275Z</time></trkpt><trkpt lat="44.5663078" lon="8.8872781"><ele>632.0</ele><time>2026-04-11T11:28:05.275Z</time></trkpt><trkpt lat="44.5664521" lon="8.887318"><ele>629.0</ele><time>2026-04-11T11:28:06.275Z</time></trkpt><trkpt lat="44.5666032" lon="8.8873701"><ele>626.0</ele><time>2026-04-11T11:28:07.275Z</time></trkpt><trkpt lat="44.5667545" lon="8.8874178"><ele>626.0</ele><time>2026-04-11T11:28:08.275Z</time></trkpt><trkpt lat="44.5668934" lon="8.8874632"><ele>626.0</ele><time>2026-04-11T11:28:09.275Z</time></trkpt><trkpt lat="44.5670206" lon="8.8875039"><ele>626.0</ele><time>2026-04-11T11:28:10.276Z</time></trkpt><trkpt lat="44.5671367" lon="8.8875224"><ele>626.0</ele><time>2026-04-11T11:28:11.275Z</time></trkpt><trkpt lat="44.5672346" lon="8.8874994"><ele>624.0</ele><time>2026-04-11T11:28:12.276Z</time></trkpt><trkpt lat="44.5673347" lon="8.8874386"><ele>622.0</ele><time>2026-04-11T11:28:13.276Z</time></trkpt><trkpt lat="44.5674302" lon="8.8873559"><ele>620.0</ele><time>2026-04-11T11:28:14.275Z</time></trkpt><trkpt lat="44.5675164" lon="8.8872635"><ele>618.0</ele><time>2026-04-11T11:28:15.276Z</time></trkpt><trkpt lat="44.5676106" lon="8.8871501"><ele>618.0</ele><time>2026-04-11T11:28:16.275Z</time></trkpt><trkpt lat="44.5677185" lon="8.8870583"><ele>618.0</ele><time>2026-04-11T11:28:17.275Z</time></trkpt><trkpt lat="44.5678474" lon="8.886972"><ele>618.0</ele><time>2026-04-11T11:28:18.275Z</time></trkpt><trkpt lat="44.5679928" lon="8.8869264"><ele>618.0</ele><time>2026-04-11T11:28:19.275Z</time></trkpt><trkpt lat="44.56814" lon="8.8868936"><ele>617.5</ele><time>2026-04-11T11:28:20.275Z</time></trkpt><trkpt lat="44.5682844" lon="8.8868529"><ele>617.0</ele><time>2026-04-11T11:28:21.275Z</time></trkpt><trkpt lat="44.5684163" lon="8.8867737"><ele>616.5</ele><time>2026-04-11T11:28:22.275Z</time></trkpt><trkpt lat="44.5685296" lon="8.8866889"><ele>616.0</ele><time>2026-04-11T11:28:23.275Z</time></trkpt><trkpt lat="44.5686442" lon="8.8865871"><ele>615.25</ele><time>2026-04-11T11:28:24.275Z</time></trkpt><trkpt lat="44.5687507" lon="8.8864601"><ele>614.5</ele><time>2026-04-11T11:28:25.276Z</time></trkpt><trkpt lat="44.5688502" lon="8.8863443"><ele>613.75</ele><time>2026-04-11T11:28:26.276Z</time></trkpt><trkpt lat="44.5689644" lon="8.8862406"><ele>613.0</ele><time>2026-04-11T11:28:27.276Z</time></trkpt><trkpt lat="44.5690814" lon="8.8861809"><ele>613.0</ele><time>2026-04-11T11:28:28.275Z</time></trkpt><trkpt lat="44.5692044" lon="8.8861283"><ele>613.0</ele><time>2026-04-11T11:28:29.275Z</time></trkpt><trkpt lat="44.5693272" lon="8.8860766"><ele>613.0</ele><time>2026-04-11T11:28:30.275Z</time></trkpt><trkpt lat="44.5694389" lon="8.886003"><ele>613.0</ele><time>2026-04-11T11:28:31.275Z</time></trkpt><trkpt lat="44.5695463" lon="8.8859024"><ele>611.75</ele><time>2026-04-11T11:28:32.276Z</time></trkpt><trkpt lat="44.5696326" lon="8.8857955"><ele>610.5</ele><time>2026-04-11T11:28:33.275Z</time></trkpt><trkpt lat="44.5697161" lon="8.8856556"><ele>609.25</ele><time>2026-04-11T11:28:34.275Z</time></trkpt><trkpt lat="44.5697898" lon="8.8854911"><ele>608.0</ele><time>2026-04-11T11:28:35.276Z</time></trkpt><trkpt lat="44.5698817" lon="8.885338"><ele>608.0</ele><time>2026-04-11T11:28:36.275Z</time></trkpt><trkpt lat="44.5700054" lon="8.885224"><ele>608.0</ele><time>2026-04-11T11:28:37.275Z</time></trkpt><trkpt lat="44.570126" lon="8.8851363"><ele>608.0</ele><time>2026-04-11T11:28:38.276Z</time></trkpt><trkpt lat="44.5702483" lon="8.8850497"><ele>608.0</ele><time>2026-04-11T11:28:39.275Z</time></trkpt><trkpt lat="44.5703501" lon="8.8849475"><ele>605.5</ele><time>2026-04-11T11:28:40.275Z</time></trkpt><trkpt lat="44.5704407" lon="8.8848116"><ele>603.0</ele><time>2026-04-11T11:28:41.275Z</time></trkpt><trkpt lat="44.5705484" lon="8.8846841"><ele>600.5</ele><time>2026-04-11T11:28:42.275Z</time></trkpt><trkpt lat="44.5706741" lon="8.8845786"><ele>598.0</ele><time>2026-04-11T11:28:43.275Z</time></trkpt><trkpt lat="44.5707898" lon="8.8844953"><ele>598.0</ele><time>2026-04-11T11:28:44.275Z</time></trkpt><trkpt lat="44.5709012" lon="8.8844473"><ele>598.0</ele><time>2026-04-11T11:28:45.276Z</time></trkpt><trkpt lat="44.5709985" lon="8.8844404"><ele>598.0</ele><time>2026-04-11T11:28:46.275Z</time></trkpt><trkpt lat="44.5710981" lon="8.8844709"><ele>598.0</ele><time>2026-04-11T11:28:47.275Z</time></trkpt><trkpt lat="44.5711952" lon="8.8845461"><ele>598.0</ele><time>2026-04-11T11:28:48.275Z</time></trkpt><trkpt lat="44.5712979" lon="8.8846041"><ele>597.4</ele><time>2026-04-11T11:28:49.275Z</time></trkpt><trkpt lat="44.5713923" lon="8.8846467"><ele>596.8</ele><time>2026-04-11T11:28:50.275Z</time></trkpt><trkpt lat="44.5714908" lon="8.8846484"><ele>596.2</ele><time>2026-04-11T11:28:51.276Z</time></trkpt><trkpt lat="44.5715961" lon="8.8845677"><ele>595.6</ele><time>2026-04-11T11:28:52.276Z</time></trkpt><trkpt lat="44.5716975" lon="8.8844647"><ele>595.0</ele><time>2026-04-11T11:28:53.275Z</time></trkpt><trkpt lat="44.5717755" lon="8.8843393"><ele>594.0</ele><time>2026-04-11T11:28:54.275Z</time></trkpt><trkpt lat="44.5718466" lon="8.8841983"><ele>593.0</ele><time>2026-04-11T11:28:55.275Z</time></trkpt><trkpt lat="44.571911" lon="8.8840332"><ele>592.0</ele><time>2026-04-11T11:28:56.275Z</time></trkpt><trkpt lat="44.5719771" lon="8.8838573"><ele>591.0</ele><time>2026-04-11T11:28:57.276Z</time></trkpt><trkpt lat="44.5720531" lon="8.8837087"><ele>591.0</ele><time>2026-04-11T11:28:58.276Z</time></trkpt><trkpt lat="44.5721195" lon="8.8835596"><ele>591.0</ele><time>2026-04-11T11:28:59.275Z</time></trkpt><trkpt lat="44.5722029" lon="8.8834609"><ele>591.0</ele><time>2026-04-11T11:29:00.275Z</time></trkpt><trkpt lat="44.5723118" lon="8.883454"><ele>591.0</ele><time>2026-04-11T11:29:01.275Z</time></trkpt><trkpt lat="44.5724152" lon="8.883483"><ele>591.0</ele><time>2026-04-11T11:29:02.275Z</time></trkpt><trkpt lat="44.5725137" lon="8.883505"><ele>591.0</ele><time>2026-04-11T11:29:03.275Z</time></trkpt><trkpt lat="44.5726063" lon="8.8834885"><ele>591.0</ele><time>2026-04-11T11:29:04.275Z</time></trkpt><trkpt lat="44.5726739" lon="8.8834248"><ele>591.0</ele><time>2026-04-11T11:29:05.276Z</time></trkpt><trkpt lat="44.5727379" lon="8.8833271"><ele>591.0</ele><time>2026-04-11T11:29:06.276Z</time></trkpt><trkpt lat="44.5727814" lon="8.8832103"><ele>591.0</ele><time>2026-04-11T11:29:07.275Z</time></trkpt><trkpt lat="44.5728034" lon="8.8830671"><ele>587.25</ele><time>2026-04-11T11:29:08.275Z</time></trkpt><trkpt lat="44.5728262" lon="8.8828919"><ele>583.5</ele><time>2026-04-11T11:29:09.275Z</time></trkpt><trkpt lat="44.5728435" lon="8.8827308"><ele>579.75</ele><time>2026-04-11T11:29:10.275Z</time></trkpt><trkpt lat="44.5728926" lon="8.8825929"><ele>576.0</ele><time>2026-04-11T11:29:11.275Z</time></trkpt><trkpt lat="44.5729657" lon="8.882462"><ele>574.25</ele><time>2026-04-11T11:29:12.275Z</time></trkpt><trkpt lat="44.5730602" lon="8.8823481"><ele>572.5</ele><time>2026-04-11T11:29:13.276Z</time></trkpt><trkpt lat="44.573166" lon="8.8822367"><ele>570.75</ele><time>2026-04-11T11:29:14.275Z</time></trkpt><trkpt lat="44.573268" lon="8.8821029"><ele>569.0</ele><time>2026-04-11T11:29:15.275Z</time></trkpt><trkpt lat="44.5733944" lon="8.8819988"><ele>569.0</ele><time>2026-04-11T11:29:16.276Z</time></trkpt><trkpt lat="44.5735162" lon="8.8818813"><ele>569.0</ele><time>2026-04-11T11:29:17.275Z</time></trkpt><trkpt lat="44.5736275" lon="8.8817732"><ele>569.0</ele><time>2026-04-11T11:29:18.276Z</time></trkpt><trkpt lat="44.5737351" lon="8.8816496"><ele>569.0</ele><time>2026-04-11T11:29:19.275Z</time></trkpt><trkpt lat="44.5738369" lon="8.8815514"><ele>567.75</ele><time>2026-04-11T11:29:20.276Z</time></trkpt><trkpt lat="44.5739316" lon="8.8814393"><ele>566.5</ele><time>2026-04-11T11:29:21.275Z</time></trkpt><trkpt lat="44.574032" lon="8.881337"><ele>565.25</ele><time>2026-04-11T11:29:22.275Z</time></trkpt><trkpt lat="44.5741454" lon="8.8812511"><ele>564.0</ele><time>2026-04-11T11:29:23.275Z</time></trkpt><trkpt lat="44.5742576" lon="8.8811779"><ele>564.0</ele><time>2026-04-11T11:29:24.275Z</time></trkpt><trkpt lat="44.5743705" lon="8.8811267"><ele>564.0</ele><time>2026-04-11T11:29:25.275Z</time></trkpt><trkpt lat="44.5744873" lon="8.8810866"><ele>564.0</ele><time>2026-04-11T11:29:26.276Z</time></trkpt><trkpt lat="44.5746204" lon="8.8810791"><ele>564.0</ele><time>2026-04-11T11:29:27.275Z</time></trkpt><trkpt lat="44.5747567" lon="8.8811007"><ele>567.0</ele><time>2026-04-11T11:29:28.275Z</time></trkpt><trkpt lat="44.5748877" lon="8.8811078"><ele>570.0</ele><time>2026-04-11T11:29:29.276Z</time></trkpt><trkpt lat="44.5750076" lon="8.8810865"><ele>573.0</ele><time>2026-04-11T11:29:30.276Z</time></trkpt><trkpt lat="44.575107" lon="8.8810318"><ele>576.0</ele><time>2026-04-11T11:29:31.275Z</time></trkpt><trkpt lat="44.5751901" lon="8.8809555"><ele>572.25</ele><time>2026-04-11T11:29:32.275Z</time></trkpt><trkpt lat="44.5752616" lon="8.8808562"><ele>568.5</ele><time>2026-04-11T11:29:33.275Z</time></trkpt><trkpt lat="44.5753186" lon="8.8807385"><ele>564.75</ele><time>2026-04-11T11:29:34.276Z</time></trkpt><trkpt lat="44.5753763" lon="8.8805869"><ele>561.0</ele><time>2026-04-11T11:29:35.275Z</time></trkpt><trkpt lat="44.575433" lon="8.8804241"><ele>561.0</ele><time>2026-04-11T11:29:36.275Z</time></trkpt><trkpt lat="44.575511" lon="8.8802901"><ele>561.0</ele><time>2026-04-11T11:29:37.275Z</time></trkpt><trkpt lat="44.5755997" lon="8.8801776"><ele>561.0</ele><time>2026-04-11T11:29:38.276Z</time></trkpt><trkpt lat="44.575704" lon="8.8800958"><ele>561.0</ele><time>2026-04-11T11:29:39.275Z</time></trkpt><trkpt lat="44.5758202" lon="8.8800306"><ele>560.0</ele><time>2026-04-11T11:29:40.275Z</time></trkpt><trkpt lat="44.5759574" lon="8.8799725"><ele>559.0</ele><time>2026-04-11T11:29:41.275Z</time></trkpt><trkpt lat="44.5760954" lon="8.8799089"><ele>558.0</ele><time>2026-04-11T11:29:42.276Z</time></trkpt><trkpt lat="44.5762302" lon="8.879792"><ele>557.0</ele><time>2026-04-11T11:29:43.275Z</time></trkpt><trkpt lat="44.5763606" lon="8.8796463"><ele>557.0</ele><time>2026-04-11T11:29:44.275Z</time></trkpt><trkpt lat="44.5764871" lon="8.879515"><ele>557.0</ele><time>2026-04-11T11:29:45.275Z</time></trkpt><trkpt lat="44.5766099" lon="8.8793892"><ele>557.0</ele><time>2026-04-11T11:29:46.276Z</time></trkpt><trkpt lat="44.5767101" lon="8.8792593"><ele>557.0</ele><time>2026-04-11T11:29:47.275Z</time></trkpt><trkpt lat="44.5767967" lon="8.8791074"><ele>557.75</ele><time>2026-04-11T11:29:48.275Z</time></trkpt><trkpt lat="44.5768915" lon="8.8789687"><ele>558.5</ele><time>2026-04-11T11:29:49.276Z</time></trkpt><trkpt lat="44.576994" lon="8.8788345"><ele>559.25</ele><time>2026-04-11T11:29:50.276Z</time></trkpt><trkpt lat="44.5771197" lon="8.8787277"><ele>560.0</ele><time>2026-04-11T11:29:51.275Z</time></trkpt><trkpt lat="44.577243" lon="8.878623"><ele>560.0</ele><time>2026-04-11T11:29:52.275Z</time></trkpt><trkpt lat="44.5773462" lon="8.8785173"><ele>560.0</ele><time>2026-04-11T11:29:53.275Z</time></trkpt><trkpt lat="44.5774377" lon="8.8784365"><ele>560.0</ele><time>2026-04-11T11:29:54.276Z</time></trkpt><trkpt lat="44.5775164" lon="8.8783588"><ele>560.0</ele><time>2026-04-11T11:29:55.275Z</time></trkpt><trkpt lat="44.5775593" lon="8.8782755"><ele>560.0</ele><time>2026-04-11T11:29:56.275Z</time></trkpt><trkpt lat="44.5775758" lon="8.8781782"><ele>555.25</ele><time>2026-04-11T11:29:57.275Z</time></trkpt><trkpt lat="44.5775802" lon="8.8780382"><ele>550.5</ele><time>2026-04-11T11:29:58.275Z</time></trkpt><trkpt lat="44.5775718" lon="8.8778928"><ele>545.75</ele><time>2026-04-11T11:29:59.275Z</time></trkpt><trkpt lat="44.5775569" lon="8.8777119"><ele>541.0</ele><time>2026-04-11T11:30:00.275Z</time></trkpt><trkpt lat="44.5775524" lon="8.8775273"><ele>539.75</ele><time>2026-04-11T11:30:01.275Z</time></trkpt><trkpt lat="44.5775574" lon="8.8773637"><ele>538.5</ele><time>2026-04-11T11:30:02.276Z</time></trkpt><trkpt lat="44.5775603" lon="8.8772056"><ele>537.25</ele><time>2026-04-11T11:30:03.276Z</time></trkpt><trkpt lat="44.5775641" lon="8.8770443"><ele>536.0</ele><time>2026-04-11T11:30:04.275Z</time></trkpt><trkpt lat="44.5776133" lon="8.8768833"><ele>535.25</ele><time>2026-04-11T11:30:05.275Z</time></trkpt><trkpt lat="44.577678" lon="8.8767221"><ele>534.5</ele><time>2026-04-11T11:30:06.276Z</time></trkpt><trkpt lat="44.5777605" lon="8.8765544"><ele>533.75</ele><time>2026-04-11T11:30:07.275Z</time></trkpt><trkpt lat="44.5778177" lon="8.8763724"><ele>533.0</ele><time>2026-04-11T11:30:08.276Z</time></trkpt><trkpt lat="44.5778658" lon="8.8761992"><ele>534.75</ele><time>2026-04-11T11:30:09.275Z</time></trkpt><trkpt lat="44.5779068" lon="8.8760303"><ele>536.5</ele><time>2026-04-11T11:30:10.275Z</time></trkpt><trkpt lat="44.5779453" lon="8.8758701"><ele>538.25</ele><time>2026-04-11T11:30:11.275Z</time></trkpt><trkpt lat="44.5779866" lon="8.8757101"><ele>540.0</ele><time>2026-04-11T11:30:12.275Z</time></trkpt><trkpt lat="44.5780048" lon="8.875557"><ele>540.0</ele><time>2026-04-11T11:30:13.275Z</time></trkpt><trkpt lat="44.578012" lon="8.8754137"><ele>540.0</ele><time>2026-04-11T11:30:14.275Z</time></trkpt><trkpt lat="44.5780208" lon="8.875293"><ele>540.0</ele><time>2026-04-11T11:30:15.275Z</time></trkpt><trkpt lat="44.5780587" lon="8.8751736"><ele>540.0</ele><time>2026-04-11T11:30:16.275Z</time></trkpt><trkpt lat="44.5781218" lon="8.8750783"><ele>540.0</ele><time>2026-04-11T11:30:17.275Z</time></trkpt><trkpt lat="44.5782023" lon="8.8749999"><ele>536.4</ele><time>2026-04-11T11:30:18.275Z</time></trkpt><trkpt lat="44.5782895" lon="8.8749351"><ele>532.8</ele><time>2026-04-11T11:30:19.275Z</time></trkpt><trkpt lat="44.5783753" lon="8.8748877"><ele>529.2</ele><time>2026-04-11T11:30:20.275Z</time></trkpt><trkpt lat="44.5784608" lon="8.8748756"><ele>525.6</ele><time>2026-04-11T11:30:21.275Z</time></trkpt><trkpt lat="44.578556" lon="8.8748765"><ele>522.0</ele><time>2026-04-11T11:30:22.276Z</time></trkpt><trkpt lat="44.5786623" lon="8.8748666"><ele>524.5</ele><time>2026-04-11T11:30:23.275Z</time></trkpt><trkpt lat="44.5787708" lon="8.8748349"><ele>527.0</ele><time>2026-04-11T11:30:24.276Z</time></trkpt><trkpt lat="44.5788675" lon="8.8747599"><ele>529.5</ele><time>2026-04-11T11:30:25.275Z</time></trkpt><trkpt lat="44.5789485" lon="8.8746598"><ele>532.0</ele><time>2026-04-11T11:30:26.275Z</time></trkpt><trkpt lat="44.5790357" lon="8.8745347"><ele>532.0</ele><time>2026-04-11T11:30:27.276Z</time></trkpt><trkpt lat="44.5791193" lon="8.8743903"><ele>532.0</ele><time>2026-04-11T11:30:28.275Z</time></trkpt><trkpt lat="44.5792049" lon="8.8742588"><ele>532.0</ele><time>2026-04-11T11:30:29.275Z</time></trkpt><trkpt lat="44.5792877" lon="8.8741515"><ele>532.0</ele><time>2026-04-11T11:30:30.275Z</time></trkpt><trkpt lat="44.5793822" lon="8.8740656"><ele>531.5</ele><time>2026-04-11T11:30:31.275Z</time></trkpt><trkpt lat="44.5794924" lon="8.8739939"><ele>531.0</ele><time>2026-04-11T11:30:32.275Z</time></trkpt><trkpt lat="44.5796149" lon="8.8739307"><ele>530.5</ele><time>2026-04-11T11:30:33.275Z</time></trkpt><trkpt lat="44.5797391" lon="8.87386"><ele>530.0</ele><time>2026-04-11T11:30:34.275Z</time></trkpt><trkpt lat="44.5798606" lon="8.873774"><ele>530.0</ele><time>2026-04-11T11:30:35.276Z</time></trkpt><trkpt lat="44.5799816" lon="8.8736864"><ele>530.0</ele><time>2026-04-11T11:30:36.276Z</time></trkpt><trkpt lat="44.5801089" lon="8.8735901"><ele>530.0</ele><time>2026-04-11T11:30:37.275Z</time></trkpt><trkpt lat="44.5802326" lon="8.8734855"><ele>530.0</ele><time>2026-04-11T11:30:38.275Z</time></trkpt><trkpt lat="44.5803508" lon="8.8733754"><ele>530.25</ele><time>2026-04-11T11:30:39.275Z</time></trkpt><trkpt lat="44.5804616" lon="8.8732402"><ele>530.5</ele><time>2026-04-11T11:30:40.275Z</time></trkpt><trkpt lat="44.5805614" lon="8.8730966"><ele>530.75</ele><time>2026-04-11T11:30:41.275Z</time></trkpt><trkpt lat="44.5806434" lon="8.8729387"><ele>531.0</ele><time>2026-04-11T11:30:42.275Z</time></trkpt><trkpt lat="44.5807162" lon="8.8727743"><ele>525.0</ele><time>2026-04-11T11:30:43.275Z</time></trkpt><trkpt lat="44.580775" lon="8.8725934"><ele>519.0</ele><time>2026-04-11T11:30:44.276Z</time></trkpt><trkpt lat="44.580833" lon="8.8724226"><ele>513.0</ele><time>2026-04-11T11:30:45.275Z</time></trkpt><trkpt lat="44.580896" lon="8.872264"><ele>507.0</ele><time>2026-04-11T11:30:46.275Z</time></trkpt><trkpt lat="44.5809707" lon="8.8721248"><ele>507.0</ele><time>2026-04-11T11:30:47.275Z</time></trkpt><trkpt lat="44.5810555" lon="8.8720143"><ele>507.0</ele><time>2026-04-11T11:30:48.275Z</time></trkpt><trkpt lat="44.5811388" lon="8.8719177"><ele>507.0</ele><time>2026-04-11T11:30:49.275Z</time></trkpt><trkpt lat="44.5812381" lon="8.8718255"><ele>507.0</ele><time>2026-04-11T11:30:50.276Z</time></trkpt><trkpt lat="44.5813454" lon="8.8717197"><ele>506.75</ele><time>2026-04-11T11:30:51.275Z</time></trkpt><trkpt lat="44.581463" lon="8.8716212"><ele>506.5</ele><time>2026-04-11T11:30:52.275Z</time></trkpt><trkpt lat="44.5815804" lon="8.8715196"><ele>506.25</ele><time>2026-04-11T11:30:53.276Z</time></trkpt><trkpt lat="44.5816999" lon="8.871408"><ele>506.0</ele><time>2026-04-11T11:30:54.275Z</time></trkpt><trkpt lat="44.5818108" lon="8.8712986"><ele>506.0</ele><time>2026-04-11T11:30:55.275Z</time></trkpt><trkpt lat="44.5819153" lon="8.8711891"><ele>506.0</ele><time>2026-04-11T11:30:56.275Z</time></trkpt><trkpt lat="44.5820075" lon="8.8710709"><ele>506.0</ele><time>2026-04-11T11:30:57.275Z</time></trkpt><trkpt lat="44.5820962" lon="8.8709564"><ele>506.0</ele><time>2026-04-11T11:30:58.275Z</time></trkpt><trkpt lat="44.5821721" lon="8.8708355"><ele>504.16666666666663</ele><time>2026-04-11T11:30:59.275Z</time></trkpt><trkpt lat="44.5822336" lon="8.8707327"><ele>502.3333333333333</ele><time>2026-04-11T11:31:00.275Z</time></trkpt><trkpt lat="44.5822894" lon="8.8706658"><ele>500.5</ele><time>2026-04-11T11:31:01.275Z</time></trkpt><trkpt lat="44.5823453" lon="8.8706189"><ele>498.66666666666663</ele><time>2026-04-11T11:31:02.276Z</time></trkpt><trkpt lat="44.582421" lon="8.8705763"><ele>496.8333333333333</ele><time>2026-04-11T11:31:03.275Z</time></trkpt><trkpt lat="44.5825208" lon="8.8705478"><ele>495.0</ele><time>2026-04-11T11:31:04.276Z</time></trkpt><trkpt lat="44.5826192" lon="8.8705127"><ele>495.0</ele><time>2026-04-11T11:31:05.275Z</time></trkpt><trkpt lat="44.582718" lon="8.8704747"><ele>495.0</ele><time>2026-04-11T11:31:06.275Z</time></trkpt><trkpt lat="44.5828318" lon="8.8704302"><ele>495.0</ele><time>2026-04-11T11:31:07.275Z</time></trkpt><trkpt lat="44.582953" lon="8.8703681"><ele>495.0</ele><time>2026-04-11T11:31:08.276Z</time></trkpt><trkpt lat="44.5830758" lon="8.8702814"><ele>493.0</ele><time>2026-04-11T11:31:09.275Z</time></trkpt><trkpt lat="44.5831948" lon="8.8701741"><ele>491.0</ele><time>2026-04-11T11:31:10.275Z</time></trkpt><trkpt lat="44.5833122" lon="8.8700622"><ele>489.0</ele><time>2026-04-11T11:31:11.275Z</time></trkpt><trkpt lat="44.5834236" lon="8.869944"><ele>487.0</ele><time>2026-04-11T11:31:12.275Z</time></trkpt><trkpt lat="44.5835314" lon="8.8698224"><ele>487.0</ele><time>2026-04-11T11:31:13.276Z</time></trkpt><trkpt lat="44.5836331" lon="8.8696874"><ele>487.0</ele><time>2026-04-11T11:31:14.275Z</time></trkpt><trkpt lat="44.5837359" lon="8.869533"><ele>487.0</ele><time>2026-04-11T11:31:15.275Z</time></trkpt><trkpt lat="44.583837" lon="8.8693799"><ele>487.0</ele><time>2026-04-11T11:31:16.275Z</time></trkpt><trkpt lat="44.5839358" lon="8.8692327"><ele>485.25</ele><time>2026-04-11T11:31:17.276Z</time></trkpt><trkpt lat="44.5840275" lon="8.8691115"><ele>483.5</ele><time>2026-04-11T11:31:18.276Z</time></trkpt><trkpt lat="44.5841105" lon="8.8690026"><ele>481.75</ele><time>2026-04-11T11:31:19.275Z</time></trkpt><trkpt lat="44.584208" lon="8.868915"><ele>480.0</ele><time>2026-04-11T11:31:20.275Z</time></trkpt><trkpt lat="44.5843114" lon="8.8688264"><ele>480.0</ele><time>2026-04-11T11:31:21.276Z</time></trkpt><trkpt lat="44.5844249" lon="8.8687343"><ele>480.0</ele><time>2026-04-11T11:31:22.275Z</time></trkpt><trkpt lat="44.58454" lon="8.8686371"><ele>480.0</ele><time>2026-04-11T11:31:23.276Z</time></trkpt><trkpt lat="44.5846444" lon="8.8685402"><ele>480.0</ele><time>2026-04-11T11:31:24.275Z</time></trkpt><trkpt lat="44.5847449" lon="8.8684373"><ele>479.6</ele><time>2026-04-11T11:31:25.276Z</time></trkpt><trkpt lat="44.5848385" lon="8.8683364"><ele>479.2</ele><time>2026-04-11T11:31:26.275Z</time></trkpt><trkpt lat="44.5849118" lon="8.8682445"><ele>478.79999999999995</ele><time>2026-04-11T11:31:27.275Z</time></trkpt><trkpt lat="44.5849831" lon="8.8681577"><ele>478.4</ele><time>2026-04-11T11:31:28.275Z</time></trkpt><trkpt lat="44.5850569" lon="8.8680669"><ele>478.0</ele><time>2026-04-11T11:31:29.275Z</time></trkpt><trkpt lat="44.5851338" lon="8.8679727"><ele>478.0</ele><time>2026-04-11T11:31:30.275Z</time></trkpt><trkpt lat="44.5852258" lon="8.8678628"><ele>478.0</ele><time>2026-04-11T11:31:31.275Z</time></trkpt><trkpt lat="44.5853171" lon="8.8677321"><ele>478.0</ele><time>2026-04-11T11:31:32.275Z</time></trkpt><trkpt lat="44.5854173" lon="8.8676193"><ele>478.0</ele><time>2026-04-11T11:31:33.275Z</time></trkpt><trkpt lat="44.5855118" lon="8.8675113"><ele>478.5</ele><time>2026-04-11T11:31:34.276Z</time></trkpt><trkpt lat="44.5855966" lon="8.8673857"><ele>479.0</ele><time>2026-04-11T11:31:35.275Z</time></trkpt><trkpt lat="44.5856872" lon="8.8672567"><ele>479.5</ele><time>2026-04-11T11:31:36.276Z</time></trkpt><trkpt lat="44.5857614" lon="8.8671205"><ele>480.0</ele><time>2026-04-11T11:31:37.276Z</time></trkpt><trkpt lat="44.5858213" lon="8.8669984"><ele>480.0</ele><time>2026-04-11T11:31:38.275Z</time></trkpt><trkpt lat="44.5858719" lon="8.8668803"><ele>480.0</ele><time>2026-04-11T11:31:39.275Z</time></trkpt><trkpt lat="44.585915" lon="8.8667675"><ele>480.0</ele><time>2026-04-11T11:31:40.275Z</time></trkpt><trkpt lat="44.5859317" lon="8.8666239"><ele>480.0</ele><time>2026-04-11T11:31:41.276Z</time></trkpt><trkpt lat="44.585934" lon="8.8664529"><ele>480.0</ele><time>2026-04-11T11:31:42.275Z</time></trkpt><trkpt lat="44.58593" lon="8.866264"><ele>478.4</ele><time>2026-04-11T11:31:43.275Z</time></trkpt><trkpt lat="44.5859213" lon="8.8660868"><ele>476.8</ele><time>2026-04-11T11:31:44.275Z</time></trkpt><trkpt lat="44.585929" lon="8.8659215"><ele>475.20000000000005</ele><time>2026-04-11T11:31:45.275Z</time></trkpt><trkpt lat="44.5859526" lon="8.8657894"><ele>473.6</ele><time>2026-04-11T11:31:46.275Z</time></trkpt><trkpt lat="44.5859981" lon="8.8656575"><ele>472.0</ele><time>2026-04-11T11:31:47.276Z</time></trkpt><trkpt lat="44.5860606" lon="8.8655497"><ele>470.6</ele><time>2026-04-11T11:31:48.275Z</time></trkpt><trkpt lat="44.5861613" lon="8.8654707"><ele>469.20000000000005</ele><time>2026-04-11T11:31:49.275Z</time></trkpt><trkpt lat="44.5862661" lon="8.8654172"><ele>467.8</ele><time>2026-04-11T11:31:50.276Z</time></trkpt><trkpt lat="44.5863732" lon="8.8654063"><ele>466.4</ele><time>2026-04-11T11:31:51.275Z</time></trkpt><trkpt lat="44.5864764" lon="8.8654072"><ele>465.0</ele><time>2026-04-11T11:31:52.275Z</time></trkpt><trkpt lat="44.5865833" lon="8.8654273"><ele>464.6</ele><time>2026-04-11T11:31:53.276Z</time></trkpt><trkpt lat="44.5866873" lon="8.8654604"><ele>464.2</ele><time>2026-04-11T11:31:54.275Z</time></trkpt><trkpt lat="44.5867776" lon="8.865509"><ele>463.79999999999995</ele><time>2026-04-11T11:31:55.275Z</time></trkpt><trkpt lat="44.5868632" lon="8.865562"><ele>463.4</ele><time>2026-04-11T11:31:56.275Z</time></trkpt><trkpt lat="44.586949" lon="8.8655915"><ele>463.0</ele><time>2026-04-11T11:31:57.276Z</time></trkpt><trkpt lat="44.5870328" lon="8.865581"><ele>462.4</ele><time>2026-04-11T11:31:58.276Z</time></trkpt><trkpt lat="44.5871007" lon="8.8655339"><ele>461.79999999999995</ele><time>2026-04-11T11:31:59.276Z</time></trkpt><trkpt lat="44.5871713" lon="8.8654801"><ele>461.2</ele><time>2026-04-11T11:32:00.275Z</time></trkpt><trkpt lat="44.587254" lon="8.8654247"><ele>460.6</ele><time>2026-04-11T11:32:01.275Z</time></trkpt><trkpt lat="44.5873544" lon="8.8653643"><ele>460.0</ele><time>2026-04-11T11:32:02.275Z</time></trkpt><trkpt lat="44.5874667" lon="8.8653143"><ele>460.0</ele><time>2026-04-11T11:32:03.275Z</time></trkpt><trkpt lat="44.5875882" lon="8.8652973"><ele>460.0</ele><time>2026-04-11T11:32:04.275Z</time></trkpt><trkpt lat="44.5877193" lon="8.8652771"><ele>460.0</ele><time>2026-04-11T11:32:05.275Z</time></trkpt><trkpt lat="44.5878591" lon="8.8652544"><ele>460.0</ele><time>2026-04-11T11:32:06.276Z</time></trkpt><trkpt lat="44.587989" lon="8.8652071"><ele>460.2</ele><time>2026-04-11T11:32:07.276Z</time></trkpt><trkpt lat="44.5880946" lon="8.8651349"><ele>460.4</ele><time>2026-04-11T11:32:08.275Z</time></trkpt><trkpt lat="44.5881815" lon="8.8650588"><ele>460.6</ele><time>2026-04-11T11:32:09.275Z</time></trkpt><trkpt lat="44.5882585" lon="8.8649693"><ele>460.8</ele><time>2026-04-11T11:32:10.275Z</time></trkpt><trkpt lat="44.5883201" lon="8.8648455"><ele>461.0</ele><time>2026-04-11T11:32:11.275Z</time></trkpt><trkpt lat="44.5883802" lon="8.864698"><ele>461.0</ele><time>2026-04-11T11:32:12.275Z</time></trkpt><trkpt lat="44.588432" lon="8.8645315"><ele>461.0</ele><time>2026-04-11T11:32:13.275Z</time></trkpt><trkpt lat="44.5884711" lon="8.8643556"><ele>461.0</ele><time>2026-04-11T11:32:14.276Z</time></trkpt><trkpt lat="44.5885003" lon="8.864168"><ele>461.0</ele><time>2026-04-11T11:32:15.275Z</time></trkpt><trkpt lat="44.5885202" lon="8.8639793"><ele>460.5</ele><time>2026-04-11T11:32:16.276Z</time></trkpt><trkpt lat="44.5885454" lon="8.8638093"><ele>460.0</ele><time>2026-04-11T11:32:17.275Z</time></trkpt><trkpt lat="44.5885754" lon="8.8636561"><ele>459.5</ele><time>2026-04-11T11:32:18.275Z</time></trkpt><trkpt lat="44.5886231" lon="8.8635096"><ele>459.0</ele><time>2026-04-11T11:32:19.275Z</time></trkpt><trkpt lat="44.588685" lon="8.8633647"><ele>459.0</ele><time>2026-04-11T11:32:20.275Z</time></trkpt><trkpt lat="44.5887536" lon="8.8632098"><ele>459.0</ele><time>2026-04-11T11:32:21.275Z</time></trkpt><trkpt lat="44.5888253" lon="8.8630417"><ele>459.0</ele><time>2026-04-11T11:32:22.276Z</time></trkpt><trkpt lat="44.588893" lon="8.8628748"><ele>459.0</ele><time>2026-04-11T11:32:23.275Z</time></trkpt><trkpt lat="44.5889474" lon="8.8627237"><ele>458.4</ele><time>2026-04-11T11:32:24.275Z</time></trkpt><trkpt lat="44.5889796" lon="8.8625989"><ele>457.79999999999995</ele><time>2026-04-11T11:32:25.275Z</time></trkpt><trkpt lat="44.5889779" lon="8.8624654"><ele>457.20000000000005</ele><time>2026-04-11T11:32:26.275Z</time></trkpt><trkpt lat="44.5889543" lon="8.8623354"><ele>456.6</ele><time>2026-04-11T11:32:27.275Z</time></trkpt><trkpt lat="44.5888978" lon="8.8621992"><ele>456.0</ele><time>2026-04-11T11:32:28.275Z</time></trkpt><trkpt lat="44.5888182" lon="8.8620918"><ele>456.0</ele><time>2026-04-11T11:32:29.276Z</time></trkpt><trkpt lat="44.5887441" lon="8.8620027"><ele>456.0</ele><time>2026-04-11T11:32:30.276Z</time></trkpt><trkpt lat="44.5886969" lon="8.8618918"><ele>456.0</ele><time>2026-04-11T11:32:31.276Z</time></trkpt><trkpt lat="44.5886912" lon="8.8617716"><ele>456.0</ele><time>2026-04-11T11:32:32.275Z</time></trkpt><trkpt lat="44.5887131" lon="8.861633"><ele>456.0</ele><time>2026-04-11T11:32:33.276Z</time></trkpt><trkpt lat="44.5887665" lon="8.8614938"><ele>455.8</ele><time>2026-04-11T11:32:34.275Z</time></trkpt><trkpt lat="44.5888211" lon="8.8613748"><ele>455.6</ele><time>2026-04-11T11:32:35.276Z</time></trkpt><trkpt lat="44.588886" lon="8.8612766"><ele>455.4</ele><time>2026-04-11T11:32:36.275Z</time></trkpt><trkpt lat="44.5889494" lon="8.8611938"><ele>455.2</ele><time>2026-04-11T11:32:37.276Z</time></trkpt><trkpt lat="44.5890277" lon="8.8611283"><ele>455.0</ele><time>2026-04-11T11:32:38.275Z</time></trkpt><trkpt lat="44.5891286" lon="8.8610952"><ele>455.0</ele><time>2026-04-11T11:32:39.275Z</time></trkpt><trkpt lat="44.5892391" lon="8.8610664"><ele>455.0</ele><time>2026-04-11T11:32:40.275Z</time></trkpt><trkpt lat="44.5893581" lon="8.8610646"><ele>455.0</ele><time>2026-04-11T11:32:41.274Z</time></trkpt><trkpt lat="44.589484" lon="8.8610604"><ele>455.0</ele><time>2026-04-11T11:32:42.274Z</time></trkpt><trkpt lat="44.5896207" lon="8.8610682"><ele>454.25</ele><time>2026-04-11T11:32:43.274Z</time></trkpt><trkpt lat="44.5897486" lon="8.8610662"><ele>453.5</ele><time>2026-04-11T11:32:44.274Z</time></trkpt><trkpt lat="44.5898695" lon="8.8610693"><ele>452.75</ele><time>2026-04-11T11:32:45.274Z</time></trkpt><trkpt lat="44.5899922" lon="8.8610823"><ele>452.0</ele><time>2026-04-11T11:32:46.274Z</time></trkpt><trkpt lat="44.5901243" lon="8.8611116"><ele>452.0</ele><time>2026-04-11T11:32:47.274Z</time></trkpt><trkpt lat="44.5902533" lon="8.8611496"><ele>452.0</ele><time>2026-04-11T11:32:48.274Z</time></trkpt><trkpt lat="44.5903755" lon="8.8611968"><ele>452.0</ele><time>2026-04-11T11:32:49.274Z</time></trkpt><trkpt lat="44.5904909" lon="8.8612469"><ele>452.0</ele><time>2026-04-11T11:32:50.275Z</time></trkpt><trkpt lat="44.5906101" lon="8.8612509"><ele>451.5</ele><time>2026-04-11T11:32:51.275Z</time></trkpt><trkpt lat="44.5907303" lon="8.8612205"><ele>451.0</ele><time>2026-04-11T11:32:52.274Z</time></trkpt><trkpt lat="44.5908566" lon="8.8611825"><ele>450.5</ele><time>2026-04-11T11:32:53.274Z</time></trkpt><trkpt lat="44.5909959" lon="8.8611568"><ele>450.0</ele><time>2026-04-11T11:32:54.274Z</time></trkpt><trkpt lat="44.5911251" lon="8.8611158"><ele>451.5</ele><time>2026-04-11T11:32:55.274Z</time></trkpt><trkpt lat="44.5912471" lon="8.8610574"><ele>453.0</ele><time>2026-04-11T11:32:56.275Z</time></trkpt><trkpt lat="44.59135" lon="8.8609755"><ele>454.5</ele><time>2026-04-11T11:32:57.274Z</time></trkpt><trkpt lat="44.5914378" lon="8.8608553"><ele>456.0</ele><time>2026-04-11T11:32:58.275Z</time></trkpt><trkpt lat="44.5915054" lon="8.8607092"><ele>456.0</ele><time>2026-04-11T11:32:59.274Z</time></trkpt><trkpt lat="44.5915658" lon="8.8605305"><ele>456.0</ele><time>2026-04-11T11:33:00.275Z</time></trkpt><trkpt lat="44.5916191" lon="8.8603483"><ele>456.0</ele><time>2026-04-11T11:33:01.274Z</time></trkpt><trkpt lat="44.5916566" lon="8.8601767"><ele>456.0</ele><time>2026-04-11T11:33:02.274Z</time></trkpt><trkpt lat="44.5916709" lon="8.860002"><ele>452.5</ele><time>2026-04-11T11:33:03.274Z</time></trkpt><trkpt lat="44.5916587" lon="8.8598308"><ele>449.0</ele><time>2026-04-11T11:33:04.274Z</time></trkpt><trkpt lat="44.5916212" lon="8.8596612"><ele>445.5</ele><time>2026-04-11T11:33:05.274Z</time></trkpt><trkpt lat="44.5915653" lon="8.8594898"><ele>442.0</ele><time>2026-04-11T11:33:06.274Z</time></trkpt><trkpt lat="44.5915151" lon="8.8592973"><ele>442.75</ele><time>2026-04-11T11:33:07.274Z</time></trkpt><trkpt lat="44.5914676" lon="8.8590972"><ele>443.5</ele><time>2026-04-11T11:33:08.275Z</time></trkpt><trkpt lat="44.5914516" lon="8.8589019"><ele>444.25</ele><time>2026-04-11T11:33:09.274Z</time></trkpt><trkpt lat="44.5914487" lon="8.8587074"><ele>445.0</ele><time>2026-04-11T11:33:10.274Z</time></trkpt><trkpt lat="44.5914482" lon="8.8585135"><ele>444.5</ele><time>2026-04-11T11:33:11.274Z</time></trkpt><trkpt lat="44.5914384" lon="8.8583124"><ele>444.0</ele><time>2026-04-11T11:33:12.274Z</time></trkpt><trkpt lat="44.5913999" lon="8.8581263"><ele>443.5</ele><time>2026-04-11T11:33:13.274Z</time></trkpt><trkpt lat="44.5913429" lon="8.8579558"><ele>443.0</ele><time>2026-04-11T11:33:14.274Z</time></trkpt><trkpt lat="44.5912938" lon="8.8577983"><ele>443.0</ele><time>2026-04-11T11:33:15.274Z</time></trkpt><trkpt lat="44.5912624" lon="8.8576591"><ele>442.99999999999994</ele><time>2026-04-11T11:33:16.274Z</time></trkpt><trkpt lat="44.591259" lon="8.8575202"><ele>442.99999999999994</ele><time>2026-04-11T11:33:17.274Z</time></trkpt><trkpt lat="44.5912891" lon="8.857395"><ele>443.0</ele><time>2026-04-11T11:33:18.274Z</time></trkpt><trkpt lat="44.591351" lon="8.8572451"><ele>443.0</ele><time>2026-04-11T11:33:19.274Z</time></trkpt><trkpt lat="44.5914284" lon="8.8571231"><ele>440.2</ele><time>2026-04-11T11:33:20.274Z</time></trkpt><trkpt lat="44.5914953" lon="8.8570132"><ele>437.4</ele><time>2026-04-11T11:33:21.274Z</time></trkpt><trkpt lat="44.5915625" lon="8.856897"><ele>434.59999999999997</ele><time>2026-04-11T11:33:22.274Z</time></trkpt><trkpt lat="44.5916262" lon="8.8568072"><ele>431.79999999999995</ele><time>2026-04-11T11:33:23.274Z</time></trkpt><trkpt lat="44.5916987" lon="8.8567458"><ele>429.0</ele><time>2026-04-11T11:33:24.275Z</time></trkpt><trkpt lat="44.591766" lon="8.8567084"><ele>428.2</ele><time>2026-04-11T11:33:25.274Z</time></trkpt><trkpt lat="44.5918382" lon="8.8566919"><ele>427.4</ele><time>2026-04-11T11:33:26.274Z</time></trkpt><trkpt lat="44.5919239" lon="8.8567221"><ele>426.6</ele><time>2026-04-11T11:33:27.274Z</time></trkpt><trkpt lat="44.5920088" lon="8.8568024"><ele>425.8</ele><time>2026-04-11T11:33:28.274Z</time></trkpt><trkpt lat="44.5920926" lon="8.8569137"><ele>425.0</ele><time>2026-04-11T11:33:29.274Z</time></trkpt><trkpt lat="44.592191" lon="8.8570361"><ele>424.75</ele><time>2026-04-11T11:33:30.274Z</time></trkpt><trkpt lat="44.5923089" lon="8.8571521"><ele>424.5</ele><time>2026-04-11T11:33:31.274Z</time></trkpt><trkpt lat="44.5924465" lon="8.8572402"><ele>424.25</ele><time>2026-04-11T11:33:32.274Z</time></trkpt><trkpt lat="44.5925845" lon="8.8573111"><ele>424.0</ele><time>2026-04-11T11:33:33.275Z</time></trkpt><trkpt lat="44.5927104" lon="8.8573593"><ele>424.0</ele><time>2026-04-11T11:33:34.275Z</time></trkpt><trkpt lat="44.5928301" lon="8.8574188"><ele>424.0</ele><time>2026-04-11T11:33:35.275Z</time></trkpt><trkpt lat="44.5929421" lon="8.857509"><ele>424.0</ele><time>2026-04-11T11:33:36.274Z</time></trkpt><trkpt lat="44.593051" lon="8.8576359"><ele>424.0</ele><time>2026-04-11T11:33:37.275Z</time></trkpt><trkpt lat="44.593149" lon="8.8577623"><ele>425.79999999999995</ele><time>2026-04-11T11:33:38.274Z</time></trkpt><trkpt lat="44.5932389" lon="8.8578778"><ele>427.59999999999997</ele><time>2026-04-11T11:33:39.274Z</time></trkpt><trkpt lat="44.5933205" lon="8.857974"><ele>429.4</ele><time>2026-04-11T11:33:40.274Z</time></trkpt><trkpt lat="44.5933882" lon="8.8580617"><ele>431.2</ele><time>2026-04-11T11:33:41.274Z</time></trkpt><trkpt lat="44.5934432" lon="8.858162"><ele>433.0</ele><time>2026-04-11T11:33:42.274Z</time></trkpt><trkpt lat="44.5934954" lon="8.8582865"><ele>433.0</ele><time>2026-04-11T11:33:43.274Z</time></trkpt><trkpt lat="44.5935472" lon="8.8584335"><ele>433.0</ele><time>2026-04-11T11:33:44.275Z</time></trkpt><trkpt lat="44.5936122" lon="8.8585785"><ele>433.0</ele><time>2026-04-11T11:33:45.274Z</time></trkpt><trkpt lat="44.593686" lon="8.858727"><ele>433.0</ele><time>2026-04-11T11:33:46.274Z</time></trkpt><trkpt lat="44.5937678" lon="8.858868"><ele>434.0</ele><time>2026-04-11T11:33:47.274Z</time></trkpt><trkpt lat="44.5938513" lon="8.8590009"><ele>435.0</ele><time>2026-04-11T11:33:48.274Z</time></trkpt><trkpt lat="44.5939322" lon="8.8591403"><ele>436.0</ele><time>2026-04-11T11:33:49.274Z</time></trkpt><trkpt lat="44.5940139" lon="8.8592906"><ele>437.0</ele><time>2026-04-11T11:33:50.274Z</time></trkpt><trkpt lat="44.5940926" lon="8.859457"><ele>431.25</ele><time>2026-04-11T11:33:51.274Z</time></trkpt><trkpt lat="44.5941792" lon="8.8596131"><ele>425.5</ele><time>2026-04-11T11:33:52.274Z</time></trkpt><trkpt lat="44.5942754" lon="8.85977"><ele>419.75</ele><time>2026-04-11T11:33:53.274Z</time></trkpt><trkpt lat="44.5943771" lon="8.8599244"><ele>414.0</ele><time>2026-04-11T11:33:54.274Z</time></trkpt><trkpt lat="44.5944884" lon="8.8600784"><ele>410.0</ele><time>2026-04-11T11:33:55.274Z</time></trkpt><trkpt lat="44.5946144" lon="8.8602303"><ele>406.0</ele><time>2026-04-11T11:33:56.275Z</time></trkpt><trkpt lat="44.59476" lon="8.8603825"><ele>402.0</ele><time>2026-04-11T11:33:57.274Z</time></trkpt><trkpt lat="44.5949196" lon="8.8605145"><ele>402.0</ele><time>2026-04-11T11:33:58.275Z</time></trkpt><trkpt lat="44.5950783" lon="8.8606459"><ele>402.0</ele><time>2026-04-11T11:33:59.274Z</time></trkpt><trkpt lat="44.595244" lon="8.8607733"><ele>402.0</ele><time>2026-04-11T11:34:00.274Z</time></trkpt><trkpt lat="44.5954029" lon="8.8608997"><ele>401.33333333333337</ele><time>2026-04-11T11:34:01.274Z</time></trkpt><trkpt lat="44.5955545" lon="8.8610056"><ele>400.6666666666667</ele><time>2026-04-11T11:34:02.274Z</time></trkpt><trkpt lat="44.5957076" lon="8.8610776"><ele>400.0</ele><time>2026-04-11T11:34:03.274Z</time></trkpt><trkpt lat="44.5958814" lon="8.8611224"><ele>400.0</ele><time>2026-04-11T11:34:04.274Z</time></trkpt><trkpt lat="44.5960541" lon="8.8611348"><ele>400.0</ele><time>2026-04-11T11:34:05.275Z</time></trkpt><trkpt lat="44.5962378" lon="8.861128"><ele>400.0</ele><time>2026-04-11T11:34:06.274Z</time></trkpt><trkpt lat="44.5964184" lon="8.8611229"><ele>401.33333333333337</ele><time>2026-04-11T11:34:07.274Z</time></trkpt><trkpt lat="44.5965908" lon="8.8611211"><ele>402.66666666666663</ele><time>2026-04-11T11:34:08.274Z</time></trkpt><trkpt lat="44.5967556" lon="8.8611143"><ele>404.0</ele><time>2026-04-11T11:34:09.274Z</time></trkpt><trkpt lat="44.5969128" lon="8.8611052"><ele>403.0</ele><time>2026-04-11T11:34:10.275Z</time></trkpt><trkpt lat="44.5970623" lon="8.8610695"><ele>402.0</ele><time>2026-04-11T11:34:11.274Z</time></trkpt><trkpt lat="44.597221" lon="8.86101"><ele>401.0</ele><time>2026-04-11T11:34:12.274Z</time></trkpt><trkpt lat="44.5973775" lon="8.8609284"><ele>401.0</ele><time>2026-04-11T11:34:13.274Z</time></trkpt><trkpt lat="44.5975377" lon="8.8608364"><ele>401.0</ele><time>2026-04-11T11:34:14.274Z</time></trkpt><trkpt lat="44.5976978" lon="8.8607356"><ele>401.0</ele><time>2026-04-11T11:34:15.274Z</time></trkpt><trkpt lat="44.5978443" lon="8.8606181"><ele>404.0</ele><time>2026-04-11T11:34:16.274Z</time></trkpt><trkpt lat="44.5979826" lon="8.860515"><ele>407.0</ele><time>2026-04-11T11:34:17.275Z</time></trkpt><trkpt lat="44.5981208" lon="8.860423"><ele>410.0</ele><time>2026-04-11T11:34:18.274Z</time></trkpt><trkpt lat="44.5982547" lon="8.8603575"><ele>410.0</ele><time>2026-04-11T11:34:19.275Z</time></trkpt><trkpt lat="44.5983962" lon="8.860301"><ele>410.0</ele><time>2026-04-11T11:34:20.274Z</time></trkpt><trkpt lat="44.5985459" lon="8.8602561"><ele>410.0</ele><time>2026-04-11T11:34:21.274Z</time></trkpt><trkpt lat="44.5986882" lon="8.8602237"><ele>410.0</ele><time>2026-04-11T11:34:22.274Z</time></trkpt><trkpt lat="44.5988155" lon="8.8601664"><ele>408.25</ele><time>2026-04-11T11:34:23.274Z</time></trkpt><trkpt lat="44.598939" lon="8.860058"><ele>406.5</ele><time>2026-04-11T11:34:24.274Z</time></trkpt><trkpt lat="44.5990446" lon="8.8599176"><ele>404.75</ele><time>2026-04-11T11:34:25.274Z</time></trkpt><trkpt lat="44.5991491" lon="8.8597666"><ele>403.0</ele><time>2026-04-11T11:34:26.274Z</time></trkpt><trkpt lat="44.5992561" lon="8.8596067"><ele>403.0</ele><time>2026-04-11T11:34:27.274Z</time></trkpt><trkpt lat="44.5993608" lon="8.8594437"><ele>403.0</ele><time>2026-04-11T11:34:28.274Z</time></trkpt><trkpt lat="44.5994594" lon="8.859279"><ele>403.0</ele><time>2026-04-11T11:34:29.274Z</time></trkpt><trkpt lat="44.5995647" lon="8.8591261"><ele>402.75</ele><time>2026-04-11T11:34:30.274Z</time></trkpt><trkpt lat="44.5996672" lon="8.8589956"><ele>402.5</ele><time>2026-04-11T11:34:31.274Z</time></trkpt><trkpt lat="44.5997883" lon="8.8588982"><ele>402.25</ele><time>2026-04-11T11:34:32.274Z</time></trkpt><trkpt lat="44.5999231" lon="8.8588247"><ele>402.0</ele><time>2026-04-11T11:34:33.275Z</time></trkpt><trkpt lat="44.6000646" lon="8.8587818"><ele>402.0</ele><time>2026-04-11T11:34:34.275Z</time></trkpt><trkpt lat="44.6002211" lon="8.8587421"><ele>402.0</ele><time>2026-04-11T11:34:35.274Z</time></trkpt><trkpt lat="44.6003752" lon="8.8587284"><ele>402.0</ele><time>2026-04-11T11:34:36.274Z</time></trkpt><trkpt lat="44.6005237" lon="8.8587015"><ele>406.5</ele><time>2026-04-11T11:34:37.274Z</time></trkpt><trkpt lat="44.6006798" lon="8.8586838"><ele>411.0</ele><time>2026-04-11T11:34:38.274Z</time></trkpt><trkpt lat="44.6008232" lon="8.8586718"><ele>415.5</ele><time>2026-04-11T11:34:39.274Z</time></trkpt><trkpt lat="44.6009507" lon="8.8586581"><ele>420.0</ele><time>2026-04-11T11:34:40.275Z</time></trkpt><trkpt lat="44.6010697" lon="8.8586476"><ele>418.75</ele><time>2026-04-11T11:34:41.275Z</time></trkpt><trkpt lat="44.6011998" lon="8.8586495"><ele>417.5</ele><time>2026-04-11T11:34:42.274Z</time></trkpt><trkpt lat="44.6013247" lon="8.8586527"><ele>416.25</ele><time>2026-04-11T11:34:43.274Z</time></trkpt><trkpt lat="44.6014577" lon="8.858647"><ele>415.0</ele><time>2026-04-11T11:34:44.274Z</time></trkpt><trkpt lat="44.6015928" lon="8.8586385"><ele>415.0</ele><time>2026-04-11T11:34:45.274Z</time></trkpt><trkpt lat="44.601711" lon="8.8585896"><ele>415.0</ele><time>2026-04-11T11:34:46.274Z</time></trkpt><trkpt lat="44.6018249" lon="8.8585054"><ele>415.0</ele><time>2026-04-11T11:34:47.275Z</time></trkpt><trkpt lat="44.6019243" lon="8.8583805"><ele>415.0</ele><time>2026-04-11T11:34:48.275Z</time></trkpt><trkpt lat="44.6020229" lon="8.8582326"><ele>413.33333333333337</ele><time>2026-04-11T11:34:49.274Z</time></trkpt><trkpt lat="44.6021344" lon="8.8580791"><ele>411.66666666666663</ele><time>2026-04-11T11:34:50.274Z</time></trkpt><trkpt lat="44.6022537" lon="8.8579286"><ele>410.0</ele><time>2026-04-11T11:34:51.275Z</time></trkpt><trkpt lat="44.6023791" lon="8.8577764"><ele>410.0</ele><time>2026-04-11T11:34:52.274Z</time></trkpt><trkpt lat="44.6024959" lon="8.8576258"><ele>410.0</ele><time>2026-04-11T11:34:53.274Z</time></trkpt><trkpt lat="44.6026025" lon="8.8574465"><ele>410.0</ele><time>2026-04-11T11:34:54.274Z</time></trkpt><trkpt lat="44.6027116" lon="8.8572315"><ele>407.0</ele><time>2026-04-11T11:34:55.275Z</time></trkpt><trkpt lat="44.6028155" lon="8.8570253"><ele>404.0</ele><time>2026-04-11T11:34:56.275Z</time></trkpt><trkpt lat="44.6029278" lon="8.8568122"><ele>401.0</ele><time>2026-04-11T11:34:57.274Z</time></trkpt><trkpt lat="44.6030253" lon="8.8566163"><ele>396.75</ele><time>2026-04-11T11:34:58.274Z</time></trkpt><trkpt lat="44.6031291" lon="8.8564491"><ele>392.5</ele><time>2026-04-11T11:34:59.274Z</time></trkpt><trkpt lat="44.6032186" lon="8.8562811"><ele>388.25</ele><time>2026-04-11T11:35:00.275Z</time></trkpt><trkpt lat="44.6033031" lon="8.856129"><ele>384.0</ele><time>2026-04-11T11:35:01.274Z</time></trkpt><trkpt lat="44.6033816" lon="8.8559849"><ele>383.5</ele><time>2026-04-11T11:35:02.274Z</time></trkpt><trkpt lat="44.6034554" lon="8.8558426"><ele>383.0</ele><time>2026-04-11T11:35:03.274Z</time></trkpt><trkpt lat="44.6035368" lon="8.8556965"><ele>382.5</ele><time>2026-04-11T11:35:04.275Z</time></trkpt><trkpt lat="44.603626" lon="8.8555397"><ele>382.0</ele><time>2026-04-11T11:35:05.274Z</time></trkpt><trkpt lat="44.6037227" lon="8.8553789"><ele>381.66666666666663</ele><time>2026-04-11T11:35:06.274Z</time></trkpt><trkpt lat="44.603826" lon="8.8552168"><ele>381.3333333333333</ele><time>2026-04-11T11:35:07.275Z</time></trkpt><trkpt lat="44.6039319" lon="8.8550548"><ele>381.0</ele><time>2026-04-11T11:35:08.274Z</time></trkpt><trkpt lat="44.6040453" lon="8.8549001"><ele>380.0</ele><time>2026-04-11T11:35:09.274Z</time></trkpt><trkpt lat="44.6041585" lon="8.8547626"><ele>379.0</ele><time>2026-04-11T11:35:10.274Z</time></trkpt><trkpt lat="44.6042773" lon="8.8546444"><ele>378.0</ele><time>2026-04-11T11:35:11.274Z</time></trkpt><trkpt lat="44.6044111" lon="8.8545294"><ele>377.0</ele><time>2026-04-11T11:35:12.274Z</time></trkpt><trkpt lat="44.604562" lon="8.8544412"><ele>376.0</ele><time>2026-04-11T11:35:13.275Z</time></trkpt><trkpt lat="44.6047137" lon="8.8543536"><ele>375.0</ele><time>2026-04-11T11:35:14.275Z</time></trkpt><trkpt lat="44.6048604" lon="8.8542644"><ele>375.0</ele><time>2026-04-11T11:35:15.274Z</time></trkpt><trkpt lat="44.6050083" lon="8.8541793"><ele>375.0</ele><time>2026-04-11T11:35:16.274Z</time></trkpt><trkpt lat="44.605176" lon="8.8540932"><ele>375.0</ele><time>2026-04-11T11:35:17.275Z</time></trkpt><trkpt lat="44.6053502" lon="8.8540011"><ele>375.3333333333333</ele><time>2026-04-11T11:35:18.275Z</time></trkpt><trkpt lat="44.6055302" lon="8.8539168"><ele>375.66666666666663</ele><time>2026-04-11T11:35:19.274Z</time></trkpt><trkpt lat="44.6057131" lon="8.8538389"><ele>376.0</ele><time>2026-04-11T11:35:20.274Z</time></trkpt><trkpt lat="44.6058906" lon="8.8537664"><ele>376.0</ele><time>2026-04-11T11:35:21.274Z</time></trkpt><trkpt lat="44.6060612" lon="8.8536975"><ele>376.0</ele><time>2026-04-11T11:35:22.275Z</time></trkpt><trkpt lat="44.6062394" lon="8.8536301"><ele>376.0</ele><time>2026-04-11T11:35:23.274Z</time></trkpt><trkpt lat="44.6064128" lon="8.853542"><ele>375.0</ele><time>2026-04-11T11:35:24.274Z</time></trkpt><trkpt lat="44.6065935" lon="8.8534684"><ele>374.0</ele><time>2026-04-11T11:35:25.274Z</time></trkpt><trkpt lat="44.6067737" lon="8.8534024"><ele>373.0</ele><time>2026-04-11T11:35:26.274Z</time></trkpt><trkpt lat="44.606968" lon="8.8533328"><ele>374.3333333333333</ele><time>2026-04-11T11:35:27.274Z</time></trkpt><trkpt lat="44.6071696" lon="8.853272"><ele>375.6666666666667</ele><time>2026-04-11T11:35:28.274Z</time></trkpt><trkpt lat="44.6073695" lon="8.8532114"><ele>377.0</ele><time>2026-04-11T11:35:29.274Z</time></trkpt><trkpt lat="44.6075709" lon="8.8531554"><ele>377.0</ele><time>2026-04-11T11:35:30.274Z</time></trkpt><trkpt lat="44.6077595" lon="8.8530945"><ele>377.0</ele><time>2026-04-11T11:35:31.275Z</time></trkpt><trkpt lat="44.6079347" lon="8.8530303"><ele>377.0</ele><time>2026-04-11T11:35:32.274Z</time></trkpt><trkpt lat="44.608091" lon="8.8529629"><ele>381.75</ele><time>2026-04-11T11:35:33.274Z</time></trkpt><trkpt lat="44.6082328" lon="8.8528952"><ele>386.5</ele><time>2026-04-11T11:35:34.274Z</time></trkpt><trkpt lat="44.6083612" lon="8.8528184"><ele>391.25</ele><time>2026-04-11T11:35:35.274Z</time></trkpt><trkpt lat="44.6084826" lon="8.8527252"><ele>396.0</ele><time>2026-04-11T11:35:36.274Z</time></trkpt><trkpt lat="44.6085917" lon="8.8526282"><ele>397.0</ele><time>2026-04-11T11:35:37.274Z</time></trkpt><trkpt lat="44.6086803" lon="8.852527"><ele>398.0</ele><time>2026-04-11T11:35:38.274Z</time></trkpt><trkpt lat="44.6087576" lon="8.8524312"><ele>399.0</ele><time>2026-04-11T11:35:39.274Z</time></trkpt><trkpt lat="44.6088088" lon="8.8523249"><ele>400.0</ele><time>2026-04-11T11:35:40.274Z</time></trkpt><trkpt lat="44.6088327" lon="8.8521993"><ele>401.0</ele><time>2026-04-11T11:35:41.275Z</time></trkpt><trkpt lat="44.6088235" lon="8.8520486"><ele>401.0</ele><time>2026-04-11T11:35:42.275Z</time></trkpt><trkpt lat="44.6087978" lon="8.8519134"><ele>401.0</ele><time>2026-04-11T11:35:43.275Z</time></trkpt><trkpt lat="44.6087438" lon="8.8517785"><ele>401.0</ele><time>2026-04-11T11:35:44.274Z</time></trkpt><trkpt lat="44.6086802" lon="8.851642"><ele>401.0</ele><time>2026-04-11T11:35:45.274Z</time></trkpt><trkpt lat="44.6086205" lon="8.851487"><ele>394.25</ele><time>2026-04-11T11:35:46.275Z</time></trkpt><trkpt lat="44.6085704" lon="8.8513116"><ele>387.5</ele><time>2026-04-11T11:35:47.274Z</time></trkpt><trkpt lat="44.6085375" lon="8.8511278"><ele>380.75</ele><time>2026-04-11T11:35:48.275Z</time></trkpt><trkpt lat="44.608501" lon="8.8508992"><ele>374.0</ele><time>2026-04-11T11:35:49.274Z</time></trkpt><trkpt lat="44.6084705" lon="8.8506467"><ele>373.33333333333337</ele><time>2026-04-11T11:35:50.274Z</time></trkpt><trkpt lat="44.6084343" lon="8.8504048"><ele>372.6666666666667</ele><time>2026-04-11T11:35:51.275Z</time></trkpt><trkpt lat="44.6084054" lon="8.8501589"><ele>372.0</ele><time>2026-04-11T11:35:52.274Z</time></trkpt><trkpt lat="44.6083772" lon="8.8499325"><ele>373.3333333333333</ele><time>2026-04-11T11:35:53.274Z</time></trkpt><trkpt lat="44.6083585" lon="8.8497242"><ele>374.66666666666663</ele><time>2026-04-11T11:35:54.275Z</time></trkpt><trkpt lat="44.6083389" lon="8.8495118"><ele>376.0</ele><time>2026-04-11T11:35:55.274Z</time></trkpt><trkpt lat="44.6083194" lon="8.8493044"><ele>375.0</ele><time>2026-04-11T11:35:56.274Z</time></trkpt><trkpt lat="44.6083267" lon="8.8490791"><ele>374.0</ele><time>2026-04-11T11:35:57.274Z</time></trkpt><trkpt lat="44.6083491" lon="8.8488493"><ele>373.0</ele><time>2026-04-11T11:35:58.274Z</time></trkpt><trkpt lat="44.6083993" lon="8.8486241"><ele>371.3333333333333</ele><time>2026-04-11T11:35:59.274Z</time></trkpt><trkpt lat="44.6084701" lon="8.8484151"><ele>369.6666666666667</ele><time>2026-04-11T11:36:00.275Z</time></trkpt><trkpt lat="44.6085558" lon="8.8482139"><ele>368.0</ele><time>2026-04-11T11:36:01.274Z</time></trkpt><trkpt lat="44.6086549" lon="8.8480113"><ele>366.0</ele><time>2026-04-11T11:36:02.274Z</time></trkpt><trkpt lat="44.6087716" lon="8.8478258"><ele>364.0</ele><time>2026-04-11T11:36:03.274Z</time></trkpt><trkpt lat="44.6088942" lon="8.847658"><ele>362.0</ele><time>2026-04-11T11:36:04.275Z</time></trkpt><trkpt lat="44.6090085" lon="8.8474953"><ele>362.0</ele><time>2026-04-11T11:36:05.274Z</time></trkpt><trkpt lat="44.6091421" lon="8.8473372"><ele>362.0</ele><time>2026-04-11T11:36:06.275Z</time></trkpt><trkpt lat="44.609291" lon="8.8472161"><ele>362.0</ele><time>2026-04-11T11:36:07.274Z</time></trkpt><trkpt lat="44.6094477" lon="8.8471233"><ele>366.0</ele><time>2026-04-11T11:36:08.274Z</time></trkpt><trkpt lat="44.609615" lon="8.8470597"><ele>370.0</ele><time>2026-04-11T11:36:09.274Z</time></trkpt><trkpt lat="44.6097859" lon="8.8470316"><ele>374.0</ele><time>2026-04-11T11:36:10.274Z</time></trkpt><trkpt lat="44.6099551" lon="8.847023"><ele>374.0</ele><time>2026-04-11T11:36:11.274Z</time></trkpt><trkpt lat="44.6101405" lon="8.8470131"><ele>374.0</ele><time>2026-04-11T11:36:12.274Z</time></trkpt><trkpt lat="44.6103364" lon="8.8470033"><ele>374.0</ele><time>2026-04-11T11:36:13.274Z</time></trkpt><trkpt lat="44.6105407" lon="8.8469851"><ele>371.33333333333337</ele><time>2026-04-11T11:36:14.274Z</time></trkpt><trkpt lat="44.6107531" lon="8.8469547"><ele>368.6666666666667</ele><time>2026-04-11T11:36:15.274Z</time></trkpt><trkpt lat="44.6109694" lon="8.8469252"><ele>366.0</ele><time>2026-04-11T11:36:16.274Z</time></trkpt><trkpt lat="44.6111752" lon="8.8469089"><ele>365.3333333333333</ele><time>2026-04-11T11:36:17.274Z</time></trkpt><trkpt lat="44.6113698" lon="8.8468473"><ele>364.66666666666663</ele><time>2026-04-11T11:36:18.274Z</time></trkpt><trkpt lat="44.6115546" lon="8.8467786"><ele>364.0</ele><time>2026-04-11T11:36:19.275Z</time></trkpt><trkpt lat="44.6117413" lon="8.8466879"><ele>360.66666666666663</ele><time>2026-04-11T11:36:20.274Z</time></trkpt><trkpt lat="44.6119271" lon="8.8466262"><ele>357.3333333333333</ele><time>2026-04-11T11:36:21.275Z</time></trkpt><trkpt lat="44.6121053" lon="8.8465856"><ele>354.0</ele><time>2026-04-11T11:36:22.275Z</time></trkpt><trkpt lat="44.6122757" lon="8.8465494"><ele>354.0</ele><time>2026-04-11T11:36:23.274Z</time></trkpt><trkpt lat="44.6124388" lon="8.8465163"><ele>354.0</ele><time>2026-04-11T11:36:24.275Z</time></trkpt><trkpt lat="44.6125928" lon="8.8464957"><ele>354.0</ele><time>2026-04-11T11:36:25.274Z</time></trkpt><trkpt lat="44.6127421" lon="8.8464686"><ele>354.75</ele><time>2026-04-11T11:36:26.274Z</time></trkpt><trkpt lat="44.6128768" lon="8.8464448"><ele>355.5</ele><time>2026-04-11T11:36:27.274Z</time></trkpt><trkpt lat="44.6129945" lon="8.8464037"><ele>356.25</ele><time>2026-04-11T11:36:28.274Z</time></trkpt><trkpt lat="44.6130995" lon="8.846363"><ele>357.0</ele><time>2026-04-11T11:36:29.274Z</time></trkpt><trkpt lat="44.6132074" lon="8.8463264"><ele>357.0</ele><time>2026-04-11T11:36:30.274Z</time></trkpt><trkpt lat="44.6133166" lon="8.8462873"><ele>357.0</ele><time>2026-04-11T11:36:31.275Z</time></trkpt><trkpt lat="44.6134246" lon="8.8462528"><ele>357.0</ele><time>2026-04-11T11:36:32.274Z</time></trkpt><trkpt lat="44.6135405" lon="8.8462085"><ele>357.0</ele><time>2026-04-11T11:36:33.274Z</time></trkpt><trkpt lat="44.6136567" lon="8.84617"><ele>358.20000000000005</ele><time>2026-04-11T11:36:34.274Z</time></trkpt><trkpt lat="44.6137733" lon="8.8461262"><ele>359.4</ele><time>2026-04-11T11:36:35.274Z</time></trkpt><trkpt lat="44.6138774" lon="8.8461019"><ele>360.6</ele><time>2026-04-11T11:36:36.274Z</time></trkpt><trkpt lat="44.6139712" lon="8.846069"><ele>361.79999999999995</ele><time>2026-04-11T11:36:37.274Z</time></trkpt><trkpt lat="44.6140644" lon="8.8460319"><ele>363.0</ele><time>2026-04-11T11:36:38.274Z</time></trkpt><trkpt lat="44.61417" lon="8.845991"><ele>359.5</ele><time>2026-04-11T11:36:39.274Z</time></trkpt><trkpt lat="44.6142941" lon="8.8459548"><ele>356.0</ele><time>2026-04-11T11:36:40.275Z</time></trkpt><trkpt lat="44.614427" lon="8.8459102"><ele>352.5</ele><time>2026-04-11T11:36:41.274Z</time></trkpt><trkpt lat="44.6145517" lon="8.8458264"><ele>349.0</ele><time>2026-04-11T11:36:42.275Z</time></trkpt><trkpt lat="44.614676" lon="8.8457152"><ele>349.0</ele><time>2026-04-11T11:36:43.275Z</time></trkpt><trkpt lat="44.6147897" lon="8.8455942"><ele>349.0</ele><time>2026-04-11T11:36:44.274Z</time></trkpt><trkpt lat="44.6148945" lon="8.8454606"><ele>349.0</ele><time>2026-04-11T11:36:45.275Z</time></trkpt><trkpt lat="44.614995" lon="8.8453109"><ele>349.0</ele><time>2026-04-11T11:36:46.275Z</time></trkpt><trkpt lat="44.6150954" lon="8.845179"><ele>348.0</ele><time>2026-04-11T11:36:47.274Z</time></trkpt><trkpt lat="44.6151914" lon="8.8450986"><ele>347.0</ele><time>2026-04-11T11:36:48.274Z</time></trkpt><trkpt lat="44.615275" lon="8.8450575"><ele>346.0</ele><time>2026-04-11T11:36:49.274Z</time></trkpt><trkpt lat="44.6153662" lon="8.8450456"><ele>345.0</ele><time>2026-04-11T11:36:51.275Z</time></trkpt><trkpt lat="44.6154811" lon="8.8450546"><ele>344.0</ele><time>2026-04-11T11:37:19.274Z</time></trkpt><trkpt lat="44.6155901" lon="8.8450506"><ele>344.0</ele><time>2026-04-11T11:37:21.274Z</time></trkpt><trkpt lat="44.6156449" lon="8.8449991"><ele>344.0</ele><time>2026-04-11T11:37:22.274Z</time></trkpt><trkpt lat="44.6157083" lon="8.8449228"><ele>344.0</ele><time>2026-04-11T11:37:23.274Z</time></trkpt><trkpt lat="44.6157674" lon="8.8448421"><ele>344.0</ele><time>2026-04-11T11:37:24.275Z</time></trkpt><trkpt lat="44.6158386" lon="8.8447597"><ele>344.0</ele><time>2026-04-11T11:37:25.274Z</time></trkpt><trkpt lat="44.6159278" lon="8.844711"><ele>344.0</ele><time>2026-04-11T11:37:26.275Z</time></trkpt><trkpt lat="44.6160368" lon="8.8446923"><ele>343.79999999999995</ele><time>2026-04-11T11:37:27.274Z</time></trkpt><trkpt lat="44.6161611" lon="8.8446858"><ele>343.59999999999997</ele><time>2026-04-11T11:37:28.274Z</time></trkpt><trkpt lat="44.6162644" lon="8.8447217"><ele>343.4</ele><time>2026-04-11T11:37:29.274Z</time></trkpt><trkpt lat="44.6163582" lon="8.8447619"><ele>343.2</ele><time>2026-04-11T11:37:30.274Z</time></trkpt><trkpt lat="44.6164467" lon="8.8448125"><ele>343.0</ele><time>2026-04-11T11:37:31.275Z</time></trkpt><trkpt lat="44.6165375" lon="8.8448601"><ele>343.0</ele><time>2026-04-11T11:37:32.274Z</time></trkpt><trkpt lat="44.6166386" lon="8.8449075"><ele>343.0</ele><time>2026-04-11T11:37:33.274Z</time></trkpt><trkpt lat="44.6167446" lon="8.8449566"><ele>343.0</ele><time>2026-04-11T11:37:34.274Z</time></trkpt><trkpt lat="44.6168575" lon="8.8450138"><ele>343.0</ele><time>2026-04-11T11:37:35.274Z</time></trkpt><trkpt lat="44.6169793" lon="8.8450748"><ele>345.0</ele><time>2026-04-11T11:37:36.274Z</time></trkpt><trkpt lat="44.6171117" lon="8.8451416"><ele>347.0</ele><time>2026-04-11T11:37:37.274Z</time></trkpt><trkpt lat="44.6172486" lon="8.8452091"><ele>349.0</ele><time>2026-04-11T11:37:38.274Z</time></trkpt><trkpt lat="44.6173818" lon="8.8452687"><ele>351.0</ele><time>2026-04-11T11:37:39.275Z</time></trkpt><trkpt lat="44.6175069" lon="8.8453202"><ele>351.0</ele><time>2026-04-11T11:37:40.274Z</time></trkpt><trkpt lat="44.6176294" lon="8.8453519"><ele>351.0</ele><time>2026-04-11T11:37:41.274Z</time></trkpt><trkpt lat="44.6177546" lon="8.8453604"><ele>351.0</ele><time>2026-04-11T11:37:42.274Z</time></trkpt><trkpt lat="44.6178862" lon="8.845338"><ele>351.0</ele><time>2026-04-11T11:37:43.274Z</time></trkpt><trkpt lat="44.6180228" lon="8.8452911"><ele>349.75</ele><time>2026-04-11T11:37:44.275Z</time></trkpt><trkpt lat="44.6181515" lon="8.8452021"><ele>348.5</ele><time>2026-04-11T11:37:45.274Z</time></trkpt><trkpt lat="44.618261" lon="8.8450899"><ele>347.25</ele><time>2026-04-11T11:37:46.274Z</time></trkpt><trkpt lat="44.6183681" lon="8.8449571"><ele>346.0</ele><time>2026-04-11T11:37:47.275Z</time></trkpt><trkpt lat="44.6184875" lon="8.8448257"><ele>342.75</ele><time>2026-04-11T11:37:48.274Z</time></trkpt><trkpt lat="44.6186106" lon="8.8447265"><ele>339.5</ele><time>2026-04-11T11:37:49.274Z</time></trkpt><trkpt lat="44.6187379" lon="8.8446653"><ele>336.25</ele><time>2026-04-11T11:37:50.275Z</time></trkpt><trkpt lat="44.6188708" lon="8.8446191"><ele>333.0</ele><time>2026-04-11T11:37:51.275Z</time></trkpt><trkpt lat="44.6190021" lon="8.8446069"><ele>333.0</ele><time>2026-04-11T11:37:52.274Z</time></trkpt><trkpt lat="44.619118" lon="8.8446198"><ele>333.0</ele><time>2026-04-11T11:37:53.275Z</time></trkpt><trkpt lat="44.6192379" lon="8.8446618"><ele>333.0</ele><time>2026-04-11T11:37:54.274Z</time></trkpt><trkpt lat="44.6193491" lon="8.8447041"><ele>333.0</ele><time>2026-04-11T11:37:55.274Z</time></trkpt><trkpt lat="44.6194633" lon="8.8447615"><ele>329.75</ele><time>2026-04-11T11:37:56.274Z</time></trkpt><trkpt lat="44.6195876" lon="8.8448209"><ele>326.5</ele><time>2026-04-11T11:37:57.275Z</time></trkpt><trkpt lat="44.6197203" lon="8.844872"><ele>323.25</ele><time>2026-04-11T11:37:58.274Z</time></trkpt><trkpt lat="44.6198442" lon="8.8449249"><ele>320.0</ele><time>2026-04-11T11:37:59.274Z</time></trkpt><trkpt lat="44.6199558" lon="8.844973"><ele>320.0</ele><time>2026-04-11T11:38:00.274Z</time></trkpt><trkpt lat="44.6200581" lon="8.8450122"><ele>320.0</ele><time>2026-04-11T11:38:01.274Z</time></trkpt><trkpt lat="44.62016" lon="8.845053"><ele>320.0</ele><time>2026-04-11T11:38:02.274Z</time></trkpt><trkpt lat="44.620266" lon="8.845093"><ele>320.0</ele><time>2026-04-11T11:38:03.274Z</time></trkpt><trkpt lat="44.6203835" lon="8.8451274"><ele>320.0</ele><time>2026-04-11T11:38:04.274Z</time></trkpt><trkpt lat="44.6205095" lon="8.8451747"><ele>318.5</ele><time>2026-04-11T11:38:05.274Z</time></trkpt><trkpt lat="44.6206411" lon="8.8452285"><ele>317.0</ele><time>2026-04-11T11:38:06.274Z</time></trkpt><trkpt lat="44.620778" lon="8.8452839"><ele>315.5</ele><time>2026-04-11T11:38:07.274Z</time></trkpt><trkpt lat="44.6209141" lon="8.8453438"><ele>314.0</ele><time>2026-04-11T11:38:08.274Z</time></trkpt><trkpt lat="44.6210438" lon="8.8453935"><ele>313.75</ele><time>2026-04-11T11:38:09.275Z</time></trkpt><trkpt lat="44.6211709" lon="8.8454496"><ele>313.5</ele><time>2026-04-11T11:38:10.274Z</time></trkpt><trkpt lat="44.6212966" lon="8.8455046"><ele>313.25</ele><time>2026-04-11T11:38:11.275Z</time></trkpt><trkpt lat="44.621423" lon="8.8455574"><ele>313.0</ele><time>2026-04-11T11:38:12.274Z</time></trkpt><trkpt lat="44.6215493" lon="8.8456242"><ele>313.0</ele><time>2026-04-11T11:38:13.274Z</time></trkpt><trkpt lat="44.6216733" lon="8.8457002"><ele>313.0</ele><time>2026-04-11T11:38:14.274Z</time></trkpt><trkpt lat="44.6218017" lon="8.8457887"><ele>313.0</ele><time>2026-04-11T11:38:15.275Z</time></trkpt><trkpt lat="44.6219313" lon="8.8458788"><ele>313.0</ele><time>2026-04-11T11:38:16.274Z</time></trkpt><trkpt lat="44.6220632" lon="8.8459725"><ele>313.25</ele><time>2026-04-11T11:38:17.274Z</time></trkpt><trkpt lat="44.6221958" lon="8.8460542"><ele>313.5</ele><time>2026-04-11T11:38:18.274Z</time></trkpt><trkpt lat="44.6223266" lon="8.8461467"><ele>313.75</ele><time>2026-04-11T11:38:19.274Z</time></trkpt><trkpt lat="44.6224568" lon="8.8462415"><ele>314.0</ele><time>2026-04-11T11:38:20.274Z</time></trkpt><trkpt lat="44.6225811" lon="8.846324"><ele>314.0</ele><time>2026-04-11T11:38:21.275Z</time></trkpt><trkpt lat="44.6226904" lon="8.8463965"><ele>314.0</ele><time>2026-04-11T11:38:22.275Z</time></trkpt><trkpt lat="44.6227908" lon="8.8464565"><ele>314.0</ele><time>2026-04-11T11:38:23.275Z</time></trkpt><trkpt lat="44.6228911" lon="8.846518"><ele>314.0</ele><time>2026-04-11T11:38:24.275Z</time></trkpt><trkpt lat="44.6229938" lon="8.8465718"><ele>314.0</ele><time>2026-04-11T11:38:25.275Z</time></trkpt><trkpt lat="44.6231089" lon="8.8466079"><ele>316.0</ele><time>2026-04-11T11:38:26.275Z</time></trkpt><trkpt lat="44.6232392" lon="8.8466209"><ele>318.0</ele><time>2026-04-11T11:38:27.274Z</time></trkpt><trkpt lat="44.6233802" lon="8.8466162"><ele>320.0</ele><time>2026-04-11T11:38:28.274Z</time></trkpt><trkpt lat="44.6235227" lon="8.8466033"><ele>322.0</ele><time>2026-04-11T11:38:29.274Z</time></trkpt><trkpt lat="44.6236595" lon="8.846571"><ele>322.0</ele><time>2026-04-11T11:38:30.274Z</time></trkpt><trkpt lat="44.6237819" lon="8.8465154"><ele>322.0</ele><time>2026-04-11T11:38:31.274Z</time></trkpt><trkpt lat="44.6239025" lon="8.8464186"><ele>322.0</ele><time>2026-04-11T11:38:32.274Z</time></trkpt><trkpt lat="44.6240284" lon="8.846308"><ele>322.0</ele><time>2026-04-11T11:38:33.274Z</time></trkpt><trkpt lat="44.6241433" lon="8.8461858"><ele>322.0</ele><time>2026-04-11T11:38:34.274Z</time></trkpt><trkpt lat="44.6242632" lon="8.8460445"><ele>322.0</ele><time>2026-04-11T11:38:35.274Z</time></trkpt><trkpt lat="44.6243802" lon="8.8458916"><ele>322.0</ele><time>2026-04-11T11:38:36.274Z</time></trkpt><trkpt lat="44.6245039" lon="8.8457368"><ele>321.66666666666663</ele><time>2026-04-11T11:38:37.275Z</time></trkpt><trkpt lat="44.6246359" lon="8.845572"><ele>321.3333333333333</ele><time>2026-04-11T11:38:38.274Z</time></trkpt><trkpt lat="44.6247722" lon="8.8453994"><ele>321.0</ele><time>2026-04-11T11:38:39.274Z</time></trkpt><trkpt lat="44.6248968" lon="8.8452344"><ele>321.5</ele><time>2026-04-11T11:38:40.274Z</time></trkpt><trkpt lat="44.6250189" lon="8.8450848"><ele>322.0</ele><time>2026-04-11T11:38:41.274Z</time></trkpt><trkpt lat="44.6251237" lon="8.8449441"><ele>322.5</ele><time>2026-04-11T11:38:42.274Z</time></trkpt><trkpt lat="44.6252244" lon="8.8448176"><ele>323.0</ele><time>2026-04-11T11:38:43.274Z</time></trkpt><trkpt lat="44.6253201" lon="8.8446909"><ele>324.0</ele><time>2026-04-11T11:38:44.275Z</time></trkpt><trkpt lat="44.6254124" lon="8.844585"><ele>325.0</ele><time>2026-04-11T11:38:45.274Z</time></trkpt><trkpt lat="44.6254969" lon="8.844478"><ele>326.0</ele><time>2026-04-11T11:38:46.274Z</time></trkpt><trkpt lat="44.6255863" lon="8.8443712"><ele>327.0</ele><time>2026-04-11T11:38:47.274Z</time></trkpt><trkpt lat="44.6256829" lon="8.8442509"><ele>327.25</ele><time>2026-04-11T11:38:48.274Z</time></trkpt><trkpt lat="44.6257833" lon="8.8441252"><ele>327.5</ele><time>2026-04-11T11:38:49.274Z</time></trkpt><trkpt lat="44.6258907" lon="8.8439907"><ele>327.75</ele><time>2026-04-11T11:38:50.274Z</time></trkpt><trkpt lat="44.6260021" lon="8.843847"><ele>328.0</ele><time>2026-04-11T11:38:51.274Z</time></trkpt><trkpt lat="44.6261236" lon="8.8436958"><ele>327.75</ele><time>2026-04-11T11:38:52.274Z</time></trkpt><trkpt lat="44.6262409" lon="8.8435515"><ele>327.5</ele><time>2026-04-11T11:38:53.274Z</time></trkpt><trkpt lat="44.6263508" lon="8.8434181"><ele>327.25</ele><time>2026-04-11T11:38:54.274Z</time></trkpt><trkpt lat="44.6264587" lon="8.8433252"><ele>327.0</ele><time>2026-04-11T11:38:55.274Z</time></trkpt><trkpt lat="44.6265671" lon="8.8432378"><ele>327.0</ele><time>2026-04-11T11:38:56.274Z</time></trkpt><trkpt lat="44.6266886" lon="8.8431523"><ele>327.0</ele><time>2026-04-11T11:38:57.274Z</time></trkpt><trkpt lat="44.6268187" lon="8.8430892"><ele>327.0</ele><time>2026-04-11T11:38:58.274Z</time></trkpt><trkpt lat="44.6269403" lon="8.8430328"><ele>327.0</ele><time>2026-04-11T11:38:59.274Z</time></trkpt><trkpt lat="44.6270515" lon="8.8429959"><ele>326.8</ele><time>2026-04-11T11:39:00.274Z</time></trkpt><trkpt lat="44.6271535" lon="8.8429815"><ele>326.6</ele><time>2026-04-11T11:39:01.274Z</time></trkpt><trkpt lat="44.6272486" lon="8.8429576"><ele>326.40000000000003</ele><time>2026-04-11T11:39:02.274Z</time></trkpt><trkpt lat="44.6273423" lon="8.8429335"><ele>326.20000000000005</ele><time>2026-04-11T11:39:03.275Z</time></trkpt><trkpt lat="44.6274273" lon="8.8429211"><ele>326.0</ele><time>2026-04-11T11:39:04.274Z</time></trkpt><trkpt lat="44.6275085" lon="8.8429056"><ele>326.0</ele><time>2026-04-11T11:39:05.274Z</time></trkpt><trkpt lat="44.6275748" lon="8.842897"><ele>326.0</ele><time>2026-04-11T11:39:06.274Z</time></trkpt><trkpt lat="44.6276588" lon="8.8428874"><ele>326.0</ele><time>2026-04-11T11:39:08.274Z</time></trkpt><trkpt lat="44.6277477" lon="8.842787"><ele>326.0</ele><time>2026-04-11T11:40:49.273Z</time></trkpt><trkpt lat="44.6276756" lon="8.8427951"><ele>326.0</ele><time>2026-04-11T11:40:52.273Z</time></trkpt><trkpt lat="44.6275589" lon="8.8428386"><ele>326.0</ele><time>2026-04-11T11:40:54.273Z</time></trkpt><trkpt lat="44.6274793" lon="8.8428506"><ele>326.0</ele><time>2026-04-11T11:40:55.273Z</time></trkpt><trkpt lat="44.6273926" lon="8.8428718"><ele>326.0</ele><time>2026-04-11T11:40:56.273Z</time></trkpt><trkpt lat="44.6272848" lon="8.8428965"><ele>326.0</ele><time>2026-04-11T11:40:57.273Z</time></trkpt><trkpt lat="44.6271739" lon="8.8429305"><ele>326.0</ele><time>2026-04-11T11:40:58.273Z</time></trkpt><trkpt lat="44.627053" lon="8.8429678"><ele>326.25</ele><time>2026-04-11T11:40:59.274Z</time></trkpt><trkpt lat="44.6269292" lon="8.8430162"><ele>326.5</ele><time>2026-04-11T11:41:00.273Z</time></trkpt><trkpt lat="44.6268082" lon="8.843063"><ele>326.75</ele><time>2026-04-11T11:41:01.273Z</time></trkpt><trkpt lat="44.6266858" lon="8.8431363"><ele>327.0</ele><time>2026-04-11T11:41:02.273Z</time></trkpt><trkpt lat="44.6265663" lon="8.8432124"><ele>327.0</ele><time>2026-04-11T11:41:03.273Z</time></trkpt><trkpt lat="44.626457" lon="8.8432922"><ele>327.0</ele><time>2026-04-11T11:41:04.273Z</time></trkpt><trkpt lat="44.6263618" lon="8.8433848"><ele>327.0</ele><time>2026-04-11T11:41:05.274Z</time></trkpt><trkpt lat="44.6262606" lon="8.8434998"><ele>327.0</ele><time>2026-04-11T11:41:06.273Z</time></trkpt><trkpt lat="44.6261447" lon="8.84363"><ele>327.3333333333333</ele><time>2026-04-11T11:41:07.274Z</time></trkpt><trkpt lat="44.6260192" lon="8.8437818"><ele>327.66666666666663</ele><time>2026-04-11T11:41:08.273Z</time></trkpt><trkpt lat="44.6258933" lon="8.843952"><ele>328.0</ele><time>2026-04-11T11:41:09.273Z</time></trkpt><trkpt lat="44.6257588" lon="8.844123"><ele>327.66666666666663</ele><time>2026-04-11T11:41:10.274Z</time></trkpt><trkpt lat="44.6256181" lon="8.8443038"><ele>327.3333333333333</ele><time>2026-04-11T11:41:11.274Z</time></trkpt><trkpt lat="44.6254788" lon="8.8444786"><ele>327.0</ele><time>2026-04-11T11:41:12.273Z</time></trkpt><trkpt lat="44.6253449" lon="8.8446486"><ele>325.6666666666667</ele><time>2026-04-11T11:41:13.273Z</time></trkpt><trkpt lat="44.6252186" lon="8.8448072"><ele>324.33333333333337</ele><time>2026-04-11T11:41:14.274Z</time></trkpt><trkpt lat="44.6250897" lon="8.8449681"><ele>323.0</ele><time>2026-04-11T11:41:15.273Z</time></trkpt><trkpt lat="44.6249574" lon="8.845141"><ele>322.33333333333337</ele><time>2026-04-11T11:41:16.273Z</time></trkpt><trkpt lat="44.6248195" lon="8.8453244"><ele>321.6666666666667</ele><time>2026-04-11T11:41:17.273Z</time></trkpt><trkpt lat="44.6246851" lon="8.8455052"><ele>321.0</ele><time>2026-04-11T11:41:18.273Z</time></trkpt><trkpt lat="44.6245497" lon="8.845674"><ele>321.3333333333333</ele><time>2026-04-11T11:41:19.274Z</time></trkpt><trkpt lat="44.6244184" lon="8.8458352"><ele>321.66666666666663</ele><time>2026-04-11T11:41:20.273Z</time></trkpt><trkpt lat="44.6242983" lon="8.8459875"><ele>322.0</ele><time>2026-04-11T11:41:21.273Z</time></trkpt><trkpt lat="44.6241719" lon="8.8461407"><ele>322.0</ele><time>2026-04-11T11:41:22.273Z</time></trkpt><trkpt lat="44.6240294" lon="8.8462798"><ele>322.0</ele><time>2026-04-11T11:41:23.273Z</time></trkpt><trkpt lat="44.6238811" lon="8.8464142"><ele>322.0</ele><time>2026-04-11T11:41:24.273Z</time></trkpt><trkpt lat="44.6237215" lon="8.846511"><ele>322.0</ele><time>2026-04-11T11:41:25.273Z</time></trkpt><trkpt lat="44.6235432" lon="8.8465584"><ele>322.0</ele><time>2026-04-11T11:41:26.273Z</time></trkpt><trkpt lat="44.6233694" lon="8.8465827"><ele>322.0</ele><time>2026-04-11T11:41:27.273Z</time></trkpt><trkpt lat="44.6232044" lon="8.8465608"><ele>322.0</ele><time>2026-04-11T11:41:28.273Z</time></trkpt><trkpt lat="44.6230433" lon="8.8465203"><ele>322.0</ele><time>2026-04-11T11:41:29.273Z</time></trkpt><trkpt lat="44.6228756" lon="8.846447"><ele>322.0</ele><time>2026-04-11T11:41:30.273Z</time></trkpt><trkpt lat="44.6227117" lon="8.8463334"><ele>319.3333333333333</ele><time>2026-04-11T11:41:31.273Z</time></trkpt><trkpt lat="44.6225317" lon="8.8462059"><ele>316.6666666666667</ele><time>2026-04-11T11:41:32.273Z</time></trkpt><trkpt lat="44.6223575" lon="8.8460838"><ele>314.0</ele><time>2026-04-11T11:41:33.273Z</time></trkpt><trkpt lat="44.6221893" lon="8.8459705"><ele>313.6666666666667</ele><time>2026-04-11T11:41:34.273Z</time></trkpt><trkpt lat="44.6220308" lon="8.845865"><ele>313.3333333333333</ele><time>2026-04-11T11:41:35.274Z</time></trkpt><trkpt lat="44.6218847" lon="8.8457683"><ele>313.0</ele><time>2026-04-11T11:41:36.273Z</time></trkpt><trkpt lat="44.6217506" lon="8.8456823"><ele>313.0</ele><time>2026-04-11T11:41:37.274Z</time></trkpt><trkpt lat="44.6216218" lon="8.8456051"><ele>313.0</ele><time>2026-04-11T11:41:38.274Z</time></trkpt><trkpt lat="44.6214938" lon="8.8455319"><ele>313.0</ele><time>2026-04-11T11:41:39.273Z</time></trkpt><trkpt lat="44.6213588" lon="8.8454634"><ele>313.0</ele><time>2026-04-11T11:41:40.273Z</time></trkpt><trkpt lat="44.6212208" lon="8.8454055"><ele>313.25</ele><time>2026-04-11T11:41:41.273Z</time></trkpt><trkpt lat="44.6210905" lon="8.8453597"><ele>313.5</ele><time>2026-04-11T11:41:42.273Z</time></trkpt><trkpt lat="44.6209566" lon="8.8453135"><ele>313.75</ele><time>2026-04-11T11:41:43.273Z</time></trkpt><trkpt lat="44.6208263" lon="8.8452627"><ele>314.0</ele><time>2026-04-11T11:41:44.273Z</time></trkpt><trkpt lat="44.6207002" lon="8.8452154"><ele>314.0</ele><time>2026-04-11T11:41:45.273Z</time></trkpt><trkpt lat="44.6205836" lon="8.8451767"><ele>314.0</ele><time>2026-04-11T11:41:46.273Z</time></trkpt><trkpt lat="44.6204684" lon="8.8451338"><ele>314.0</ele><time>2026-04-11T11:41:47.273Z</time></trkpt><trkpt lat="44.6203525" lon="8.8450881"><ele>314.0</ele><time>2026-04-11T11:41:48.273Z</time></trkpt><trkpt lat="44.6202357" lon="8.8450449"><ele>315.2</ele><time>2026-04-11T11:41:49.273Z</time></trkpt><trkpt lat="44.6201198" lon="8.8450021"><ele>316.4</ele><time>2026-04-11T11:41:50.274Z</time></trkpt><trkpt lat="44.6200056" lon="8.8449548"><ele>317.6</ele><time>2026-04-11T11:41:51.274Z</time></trkpt><trkpt lat="44.619903" lon="8.8449068"><ele>318.8</ele><time>2026-04-11T11:41:52.274Z</time></trkpt><trkpt lat="44.6198147" lon="8.844861"><ele>320.0</ele><time>2026-04-11T11:41:53.274Z</time></trkpt><trkpt lat="44.6197335" lon="8.8448251"><ele>320.0</ele><time>2026-04-11T11:41:54.273Z</time></trkpt><trkpt lat="44.6196527" lon="8.8447879"><ele>320.0</ele><time>2026-04-11T11:41:55.273Z</time></trkpt><trkpt lat="44.6195552" lon="8.8447463"><ele>320.0</ele><time>2026-04-11T11:41:56.274Z</time></trkpt><trkpt lat="44.6194445" lon="8.8447055"><ele>320.0</ele><time>2026-04-11T11:41:57.274Z</time></trkpt><trkpt lat="44.619318" lon="8.8446691"><ele>320.0</ele><time>2026-04-11T11:41:58.273Z</time></trkpt><trkpt lat="44.6191884" lon="8.8446245"><ele>322.75</ele><time>2026-04-11T11:41:59.273Z</time></trkpt><trkpt lat="44.6190576" lon="8.8445933"><ele>325.5</ele><time>2026-04-11T11:42:00.273Z</time></trkpt><trkpt lat="44.6189249" lon="8.8445829"><ele>328.25</ele><time>2026-04-11T11:42:01.273Z</time></trkpt><trkpt lat="44.6187865" lon="8.8446084"><ele>331.0</ele><time>2026-04-11T11:42:02.274Z</time></trkpt><trkpt lat="44.6186491" lon="8.8446699"><ele>331.0</ele><time>2026-04-11T11:42:03.274Z</time></trkpt><trkpt lat="44.6185148" lon="8.8447648"><ele>331.0</ele><time>2026-04-11T11:42:04.274Z</time></trkpt><trkpt lat="44.6183977" lon="8.8449021"><ele>331.0</ele><time>2026-04-11T11:42:05.273Z</time></trkpt><trkpt lat="44.6182858" lon="8.8450275"><ele>331.0</ele><time>2026-04-11T11:42:06.273Z</time></trkpt><trkpt lat="44.6181755" lon="8.8451406"><ele>334.75</ele><time>2026-04-11T11:42:07.273Z</time></trkpt><trkpt lat="44.6180735" lon="8.8452193"><ele>338.5</ele><time>2026-04-11T11:42:08.273Z</time></trkpt><trkpt lat="44.6179664" lon="8.8452813"><ele>342.25</ele><time>2026-04-11T11:42:09.273Z</time></trkpt><trkpt lat="44.6178506" lon="8.8453062"><ele>346.0</ele><time>2026-04-11T11:42:10.273Z</time></trkpt><trkpt lat="44.6177385" lon="8.845312"><ele>347.25</ele><time>2026-04-11T11:42:11.273Z</time></trkpt><trkpt lat="44.6176208" lon="8.8453044"><ele>348.5</ele><time>2026-04-11T11:42:12.273Z</time></trkpt><trkpt lat="44.6175013" lon="8.8452741"><ele>349.75</ele><time>2026-04-11T11:42:13.273Z</time></trkpt><trkpt lat="44.6173777" lon="8.8452332"><ele>351.0</ele><time>2026-04-11T11:42:14.273Z</time></trkpt><trkpt lat="44.6172627" lon="8.8451811"><ele>349.0</ele><time>2026-04-11T11:42:15.273Z</time></trkpt><trkpt lat="44.6171468" lon="8.8451242"><ele>347.0</ele><time>2026-04-11T11:42:16.273Z</time></trkpt><trkpt lat="44.6170295" lon="8.8450512"><ele>345.0</ele><time>2026-04-11T11:42:17.274Z</time></trkpt><trkpt lat="44.6169151" lon="8.844991"><ele>343.0</ele><time>2026-04-11T11:42:18.273Z</time></trkpt><trkpt lat="44.6168052" lon="8.8449292"><ele>343.0</ele><time>2026-04-11T11:42:19.274Z</time></trkpt><trkpt lat="44.6167034" lon="8.8448697"><ele>343.0</ele><time>2026-04-11T11:42:20.273Z</time></trkpt><trkpt lat="44.6165968" lon="8.8448121"><ele>343.0</ele><time>2026-04-11T11:42:21.273Z</time></trkpt><trkpt lat="44.6164917" lon="8.8447735"><ele>343.0</ele><time>2026-04-11T11:42:22.273Z</time></trkpt><trkpt lat="44.61639" lon="8.8447394"><ele>343.0</ele><time>2026-04-11T11:42:23.273Z</time></trkpt><trkpt lat="44.6162931" lon="8.844707"><ele>343.0</ele><time>2026-04-11T11:42:24.273Z</time></trkpt><trkpt lat="44.6161963" lon="8.8446763"><ele>343.0</ele><time>2026-04-11T11:42:25.274Z</time></trkpt><trkpt lat="44.6160986" lon="8.8446582"><ele>343.0</ele><time>2026-04-11T11:42:26.273Z</time></trkpt><trkpt lat="44.6160022" lon="8.8446551"><ele>343.0</ele><time>2026-04-11T11:42:27.273Z</time></trkpt><trkpt lat="44.6159116" lon="8.844677"><ele>343.0</ele><time>2026-04-11T11:42:28.274Z</time></trkpt><trkpt lat="44.6158277" lon="8.8447006"><ele>343.16666666666663</ele><time>2026-04-11T11:42:29.274Z</time></trkpt><trkpt lat="44.6157508" lon="8.8447169"><ele>343.3333333333333</ele><time>2026-04-11T11:42:30.273Z</time></trkpt><trkpt lat="44.6156793" lon="8.8447305"><ele>343.5</ele><time>2026-04-11T11:42:31.274Z</time></trkpt><trkpt lat="44.615616" lon="8.8447483"><ele>343.6666666666667</ele><time>2026-04-11T11:42:32.273Z</time></trkpt><trkpt lat="44.6155579" lon="8.8447898"><ele>343.83333333333337</ele><time>2026-04-11T11:42:33.273Z</time></trkpt><trkpt lat="44.6155023" lon="8.8449255"><ele>344.0</ele><time>2026-04-11T11:42:35.274Z</time></trkpt><trkpt lat="44.615525" lon="8.8450786"><ele>346.2</ele><time>2026-04-11T11:42:37.274Z</time></trkpt><trkpt lat="44.6156361" lon="8.8451663"><ele>348.4</ele><time>2026-04-11T11:42:39.273Z</time></trkpt><trkpt lat="44.6157193" lon="8.8452047"><ele>350.6</ele><time>2026-04-11T11:42:40.273Z</time></trkpt><trkpt lat="44.6158095" lon="8.8452658"><ele>352.8</ele><time>2026-04-11T11:42:41.274Z</time></trkpt><trkpt lat="44.615907" lon="8.8453561"><ele>355.0</ele><time>2026-04-11T11:42:42.274Z</time></trkpt><trkpt lat="44.6160013" lon="8.845435"><ele>355.0</ele><time>2026-04-11T11:42:43.273Z</time></trkpt><trkpt lat="44.6161107" lon="8.8454972"><ele>355.0</ele><time>2026-04-11T11:42:44.274Z</time></trkpt><trkpt lat="44.6162343" lon="8.8455076"><ele>355.0</ele><time>2026-04-11T11:42:45.274Z</time></trkpt><trkpt lat="44.6163547" lon="8.8454808"><ele>355.0</ele><time>2026-04-11T11:42:46.273Z</time></trkpt><trkpt lat="44.6164806" lon="8.8454525"><ele>356.0</ele><time>2026-04-11T11:42:47.274Z</time></trkpt><trkpt lat="44.6166121" lon="8.845439"><ele>357.0</ele><time>2026-04-11T11:42:48.273Z</time></trkpt><trkpt lat="44.6167347" lon="8.845446"><ele>358.0</ele><time>2026-04-11T11:42:49.274Z</time></trkpt><trkpt lat="44.6168467" lon="8.8454982"><ele>359.0</ele><time>2026-04-11T11:42:50.273Z</time></trkpt><trkpt lat="44.6169424" lon="8.8455795"><ele>357.4</ele><time>2026-04-11T11:42:51.274Z</time></trkpt><trkpt lat="44.6169996" lon="8.8456756"><ele>355.79999999999995</ele><time>2026-04-11T11:42:52.273Z</time></trkpt><trkpt lat="44.6170205" lon="8.8458029"><ele>354.20000000000005</ele><time>2026-04-11T11:42:53.274Z</time></trkpt><trkpt lat="44.6170067" lon="8.8459383"><ele>352.6</ele><time>2026-04-11T11:42:54.273Z</time></trkpt><trkpt lat="44.6169557" lon="8.8460384"><ele>351.0</ele><time>2026-04-11T11:42:55.274Z</time></trkpt><trkpt lat="44.6168723" lon="8.8461007"><ele>357.75</ele><time>2026-04-11T11:42:56.273Z</time></trkpt><trkpt lat="44.6167582" lon="8.8461319"><ele>364.5</ele><time>2026-04-11T11:42:57.273Z</time></trkpt><trkpt lat="44.6166274" lon="8.8461442"><ele>371.25</ele><time>2026-04-11T11:42:58.273Z</time></trkpt><trkpt lat="44.6164905" lon="8.8461791"><ele>378.0</ele><time>2026-04-11T11:42:59.273Z</time></trkpt><trkpt lat="44.6163604" lon="8.8462535"><ele>378.0</ele><time>2026-04-11T11:43:00.273Z</time></trkpt><trkpt lat="44.6162249" lon="8.8463604"><ele>378.0</ele><time>2026-04-11T11:43:01.273Z</time></trkpt><trkpt lat="44.6160952" lon="8.846462"><ele>378.0</ele><time>2026-04-11T11:43:02.274Z</time></trkpt><trkpt lat="44.615954" lon="8.8465661"><ele>377.5</ele><time>2026-04-11T11:43:03.274Z</time></trkpt><trkpt lat="44.6158218" lon="8.8466884"><ele>377.0</ele><time>2026-04-11T11:43:04.274Z</time></trkpt><trkpt lat="44.615708" lon="8.8468277"><ele>376.5</ele><time>2026-04-11T11:43:05.273Z</time></trkpt><trkpt lat="44.6156039" lon="8.8469459"><ele>376.0</ele><time>2026-04-11T11:43:06.274Z</time></trkpt><trkpt lat="44.6154993" lon="8.8470472"><ele>379.5</ele><time>2026-04-11T11:43:07.274Z</time></trkpt><trkpt lat="44.6153815" lon="8.8470976"><ele>383.0</ele><time>2026-04-11T11:43:08.273Z</time></trkpt><trkpt lat="44.6152463" lon="8.8471292"><ele>386.5</ele><time>2026-04-11T11:43:09.274Z</time></trkpt><trkpt lat="44.6151067" lon="8.8471515"><ele>390.0</ele><time>2026-04-11T11:43:10.274Z</time></trkpt><trkpt lat="44.6149511" lon="8.8471769"><ele>390.66666666666663</ele><time>2026-04-11T11:43:11.273Z</time></trkpt><trkpt lat="44.6147967" lon="8.847208"><ele>391.3333333333333</ele><time>2026-04-11T11:43:12.273Z</time></trkpt><trkpt lat="44.6146442" lon="8.8472472"><ele>392.0</ele><time>2026-04-11T11:43:13.273Z</time></trkpt><trkpt lat="44.6144883" lon="8.8472885"><ele>389.25</ele><time>2026-04-11T11:43:14.274Z</time></trkpt><trkpt lat="44.6143485" lon="8.8473208"><ele>386.5</ele><time>2026-04-11T11:43:15.273Z</time></trkpt><trkpt lat="44.6142259" lon="8.8473588"><ele>383.75</ele><time>2026-04-11T11:43:16.273Z</time></trkpt><trkpt lat="44.6141139" lon="8.8474036"><ele>381.0</ele><time>2026-04-11T11:43:17.274Z</time></trkpt><trkpt lat="44.6140065" lon="8.84747"><ele>381.0</ele><time>2026-04-11T11:43:18.274Z</time></trkpt><trkpt lat="44.6139061" lon="8.8475689"><ele>381.0</ele><time>2026-04-11T11:43:19.273Z</time></trkpt><trkpt lat="44.6138168" lon="8.8476854"><ele>381.0</ele><time>2026-04-11T11:43:20.273Z</time></trkpt><trkpt lat="44.6137353" lon="8.8478267"><ele>381.0</ele><time>2026-04-11T11:43:21.273Z</time></trkpt><trkpt lat="44.613659" lon="8.8479721"><ele>383.5</ele><time>2026-04-11T11:43:22.274Z</time></trkpt><trkpt lat="44.6135904" lon="8.84813"><ele>386.0</ele><time>2026-04-11T11:43:23.273Z</time></trkpt><trkpt lat="44.6135444" lon="8.8483093"><ele>388.5</ele><time>2026-04-11T11:43:24.273Z</time></trkpt><trkpt lat="44.6135265" lon="8.8485016"><ele>391.0</ele><time>2026-04-11T11:43:25.273Z</time></trkpt><trkpt lat="44.6135168" lon="8.8486812"><ele>391.4</ele><time>2026-04-11T11:43:26.273Z</time></trkpt><trkpt lat="44.6135008" lon="8.848835"><ele>391.8</ele><time>2026-04-11T11:43:27.273Z</time></trkpt><trkpt lat="44.6134562" lon="8.8489563"><ele>392.2</ele><time>2026-04-11T11:43:28.273Z</time></trkpt><trkpt lat="44.6133879" lon="8.8490343"><ele>392.59999999999997</ele><time>2026-04-11T11:43:29.274Z</time></trkpt><trkpt lat="44.6132967" lon="8.8490746"><ele>393.0</ele><time>2026-04-11T11:43:30.273Z</time></trkpt><trkpt lat="44.6131913" lon="8.8490975"><ele>393.0</ele><time>2026-04-11T11:43:31.273Z</time></trkpt><trkpt lat="44.6130692" lon="8.8490857"><ele>393.0</ele><time>2026-04-11T11:43:32.273Z</time></trkpt><trkpt lat="44.6129391" lon="8.8490778"><ele>393.0</ele><time>2026-04-11T11:43:33.273Z</time></trkpt><trkpt lat="44.6128144" lon="8.8490709"><ele>393.0</ele><time>2026-04-11T11:43:34.274Z</time></trkpt><trkpt lat="44.6126963" lon="8.8490794"><ele>392.5</ele><time>2026-04-11T11:43:35.274Z</time></trkpt><trkpt lat="44.6125779" lon="8.849126"><ele>392.0</ele><time>2026-04-11T11:43:36.273Z</time></trkpt><trkpt lat="44.6124633" lon="8.8491918"><ele>391.5</ele><time>2026-04-11T11:43:37.273Z</time></trkpt><trkpt lat="44.6123473" lon="8.8492897"><ele>391.0</ele><time>2026-04-11T11:43:38.274Z</time></trkpt><trkpt lat="44.6122406" lon="8.8494068"><ele>391.0</ele><time>2026-04-11T11:43:39.273Z</time></trkpt><trkpt lat="44.6121332" lon="8.8495332"><ele>391.0</ele><time>2026-04-11T11:43:40.274Z</time></trkpt><trkpt lat="44.6120228" lon="8.849657"><ele>391.0</ele><time>2026-04-11T11:43:41.273Z</time></trkpt><trkpt lat="44.6119077" lon="8.8497718"><ele>391.0</ele><time>2026-04-11T11:43:42.273Z</time></trkpt><trkpt lat="44.6117938" lon="8.84987"><ele>395.0</ele><time>2026-04-11T11:43:43.273Z</time></trkpt><trkpt lat="44.6116853" lon="8.8499741"><ele>399.0</ele><time>2026-04-11T11:43:44.273Z</time></trkpt><trkpt lat="44.6115865" lon="8.8500864"><ele>403.0</ele><time>2026-04-11T11:43:45.273Z</time></trkpt><trkpt lat="44.6114962" lon="8.8502152"><ele>407.0</ele><time>2026-04-11T11:43:46.274Z</time></trkpt><trkpt lat="44.6114119" lon="8.8503642"><ele>407.0</ele><time>2026-04-11T11:43:47.273Z</time></trkpt><trkpt lat="44.611335" lon="8.8505265"><ele>407.0</ele><time>2026-04-11T11:43:48.273Z</time></trkpt><trkpt lat="44.6112626" lon="8.850697"><ele>407.0</ele><time>2026-04-11T11:43:49.273Z</time></trkpt><trkpt lat="44.6111954" lon="8.8508737"><ele>407.0</ele><time>2026-04-11T11:43:50.274Z</time></trkpt><trkpt lat="44.6111221" lon="8.8510547"><ele>410.75</ele><time>2026-04-11T11:43:51.274Z</time></trkpt><trkpt lat="44.6110418" lon="8.8512049"><ele>414.5</ele><time>2026-04-11T11:43:52.273Z</time></trkpt><trkpt lat="44.6109558" lon="8.8513263"><ele>418.25</ele><time>2026-04-11T11:43:53.273Z</time></trkpt><trkpt lat="44.6108524" lon="8.8514198"><ele>422.0</ele><time>2026-04-11T11:43:54.273Z</time></trkpt><trkpt lat="44.6107381" lon="8.8514915"><ele>422.0</ele><time>2026-04-11T11:43:55.273Z</time></trkpt><trkpt lat="44.6106294" lon="8.8515711"><ele>422.0</ele><time>2026-04-11T11:43:56.273Z</time></trkpt><trkpt lat="44.6105464" lon="8.8516918"><ele>422.0</ele><time>2026-04-11T11:43:57.273Z</time></trkpt><trkpt lat="44.6104885" lon="8.8518463"><ele>422.0</ele><time>2026-04-11T11:43:58.273Z</time></trkpt><trkpt lat="44.6104365" lon="8.8520146"><ele>421.75</ele><time>2026-04-11T11:43:59.273Z</time></trkpt><trkpt lat="44.6103788" lon="8.8521845"><ele>421.5</ele><time>2026-04-11T11:44:00.273Z</time></trkpt><trkpt lat="44.6102966" lon="8.8523073"><ele>421.25</ele><time>2026-04-11T11:44:01.273Z</time></trkpt><trkpt lat="44.6101858" lon="8.8524002"><ele>421.0</ele><time>2026-04-11T11:44:02.273Z</time></trkpt><trkpt lat="44.6100615" lon="8.8524976"><ele>422.0</ele><time>2026-04-11T11:44:03.274Z</time></trkpt><trkpt lat="44.609954" lon="8.8526157"><ele>423.0</ele><time>2026-04-11T11:44:04.273Z</time></trkpt><trkpt lat="44.6098655" lon="8.8527679"><ele>424.0</ele><time>2026-04-11T11:44:05.273Z</time></trkpt><trkpt lat="44.609811" lon="8.8529501"><ele>425.0</ele><time>2026-04-11T11:44:06.273Z</time></trkpt><trkpt lat="44.609777" lon="8.8531536"><ele>425.66666666666663</ele><time>2026-04-11T11:44:07.273Z</time></trkpt><trkpt lat="44.6097527" lon="8.8533685"><ele>426.33333333333337</ele><time>2026-04-11T11:44:08.274Z</time></trkpt><trkpt lat="44.6097222" lon="8.8535742"><ele>427.0</ele><time>2026-04-11T11:44:09.273Z</time></trkpt><trkpt lat="44.6096763" lon="8.8537703"><ele>427.0</ele><time>2026-04-11T11:44:10.273Z</time></trkpt><trkpt lat="44.6096095" lon="8.8539535"><ele>427.0</ele><time>2026-04-11T11:44:11.273Z</time></trkpt><trkpt lat="44.6095229" lon="8.8541249"><ele>427.0</ele><time>2026-04-11T11:44:12.273Z</time></trkpt><trkpt lat="44.6094072" lon="8.8542772"><ele>432.33333333333337</ele><time>2026-04-11T11:44:13.273Z</time></trkpt><trkpt lat="44.6092726" lon="8.8544117"><ele>437.66666666666663</ele><time>2026-04-11T11:44:14.274Z</time></trkpt><trkpt lat="44.6091296" lon="8.8545395"><ele>443.0</ele><time>2026-04-11T11:44:15.273Z</time></trkpt><trkpt lat="44.6089835" lon="8.8546768"><ele>443.0</ele><time>2026-04-11T11:44:16.273Z</time></trkpt><trkpt lat="44.6088335" lon="8.8548207"><ele>443.0</ele><time>2026-04-11T11:44:17.274Z</time></trkpt><trkpt lat="44.6086873" lon="8.8549769"><ele>443.0</ele><time>2026-04-11T11:44:18.274Z</time></trkpt><trkpt lat="44.6085388" lon="8.8551324"><ele>448.3333333333333</ele><time>2026-04-11T11:44:19.273Z</time></trkpt><trkpt lat="44.6083937" lon="8.8552961"><ele>453.66666666666663</ele><time>2026-04-11T11:44:20.274Z</time></trkpt><trkpt lat="44.608269" lon="8.855457"><ele>459.0</ele><time>2026-04-11T11:44:21.273Z</time></trkpt><trkpt lat="44.6081666" lon="8.8556193"><ele>459.0</ele><time>2026-04-11T11:44:22.273Z</time></trkpt><trkpt lat="44.6080684" lon="8.8557734"><ele>459.0</ele><time>2026-04-11T11:44:23.274Z</time></trkpt><trkpt lat="44.6079472" lon="8.8559103"><ele>459.0</ele><time>2026-04-11T11:44:24.274Z</time></trkpt><trkpt lat="44.6077893" lon="8.8560138"><ele>463.25</ele><time>2026-04-11T11:44:25.273Z</time></trkpt><trkpt lat="44.6076359" lon="8.8560668"><ele>467.5</ele><time>2026-04-11T11:44:26.274Z</time></trkpt><trkpt lat="44.6074978" lon="8.8561303"><ele>471.75</ele><time>2026-04-11T11:44:27.273Z</time></trkpt><trkpt lat="44.6073707" lon="8.8562183"><ele>476.0</ele><time>2026-04-11T11:44:28.274Z</time></trkpt><trkpt lat="44.6072526" lon="8.856341"><ele>476.0</ele><time>2026-04-11T11:44:29.274Z</time></trkpt><trkpt lat="44.6071402" lon="8.8564729"><ele>476.0</ele><time>2026-04-11T11:44:30.273Z</time></trkpt><trkpt lat="44.6070142" lon="8.8565717"><ele>476.0</ele><time>2026-04-11T11:44:31.273Z</time></trkpt><trkpt lat="44.606883" lon="8.8566122"><ele>476.0</ele><time>2026-04-11T11:44:32.274Z</time></trkpt><trkpt lat="44.6067582" lon="8.8566566"><ele>473.5</ele><time>2026-04-11T11:44:33.273Z</time></trkpt><trkpt lat="44.6066659" lon="8.8567104"><ele>471.0</ele><time>2026-04-11T11:44:34.273Z</time></trkpt><trkpt lat="44.6065876" lon="8.8567977"><ele>468.5</ele><time>2026-04-11T11:44:35.274Z</time></trkpt><trkpt lat="44.6065279" lon="8.8569476"><ele>466.0</ele><time>2026-04-11T11:44:36.273Z</time></trkpt><trkpt lat="44.606474" lon="8.8571246"><ele>472.0</ele><time>2026-04-11T11:44:37.273Z</time></trkpt><trkpt lat="44.6064108" lon="8.8572987"><ele>478.0</ele><time>2026-04-11T11:44:38.273Z</time></trkpt><trkpt lat="44.6063102" lon="8.8574505"><ele>484.0</ele><time>2026-04-11T11:44:39.274Z</time></trkpt><trkpt lat="44.6061816" lon="8.857564"><ele>490.0</ele><time>2026-04-11T11:44:40.274Z</time></trkpt><trkpt lat="44.6060466" lon="8.8576701"><ele>490.0</ele><time>2026-04-11T11:44:41.273Z</time></trkpt><trkpt lat="44.6059346" lon="8.8577985"><ele>490.0</ele><time>2026-04-11T11:44:42.273Z</time></trkpt><trkpt lat="44.6058512" lon="8.8579422"><ele>490.0</ele><time>2026-04-11T11:44:43.273Z</time></trkpt><trkpt lat="44.6057937" lon="8.85812"><ele>490.0</ele><time>2026-04-11T11:44:44.273Z</time></trkpt><trkpt lat="44.6057442" lon="8.8583003"><ele>495.75</ele><time>2026-04-11T11:44:45.274Z</time></trkpt><trkpt lat="44.6056974" lon="8.8584877"><ele>501.5</ele><time>2026-04-11T11:44:46.273Z</time></trkpt><trkpt lat="44.6056278" lon="8.8586515"><ele>507.25</ele><time>2026-04-11T11:44:47.273Z</time></trkpt><trkpt lat="44.605529" lon="8.8587813"><ele>513.0</ele><time>2026-04-11T11:44:48.273Z</time></trkpt><trkpt lat="44.6054152" lon="8.8589045"><ele>512.25</ele><time>2026-04-11T11:44:49.273Z</time></trkpt><trkpt lat="44.605297" lon="8.8590342"><ele>511.5</ele><time>2026-04-11T11:44:50.273Z</time></trkpt><trkpt lat="44.605181" lon="8.8591644"><ele>510.75</ele><time>2026-04-11T11:44:51.273Z</time></trkpt><trkpt lat="44.6050629" lon="8.8592603"><ele>510.0</ele><time>2026-04-11T11:44:52.273Z</time></trkpt><trkpt lat="44.6049551" lon="8.8593258"><ele>510.0</ele><time>2026-04-11T11:44:53.273Z</time></trkpt><trkpt lat="44.6048684" lon="8.8593872"><ele>510.0</ele><time>2026-04-11T11:44:54.274Z</time></trkpt><trkpt lat="44.6047956" lon="8.8594659"><ele>510.0</ele><time>2026-04-11T11:44:55.273Z</time></trkpt><trkpt lat="44.6047457" lon="8.8595945"><ele>510.0</ele><time>2026-04-11T11:44:56.273Z</time></trkpt><trkpt lat="44.6047309" lon="8.8597442"><ele>510.0</ele><time>2026-04-11T11:44:57.273Z</time></trkpt><trkpt lat="44.6047347" lon="8.8599136"><ele>510.0</ele><time>2026-04-11T11:44:58.273Z</time></trkpt><trkpt lat="44.6047486" lon="8.8600624"><ele>510.0</ele><time>2026-04-11T11:44:59.273Z</time></trkpt><trkpt lat="44.6047373" lon="8.8601888"><ele>510.0</ele><time>2026-04-11T11:45:00.274Z</time></trkpt><trkpt lat="44.6046801" lon="8.8602734"><ele>510.0</ele><time>2026-04-11T11:45:01.274Z</time></trkpt><trkpt lat="44.604589" lon="8.860326"><ele>510.0</ele><time>2026-04-11T11:45:02.274Z</time></trkpt><trkpt lat="44.6044896" lon="8.8603762"><ele>512.25</ele><time>2026-04-11T11:45:03.274Z</time></trkpt><trkpt lat="44.6043699" lon="8.8604105"><ele>514.5</ele><time>2026-04-11T11:45:04.274Z</time></trkpt><trkpt lat="44.6042323" lon="8.8604519"><ele>516.75</ele><time>2026-04-11T11:45:05.273Z</time></trkpt><trkpt lat="44.6040955" lon="8.860493"><ele>519.0</ele><time>2026-04-11T11:45:06.274Z</time></trkpt><trkpt lat="44.6039718" lon="8.8605317"><ele>519.0</ele><time>2026-04-11T11:45:07.274Z</time></trkpt><trkpt lat="44.6038723" lon="8.8605774"><ele>519.0</ele><time>2026-04-11T11:45:08.274Z</time></trkpt><trkpt lat="44.6037969" lon="8.8606585"><ele>519.0</ele><time>2026-04-11T11:45:09.273Z</time></trkpt><trkpt lat="44.6037523" lon="8.8607666"><ele>519.0</ele><time>2026-04-11T11:45:10.273Z</time></trkpt><trkpt lat="44.6037148" lon="8.8609136"><ele>519.0</ele><time>2026-04-11T11:45:11.273Z</time></trkpt><trkpt lat="44.6037053" lon="8.8610988"><ele>518.75</ele><time>2026-04-11T11:45:12.273Z</time></trkpt><trkpt lat="44.6037159" lon="8.8612874"><ele>518.5</ele><time>2026-04-11T11:45:13.273Z</time></trkpt><trkpt lat="44.6037597" lon="8.8614777"><ele>518.25</ele><time>2026-04-11T11:45:14.274Z</time></trkpt><trkpt lat="44.6038128" lon="8.8616858"><ele>518.0</ele><time>2026-04-11T11:45:15.274Z</time></trkpt><trkpt lat="44.6038545" lon="8.8618738"><ele>518.0</ele><time>2026-04-11T11:45:16.274Z</time></trkpt><trkpt lat="44.603905" lon="8.8620298"><ele>518.0</ele><time>2026-04-11T11:45:17.274Z</time></trkpt><trkpt lat="44.6039853" lon="8.8621626"><ele>518.0</ele><time>2026-04-11T11:45:18.273Z</time></trkpt><trkpt lat="44.6041023" lon="8.8622643"><ele>518.0</ele><time>2026-04-11T11:45:19.273Z</time></trkpt><trkpt lat="44.6042082" lon="8.8623958"><ele>518.0</ele><time>2026-04-11T11:45:20.273Z</time></trkpt><trkpt lat="44.6042798" lon="8.8625743"><ele>518.0</ele><time>2026-04-11T11:45:21.274Z</time></trkpt><trkpt lat="44.6043335" lon="8.8627538"><ele>518.0</ele><time>2026-04-11T11:45:22.274Z</time></trkpt><trkpt lat="44.604352" lon="8.8629181"><ele>518.0</ele><time>2026-04-11T11:45:23.273Z</time></trkpt><trkpt lat="44.6043271" lon="8.8630823"><ele>518.0</ele><time>2026-04-11T11:45:24.273Z</time></trkpt><trkpt lat="44.6042764" lon="8.8632461"><ele>518.0</ele><time>2026-04-11T11:45:25.273Z</time></trkpt><trkpt lat="44.6042432" lon="8.8634252"><ele>518.0</ele><time>2026-04-11T11:45:26.273Z</time></trkpt><trkpt lat="44.604215" lon="8.8636251"><ele>518.0</ele><time>2026-04-11T11:45:27.274Z</time></trkpt><trkpt lat="44.6041666" lon="8.8638115"><ele>521.5</ele><time>2026-04-11T11:45:28.273Z</time></trkpt><trkpt lat="44.6040686" lon="8.8639429"><ele>525.0</ele><time>2026-04-11T11:45:29.273Z</time></trkpt><trkpt lat="44.60394" lon="8.8640505"><ele>528.5</ele><time>2026-04-11T11:45:30.273Z</time></trkpt><trkpt lat="44.603818" lon="8.8641486"><ele>532.0</ele><time>2026-04-11T11:45:31.273Z</time></trkpt><trkpt lat="44.603721" lon="8.864269"><ele>529.3333333333334</ele><time>2026-04-11T11:45:32.274Z</time></trkpt><trkpt lat="44.6036498" lon="8.8644391"><ele>526.6666666666666</ele><time>2026-04-11T11:45:33.273Z</time></trkpt><trkpt lat="44.6036079" lon="8.8646418"><ele>524.0</ele><time>2026-04-11T11:45:34.273Z</time></trkpt><trkpt lat="44.6035795" lon="8.8648694"><ele>524.0</ele><time>2026-04-11T11:45:35.273Z</time></trkpt><trkpt lat="44.6035605" lon="8.8650975"><ele>524.0</ele><time>2026-04-11T11:45:36.274Z</time></trkpt><trkpt lat="44.6035369" lon="8.8653076"><ele>524.0</ele><time>2026-04-11T11:45:37.273Z</time></trkpt><trkpt lat="44.6034753" lon="8.8654802"><ele>526.0</ele><time>2026-04-11T11:45:38.273Z</time></trkpt><trkpt lat="44.6033787" lon="8.8656066"><ele>528.0</ele><time>2026-04-11T11:45:39.274Z</time></trkpt><trkpt lat="44.6032497" lon="8.8656953"><ele>530.0</ele><time>2026-04-11T11:45:40.274Z</time></trkpt><trkpt lat="44.6031084" lon="8.8657944"><ele>532.0</ele><time>2026-04-11T11:45:41.274Z</time></trkpt><trkpt lat="44.6029635" lon="8.8659088"><ele>532.6666666666667</ele><time>2026-04-11T11:45:42.274Z</time></trkpt><trkpt lat="44.6028185" lon="8.8660397"><ele>533.3333333333334</ele><time>2026-04-11T11:45:43.273Z</time></trkpt><trkpt lat="44.6026683" lon="8.8661601"><ele>534.0</ele><time>2026-04-11T11:45:44.273Z</time></trkpt><trkpt lat="44.6025262" lon="8.8662844"><ele>534.0</ele><time>2026-04-11T11:45:45.273Z</time></trkpt><trkpt lat="44.602395" lon="8.8664268"><ele>534.0</ele><time>2026-04-11T11:45:46.274Z</time></trkpt><trkpt lat="44.6022668" lon="8.8665938"><ele>534.0</ele><time>2026-04-11T11:45:47.273Z</time></trkpt><trkpt lat="44.6021355" lon="8.866762"><ele>536.3333333333334</ele><time>2026-04-11T11:45:48.273Z</time></trkpt><trkpt lat="44.6019937" lon="8.8669362"><ele>538.6666666666667</ele><time>2026-04-11T11:45:49.273Z</time></trkpt><trkpt lat="44.6018466" lon="8.8671097"><ele>541.0</ele><time>2026-04-11T11:45:50.273Z</time></trkpt><trkpt lat="44.6017013" lon="8.8672768"><ele>541.0</ele><time>2026-04-11T11:45:51.274Z</time></trkpt><trkpt lat="44.6015731" lon="8.8674277"><ele>541.0</ele><time>2026-04-11T11:45:52.273Z</time></trkpt><trkpt lat="44.6014503" lon="8.8675631"><ele>541.0</ele><time>2026-04-11T11:45:53.274Z</time></trkpt><trkpt lat="44.6013399" lon="8.8676712"><ele>539.0</ele><time>2026-04-11T11:45:54.274Z</time></trkpt><trkpt lat="44.6012276" lon="8.8677366"><ele>537.0</ele><time>2026-04-11T11:45:55.274Z</time></trkpt><trkpt lat="44.6010984" lon="8.8677507"><ele>535.0</ele><time>2026-04-11T11:45:56.273Z</time></trkpt><trkpt lat="44.6009573" lon="8.8677205"><ele>533.0</ele><time>2026-04-11T11:45:57.273Z</time></trkpt><trkpt lat="44.6007912" lon="8.867658"><ele>538.6666666666666</ele><time>2026-04-11T11:45:58.274Z</time></trkpt><trkpt lat="44.6006323" lon="8.8675776"><ele>544.3333333333334</ele><time>2026-04-11T11:45:59.274Z</time></trkpt><trkpt lat="44.600478" lon="8.8675236"><ele>550.0</ele><time>2026-04-11T11:46:00.272Z</time></trkpt><trkpt lat="44.6003403" lon="8.8674916"><ele>552.25</ele><time>2026-04-11T11:46:01.272Z</time></trkpt><trkpt lat="44.6002108" lon="8.8674838"><ele>554.5</ele><time>2026-04-11T11:46:02.273Z</time></trkpt><trkpt lat="44.6000879" lon="8.8675075"><ele>556.75</ele><time>2026-04-11T11:46:03.272Z</time></trkpt><trkpt lat="44.5999592" lon="8.8675665"><ele>559.0</ele><time>2026-04-11T11:46:04.273Z</time></trkpt><trkpt lat="44.5998421" lon="8.8676652"><ele>558.6666666666667</ele><time>2026-04-11T11:46:05.272Z</time></trkpt><trkpt lat="44.5997153" lon="8.8677875"><ele>558.3333333333334</ele><time>2026-04-11T11:46:06.272Z</time></trkpt><trkpt lat="44.5995904" lon="8.8679296"><ele>558.0</ele><time>2026-04-11T11:46:07.272Z</time></trkpt><trkpt lat="44.5994756" lon="8.8680701"><ele>558.0</ele><time>2026-04-11T11:46:08.272Z</time></trkpt><trkpt lat="44.5993724" lon="8.8681916"><ele>558.0</ele><time>2026-04-11T11:46:09.272Z</time></trkpt><trkpt lat="44.5992821" lon="8.8683095"><ele>558.0</ele><time>2026-04-11T11:46:10.272Z</time></trkpt><trkpt lat="44.5992285" lon="8.8684473"><ele>558.0</ele><time>2026-04-11T11:46:11.272Z</time></trkpt><trkpt lat="44.599208" lon="8.8686276"><ele>557.0</ele><time>2026-04-11T11:46:12.272Z</time></trkpt><trkpt lat="44.5992017" lon="8.8688356"><ele>556.0</ele><time>2026-04-11T11:46:13.272Z</time></trkpt><trkpt lat="44.5992028" lon="8.8690533"><ele>555.0</ele><time>2026-04-11T11:46:14.272Z</time></trkpt><trkpt lat="44.5992016" lon="8.8692659"><ele>554.0</ele><time>2026-04-11T11:46:15.272Z</time></trkpt><trkpt lat="44.5991849" lon="8.8694724"><ele>553.0</ele><time>2026-04-11T11:46:16.272Z</time></trkpt><trkpt lat="44.5991385" lon="8.8696457"><ele>552.0</ele><time>2026-04-11T11:46:17.272Z</time></trkpt><trkpt lat="44.5990556" lon="8.8698029"><ele>551.0</ele><time>2026-04-11T11:46:18.272Z</time></trkpt><trkpt lat="44.5989402" lon="8.8699321"><ele>551.0</ele><time>2026-04-11T11:46:19.272Z</time></trkpt><trkpt lat="44.5988046" lon="8.8700414"><ele>551.0</ele><time>2026-04-11T11:46:20.272Z</time></trkpt><trkpt lat="44.5986715" lon="8.8701515"><ele>551.0</ele><time>2026-04-11T11:46:21.272Z</time></trkpt><trkpt lat="44.5985743" lon="8.8702741"><ele>551.0</ele><time>2026-04-11T11:46:22.272Z</time></trkpt><trkpt lat="44.5985093" lon="8.8704219"><ele>554.0</ele><time>2026-04-11T11:46:23.273Z</time></trkpt><trkpt lat="44.5984593" lon="8.8705962"><ele>557.0</ele><time>2026-04-11T11:46:24.272Z</time></trkpt><trkpt lat="44.5984291" lon="8.8708173"><ele>560.0</ele><time>2026-04-11T11:46:25.272Z</time></trkpt><trkpt lat="44.5984012" lon="8.8710154"><ele>563.0</ele><time>2026-04-11T11:46:26.272Z</time></trkpt><trkpt lat="44.5983597" lon="8.87119"><ele>563.0</ele><time>2026-04-11T11:46:27.273Z</time></trkpt><trkpt lat="44.5983194" lon="8.8713238"><ele>563.0</ele><time>2026-04-11T11:46:28.272Z</time></trkpt><trkpt lat="44.5982669" lon="8.8714512"><ele>563.0</ele><time>2026-04-11T11:46:29.273Z</time></trkpt><trkpt lat="44.5982073" lon="8.87159"><ele>563.0</ele><time>2026-04-11T11:46:30.272Z</time></trkpt><trkpt lat="44.598146" lon="8.8717334"><ele>563.0</ele><time>2026-04-11T11:46:31.272Z</time></trkpt><trkpt lat="44.5980747" lon="8.8718886"><ele>562.25</ele><time>2026-04-11T11:46:32.272Z</time></trkpt><trkpt lat="44.598024" lon="8.8720625"><ele>561.5</ele><time>2026-04-11T11:46:33.272Z</time></trkpt><trkpt lat="44.5979745" lon="8.8722557"><ele>560.75</ele><time>2026-04-11T11:46:34.272Z</time></trkpt><trkpt lat="44.5979421" lon="8.8724579"><ele>560.0</ele><time>2026-04-11T11:46:35.272Z</time></trkpt><trkpt lat="44.5979148" lon="8.8726729"><ele>559.25</ele><time>2026-04-11T11:46:36.272Z</time></trkpt><trkpt lat="44.5978986" lon="8.8728913"><ele>558.5</ele><time>2026-04-11T11:46:37.272Z</time></trkpt><trkpt lat="44.5979024" lon="8.8731051"><ele>557.75</ele><time>2026-04-11T11:46:38.272Z</time></trkpt><trkpt lat="44.5979232" lon="8.8732948"><ele>557.0</ele><time>2026-04-11T11:46:39.272Z</time></trkpt><trkpt lat="44.5979336" lon="8.8734844"><ele>555.3333333333333</ele><time>2026-04-11T11:46:40.273Z</time></trkpt><trkpt lat="44.5979202" lon="8.8736828"><ele>553.6666666666666</ele><time>2026-04-11T11:46:41.272Z</time></trkpt><trkpt lat="44.5978731" lon="8.873878"><ele>552.0</ele><time>2026-04-11T11:46:42.273Z</time></trkpt><trkpt lat="44.5977978" lon="8.8740788"><ele>560.0</ele><time>2026-04-11T11:46:43.272Z</time></trkpt><trkpt lat="44.5977179" lon="8.8742612"><ele>568.0</ele><time>2026-04-11T11:46:44.272Z</time></trkpt><trkpt lat="44.597639" lon="8.8744417"><ele>576.0</ele><time>2026-04-11T11:46:45.272Z</time></trkpt><trkpt lat="44.5975922" lon="8.8746214"><ele>584.0</ele><time>2026-04-11T11:46:46.272Z</time></trkpt><trkpt lat="44.5975852" lon="8.8747814"><ele>584.0</ele><time>2026-04-11T11:46:47.272Z</time></trkpt><trkpt lat="44.5976208" lon="8.874933"><ele>584.0</ele><time>2026-04-11T11:46:48.273Z</time></trkpt><trkpt lat="44.5976828" lon="8.8750841"><ele>584.0</ele><time>2026-04-11T11:46:49.272Z</time></trkpt><trkpt lat="44.5977712" lon="8.8752116"><ele>584.0</ele><time>2026-04-11T11:46:50.272Z</time></trkpt><trkpt lat="44.5978728" lon="8.8753042"><ele>582.0</ele><time>2026-04-11T11:46:51.272Z</time></trkpt><trkpt lat="44.5979829" lon="8.8753492"><ele>580.0</ele><time>2026-04-11T11:46:52.272Z</time></trkpt><trkpt lat="44.5980855" lon="8.8753518"><ele>578.0</ele><time>2026-04-11T11:46:53.273Z</time></trkpt><trkpt lat="44.598176" lon="8.8753514"><ele>576.0</ele><time>2026-04-11T11:46:54.272Z</time></trkpt><trkpt lat="44.5982421" lon="8.8753601"><ele>574.0</ele><time>2026-04-11T11:46:56.273Z</time></trkpt><trkpt lat="44.5982991" lon="8.8754399"><ele>574.0</ele><time>2026-04-11T11:47:04.272Z</time></trkpt><trkpt lat="44.5983747" lon="8.8755295"><ele>574.0</ele><time>2026-04-11T11:48:00.272Z</time></trkpt><trkpt lat="44.5984289" lon="8.8757092"><ele>574.0</ele><time>2026-04-11T11:48:02.272Z</time></trkpt><trkpt lat="44.5984317" lon="8.8758533"><ele>574.0</ele><time>2026-04-11T11:48:03.272Z</time></trkpt><trkpt lat="44.5984033" lon="8.8760265"><ele>574.0</ele><time>2026-04-11T11:48:04.272Z</time></trkpt><trkpt lat="44.5983563" lon="8.8762148"><ele>574.0</ele><time>2026-04-11T11:48:05.272Z</time></trkpt><trkpt lat="44.598307" lon="8.8764254"><ele>574.0</ele><time>2026-04-11T11:48:06.272Z</time></trkpt><trkpt lat="44.5982666" lon="8.8766267"><ele>574.0</ele><time>2026-04-11T11:48:07.273Z</time></trkpt><trkpt lat="44.598246" lon="8.8768071"><ele>574.0</ele><time>2026-04-11T11:48:08.273Z</time></trkpt><trkpt lat="44.5982392" lon="8.8769749"><ele>574.0</ele><time>2026-04-11T11:48:09.272Z</time></trkpt><trkpt lat="44.5982718" lon="8.8771465"><ele>574.0</ele><time>2026-04-11T11:48:10.272Z</time></trkpt><trkpt lat="44.598332" lon="8.877312"><ele>574.0</ele><time>2026-04-11T11:48:11.272Z</time></trkpt><trkpt lat="44.5984014" lon="8.8774938"><ele>576.6666666666667</ele><time>2026-04-11T11:48:12.272Z</time></trkpt><trkpt lat="44.5984655" lon="8.8777135"><ele>579.3333333333334</ele><time>2026-04-11T11:48:13.272Z</time></trkpt><trkpt lat="44.5985096" lon="8.8779326"><ele>582.0</ele><time>2026-04-11T11:48:14.273Z</time></trkpt><trkpt lat="44.5985483" lon="8.8781429"><ele>582.0</ele><time>2026-04-11T11:48:15.272Z</time></trkpt><trkpt lat="44.5985921" lon="8.8783386"><ele>582.0</ele><time>2026-04-11T11:48:16.272Z</time></trkpt><trkpt lat="44.5986656" lon="8.8785181"><ele>582.0</ele><time>2026-04-11T11:48:17.272Z</time></trkpt><trkpt lat="44.5987626" lon="8.8786778"><ele>582.0</ele><time>2026-04-11T11:48:18.272Z</time></trkpt><trkpt lat="44.5988499" lon="8.8788431"><ele>581.0</ele><time>2026-04-11T11:48:19.272Z</time></trkpt><trkpt lat="44.5989398" lon="8.8790494"><ele>580.0</ele><time>2026-04-11T11:48:20.273Z</time></trkpt><trkpt lat="44.5990011" lon="8.8792675"><ele>579.0</ele><time>2026-04-11T11:48:21.272Z</time></trkpt><trkpt lat="44.5990662" lon="8.8794719"><ele>579.0</ele><time>2026-04-11T11:48:22.272Z</time></trkpt><trkpt lat="44.5991487" lon="8.8796479"><ele>579.0</ele><time>2026-04-11T11:48:23.272Z</time></trkpt><trkpt lat="44.5992663" lon="8.8798212"><ele>579.0</ele><time>2026-04-11T11:48:24.273Z</time></trkpt><trkpt lat="44.5993946" lon="8.8799752"><ele>576.6666666666666</ele><time>2026-04-11T11:48:25.272Z</time></trkpt><trkpt lat="44.599525" lon="8.8801268"><ele>574.3333333333333</ele><time>2026-04-11T11:48:26.272Z</time></trkpt><trkpt lat="44.5996432" lon="8.8802739"><ele>572.0</ele><time>2026-04-11T11:48:27.272Z</time></trkpt><trkpt lat="44.5997249" lon="8.8804414"><ele>572.0</ele><time>2026-04-11T11:48:28.272Z</time></trkpt><trkpt lat="44.5997823" lon="8.8806193"><ele>572.0</ele><time>2026-04-11T11:48:29.272Z</time></trkpt><trkpt lat="44.5998596" lon="8.8807678"><ele>572.0</ele><time>2026-04-11T11:48:30.273Z</time></trkpt><trkpt lat="44.5999628" lon="8.8808632"><ele>572.0</ele><time>2026-04-11T11:48:31.272Z</time></trkpt><trkpt lat="44.6000805" lon="8.880894"><ele>572.0</ele><time>2026-04-11T11:48:32.272Z</time></trkpt><trkpt lat="44.6002173" lon="8.8809137"><ele>572.0</ele><time>2026-04-11T11:48:33.272Z</time></trkpt><trkpt lat="44.6003567" lon="8.8809504"><ele>572.0</ele><time>2026-04-11T11:48:34.272Z</time></trkpt><trkpt lat="44.6004856" lon="8.88101"><ele>572.0</ele><time>2026-04-11T11:48:35.272Z</time></trkpt><trkpt lat="44.6005772" lon="8.8811271"><ele>571.75</ele><time>2026-04-11T11:48:36.272Z</time></trkpt><trkpt lat="44.6006256" lon="8.8812837"><ele>571.5</ele><time>2026-04-11T11:48:37.272Z</time></trkpt><trkpt lat="44.6006627" lon="8.8814509"><ele>571.25</ele><time>2026-04-11T11:48:38.272Z</time></trkpt><trkpt lat="44.6007003" lon="8.8816179"><ele>571.0</ele><time>2026-04-11T11:48:39.272Z</time></trkpt><trkpt lat="44.6007479" lon="8.8817902"><ele>571.75</ele><time>2026-04-11T11:48:40.272Z</time></trkpt><trkpt lat="44.6007999" lon="8.8819588"><ele>572.5</ele><time>2026-04-11T11:48:41.273Z</time></trkpt><trkpt lat="44.6008423" lon="8.8821093"><ele>573.25</ele><time>2026-04-11T11:48:42.272Z</time></trkpt><trkpt lat="44.6008741" lon="8.882246"><ele>574.0</ele><time>2026-04-11T11:48:43.272Z</time></trkpt><trkpt lat="44.600893" lon="8.8823872"><ele>574.0</ele><time>2026-04-11T11:48:44.273Z</time></trkpt><trkpt lat="44.6008907" lon="8.8825311"><ele>574.0</ele><time>2026-04-11T11:48:45.272Z</time></trkpt><trkpt lat="44.6008628" lon="8.8826934"><ele>574.0</ele><time>2026-04-11T11:48:46.272Z</time></trkpt><trkpt lat="44.6008135" lon="8.8828725"><ele>574.0</ele><time>2026-04-11T11:48:47.272Z</time></trkpt><trkpt lat="44.6007373" lon="8.8830437"><ele>573.0</ele><time>2026-04-11T11:48:48.272Z</time></trkpt><trkpt lat="44.6006596" lon="8.8832333"><ele>572.0</ele><time>2026-04-11T11:48:49.272Z</time></trkpt><trkpt lat="44.6005824" lon="8.8834249"><ele>571.0</ele><time>2026-04-11T11:48:50.273Z</time></trkpt><trkpt lat="44.6004978" lon="8.8836143"><ele>569.3333333333334</ele><time>2026-04-11T11:48:51.272Z</time></trkpt><trkpt lat="44.6004139" lon="8.8838115"><ele>567.6666666666666</ele><time>2026-04-11T11:48:52.273Z</time></trkpt><trkpt lat="44.6003281" lon="8.8840009"><ele>566.0</ele><time>2026-04-11T11:48:53.273Z</time></trkpt><trkpt lat="44.6002434" lon="8.8842103"><ele>568.6666666666666</ele><time>2026-04-11T11:48:54.272Z</time></trkpt><trkpt lat="44.60016" lon="8.8844227"><ele>571.3333333333334</ele><time>2026-04-11T11:48:55.272Z</time></trkpt><trkpt lat="44.6000783" lon="8.8846134"><ele>574.0</ele><time>2026-04-11T11:48:56.272Z</time></trkpt><trkpt lat="44.5999943" lon="8.8847812"><ele>574.0</ele><time>2026-04-11T11:48:57.273Z</time></trkpt><trkpt lat="44.599892" lon="8.8849402"><ele>574.0</ele><time>2026-04-11T11:48:58.273Z</time></trkpt><trkpt lat="44.5997671" lon="8.8850751"><ele>574.0</ele><time>2026-04-11T11:48:59.272Z</time></trkpt><trkpt lat="44.5996312" lon="8.8852028"><ele>574.6666666666667</ele><time>2026-04-11T11:49:00.272Z</time></trkpt><trkpt lat="44.5994907" lon="8.8853153"><ele>575.3333333333334</ele><time>2026-04-11T11:49:01.272Z</time></trkpt><trkpt lat="44.5993736" lon="8.885455"><ele>576.0</ele><time>2026-04-11T11:49:02.272Z</time></trkpt><trkpt lat="44.5992903" lon="8.8856069"><ele>576.0</ele><time>2026-04-11T11:49:03.272Z</time></trkpt><trkpt lat="44.5992182" lon="8.8857418"><ele>576.0</ele><time>2026-04-11T11:49:04.273Z</time></trkpt><trkpt lat="44.5991294" lon="8.885842"><ele>576.0</ele><time>2026-04-11T11:49:05.272Z</time></trkpt><trkpt lat="44.5990039" lon="8.8859228"><ele>576.0</ele><time>2026-04-11T11:49:06.273Z</time></trkpt><trkpt lat="44.5988637" lon="8.8859717"><ele>576.0</ele><time>2026-04-11T11:49:07.273Z</time></trkpt><trkpt lat="44.598707" lon="8.8860479"><ele>576.0</ele><time>2026-04-11T11:49:08.272Z</time></trkpt><trkpt lat="44.5985493" lon="8.8861383"><ele>576.0</ele><time>2026-04-11T11:49:09.272Z</time></trkpt><trkpt lat="44.5984034" lon="8.8862516"><ele>576.0</ele><time>2026-04-11T11:49:10.272Z</time></trkpt><trkpt lat="44.5982775" lon="8.8863683"><ele>576.0</ele><time>2026-04-11T11:49:11.272Z</time></trkpt><trkpt lat="44.5981697" lon="8.8865086"><ele>576.0</ele><time>2026-04-11T11:49:12.272Z</time></trkpt><trkpt lat="44.5980865" lon="8.8866812"><ele>576.0</ele><time>2026-04-11T11:49:13.273Z</time></trkpt><trkpt lat="44.5980136" lon="8.8868692"><ele>574.0</ele><time>2026-04-11T11:49:14.272Z</time></trkpt><trkpt lat="44.5979545" lon="8.8870583"><ele>572.0</ele><time>2026-04-11T11:49:15.272Z</time></trkpt><trkpt lat="44.5978939" lon="8.8872299"><ele>570.0</ele><time>2026-04-11T11:49:16.272Z</time></trkpt><trkpt lat="44.5978227" lon="8.8874029"><ele>568.0</ele><time>2026-04-11T11:49:17.272Z</time></trkpt><trkpt lat="44.5977502" lon="8.8875686"><ele>570.25</ele><time>2026-04-11T11:49:18.272Z</time></trkpt><trkpt lat="44.5976759" lon="8.8877302"><ele>572.5</ele><time>2026-04-11T11:49:19.273Z</time></trkpt><trkpt lat="44.597598" lon="8.8878797"><ele>574.75</ele><time>2026-04-11T11:49:20.272Z</time></trkpt><trkpt lat="44.5975153" lon="8.8880134"><ele>577.0</ele><time>2026-04-11T11:49:21.272Z</time></trkpt><trkpt lat="44.5974431" lon="8.8881292"><ele>577.0</ele><time>2026-04-11T11:49:22.272Z</time></trkpt><trkpt lat="44.597383" lon="8.8882507"><ele>577.0</ele><time>2026-04-11T11:49:23.272Z</time></trkpt><trkpt lat="44.5973588" lon="8.8883834"><ele>577.0</ele><time>2026-04-11T11:49:24.272Z</time></trkpt><trkpt lat="44.5973604" lon="8.8885369"><ele>577.0</ele><time>2026-04-11T11:49:25.272Z</time></trkpt><trkpt lat="44.5973956" lon="8.8887093"><ele>577.0</ele><time>2026-04-11T11:49:26.272Z</time></trkpt><trkpt lat="44.5974359" lon="8.8888787"><ele>576.25</ele><time>2026-04-11T11:49:27.273Z</time></trkpt><trkpt lat="44.5974743" lon="8.889063"><ele>575.5</ele><time>2026-04-11T11:49:28.272Z</time></trkpt><trkpt lat="44.5974935" lon="8.8892526"><ele>574.75</ele><time>2026-04-11T11:49:29.273Z</time></trkpt><trkpt lat="44.5974915" lon="8.8894514"><ele>574.0</ele><time>2026-04-11T11:49:30.273Z</time></trkpt><trkpt lat="44.5974732" lon="8.8896416"><ele>573.5</ele><time>2026-04-11T11:49:31.272Z</time></trkpt><trkpt lat="44.597457" lon="8.8898211"><ele>573.0</ele><time>2026-04-11T11:49:32.272Z</time></trkpt><trkpt lat="44.5974316" lon="8.889997"><ele>572.5</ele><time>2026-04-11T11:49:33.272Z</time></trkpt><trkpt lat="44.5974" lon="8.890168"><ele>572.0</ele><time>2026-04-11T11:49:34.273Z</time></trkpt><trkpt lat="44.5973502" lon="8.8903304"><ele>572.0</ele><time>2026-04-11T11:49:35.272Z</time></trkpt><trkpt lat="44.5972723" lon="8.8904755"><ele>572.0</ele><time>2026-04-11T11:49:36.272Z</time></trkpt><trkpt lat="44.597188" lon="8.8906214"><ele>572.0</ele><time>2026-04-11T11:49:37.272Z</time></trkpt><trkpt lat="44.5970968" lon="8.8907896"><ele>572.0</ele><time>2026-04-11T11:49:38.272Z</time></trkpt><trkpt lat="44.5970181" lon="8.8909601"><ele>562.6666666666666</ele><time>2026-04-11T11:49:39.273Z</time></trkpt><trkpt lat="44.5969496" lon="8.891148"><ele>553.3333333333334</ele><time>2026-04-11T11:49:40.273Z</time></trkpt><trkpt lat="44.5968927" lon="8.8913415"><ele>544.0</ele><time>2026-04-11T11:49:41.272Z</time></trkpt><trkpt lat="44.5968554" lon="8.8915606"><ele>543.0</ele><time>2026-04-11T11:49:42.272Z</time></trkpt><trkpt lat="44.5968334" lon="8.8917755"><ele>542.0</ele><time>2026-04-11T11:49:43.272Z</time></trkpt><trkpt lat="44.5968197" lon="8.8919896"><ele>541.0</ele><time>2026-04-11T11:49:44.272Z</time></trkpt><trkpt lat="44.5968086" lon="8.8921747"><ele>540.0</ele><time>2026-04-11T11:49:45.273Z</time></trkpt><trkpt lat="44.5968173" lon="8.8923487"><ele>540.0</ele><time>2026-04-11T11:49:46.272Z</time></trkpt><trkpt lat="44.5968578" lon="8.8925171"><ele>540.0</ele><time>2026-04-11T11:49:47.272Z</time></trkpt><trkpt lat="44.5969245" lon="8.8926803"><ele>540.0</ele><time>2026-04-11T11:49:48.272Z</time></trkpt><trkpt lat="44.5970027" lon="8.8928375"><ele>540.0</ele><time>2026-04-11T11:49:49.272Z</time></trkpt><trkpt lat="44.5970881" lon="8.8929679"><ele>539.5</ele><time>2026-04-11T11:49:50.272Z</time></trkpt><trkpt lat="44.5971818" lon="8.8930641"><ele>539.0</ele><time>2026-04-11T11:49:51.272Z</time></trkpt><trkpt lat="44.597298" lon="8.8931415"><ele>538.5</ele><time>2026-04-11T11:49:52.273Z</time></trkpt><trkpt lat="44.5974109" lon="8.8932007"><ele>538.0</ele><time>2026-04-11T11:49:53.272Z</time></trkpt><trkpt lat="44.5975532" lon="8.8932525"><ele>538.0</ele><time>2026-04-11T11:49:54.272Z</time></trkpt><trkpt lat="44.5977005" lon="8.8933307"><ele>538.0</ele><time>2026-04-11T11:49:55.272Z</time></trkpt><trkpt lat="44.5978321" lon="8.8934447"><ele>538.0</ele><time>2026-04-11T11:49:56.272Z</time></trkpt><trkpt lat="44.5979502" lon="8.8935906"><ele>535.3333333333334</ele><time>2026-04-11T11:49:57.272Z</time></trkpt><trkpt lat="44.5980733" lon="8.8937422"><ele>532.6666666666666</ele><time>2026-04-11T11:49:58.272Z</time></trkpt><trkpt lat="44.5982012" lon="8.8938867"><ele>530.0</ele><time>2026-04-11T11:49:59.272Z</time></trkpt><trkpt lat="44.5983324" lon="8.8940235"><ele>530.0</ele><time>2026-04-11T11:50:00.272Z</time></trkpt><trkpt lat="44.5984533" lon="8.8941628"><ele>530.0</ele><time>2026-04-11T11:50:01.272Z</time></trkpt><trkpt lat="44.598564" lon="8.8943132"><ele>530.0</ele><time>2026-04-11T11:50:02.272Z</time></trkpt><trkpt lat="44.5986523" lon="8.8944852"><ele>530.0</ele><time>2026-04-11T11:50:03.272Z</time></trkpt><trkpt lat="44.5987124" lon="8.8946777"><ele>530.0</ele><time>2026-04-11T11:50:04.272Z</time></trkpt><trkpt lat="44.598781" lon="8.8948518"><ele>530.0</ele><time>2026-04-11T11:50:05.273Z</time></trkpt><trkpt lat="44.5988728" lon="8.8949928"><ele>530.0</ele><time>2026-04-11T11:50:06.273Z</time></trkpt><trkpt lat="44.5989857" lon="8.8951098"><ele>526.5</ele><time>2026-04-11T11:50:07.272Z</time></trkpt><trkpt lat="44.5991099" lon="8.8952068"><ele>523.0</ele><time>2026-04-11T11:50:08.272Z</time></trkpt><trkpt lat="44.5992163" lon="8.8953323"><ele>519.5</ele><time>2026-04-11T11:50:09.272Z</time></trkpt><trkpt lat="44.5993033" lon="8.8954928"><ele>516.0</ele><time>2026-04-11T11:50:10.273Z</time></trkpt><trkpt lat="44.5993723" lon="8.8956647"><ele>516.0</ele><time>2026-04-11T11:50:11.273Z</time></trkpt><trkpt lat="44.5994386" lon="8.8958464"><ele>516.0</ele><time>2026-04-11T11:50:12.273Z</time></trkpt><trkpt lat="44.5994867" lon="8.8960417"><ele>516.0</ele><time>2026-04-11T11:50:13.272Z</time></trkpt><trkpt lat="44.5995062" lon="8.8962422"><ele>516.0</ele><time>2026-04-11T11:50:14.273Z</time></trkpt><trkpt lat="44.5994905" lon="8.8964333"><ele>514.0</ele><time>2026-04-11T11:50:15.272Z</time></trkpt><trkpt lat="44.5994583" lon="8.8966338"><ele>512.0</ele><time>2026-04-11T11:50:16.272Z</time></trkpt><trkpt lat="44.5993822" lon="8.8968325"><ele>510.0</ele><time>2026-04-11T11:50:17.273Z</time></trkpt><trkpt lat="44.5993014" lon="8.8970177"><ele>509.6</ele><time>2026-04-11T11:50:18.272Z</time></trkpt><trkpt lat="44.5992368" lon="8.8971766"><ele>509.2</ele><time>2026-04-11T11:50:19.272Z</time></trkpt><trkpt lat="44.5992035" lon="8.8973208"><ele>508.79999999999995</ele><time>2026-04-11T11:50:20.272Z</time></trkpt><trkpt lat="44.5991981" lon="8.8974574"><ele>508.4</ele><time>2026-04-11T11:50:21.272Z</time></trkpt><trkpt lat="44.5992348" lon="8.8976004"><ele>508.0</ele><time>2026-04-11T11:50:22.272Z</time></trkpt><trkpt lat="44.5992895" lon="8.8977247"><ele>506.2</ele><time>2026-04-11T11:50:23.272Z</time></trkpt><trkpt lat="44.5993548" lon="8.8978336"><ele>504.4</ele><time>2026-04-11T11:50:24.272Z</time></trkpt><trkpt lat="44.59939" lon="8.8979578"><ele>502.59999999999997</ele><time>2026-04-11T11:50:25.272Z</time></trkpt><trkpt lat="44.5993875" lon="8.8981068"><ele>500.79999999999995</ele><time>2026-04-11T11:50:26.273Z</time></trkpt><trkpt lat="44.5993606" lon="8.8982917"><ele>499.0</ele><time>2026-04-11T11:50:27.272Z</time></trkpt><trkpt lat="44.59936" lon="8.89849"><ele>496.33333333333337</ele><time>2026-04-11T11:50:28.272Z</time></trkpt><trkpt lat="44.5993963" lon="8.8987031"><ele>493.66666666666663</ele><time>2026-04-11T11:50:29.272Z</time></trkpt><trkpt lat="44.599454" lon="8.8989185"><ele>491.0</ele><time>2026-04-11T11:50:30.272Z</time></trkpt><trkpt lat="44.5995213" lon="8.8991428"><ele>494.3333333333333</ele><time>2026-04-11T11:50:31.273Z</time></trkpt><trkpt lat="44.5995859" lon="8.899358"><ele>497.66666666666663</ele><time>2026-04-11T11:50:32.272Z</time></trkpt><trkpt lat="44.5996475" lon="8.8995474"><ele>501.0</ele><time>2026-04-11T11:50:33.273Z</time></trkpt><trkpt lat="44.5997061" lon="8.8997366"><ele>501.0</ele><time>2026-04-11T11:50:34.273Z</time></trkpt><trkpt lat="44.5997653" lon="8.8999039"><ele>501.0</ele><time>2026-04-11T11:50:35.273Z</time></trkpt><trkpt lat="44.5998294" lon="8.9000399"><ele>501.0</ele><time>2026-04-11T11:50:36.272Z</time></trkpt><trkpt lat="44.5999102" lon="8.9001388"><ele>501.0</ele><time>2026-04-11T11:50:37.272Z</time></trkpt><trkpt lat="44.6000108" lon="8.9001802"><ele>498.20000000000005</ele><time>2026-04-11T11:50:38.272Z</time></trkpt><trkpt lat="44.6001222" lon="8.900186"><ele>495.40000000000003</ele><time>2026-04-11T11:50:39.272Z</time></trkpt><trkpt lat="44.6002277" lon="8.900193"><ele>492.6</ele><time>2026-04-11T11:50:40.272Z</time></trkpt><trkpt lat="44.6003112" lon="8.9002256"><ele>489.8</ele><time>2026-04-11T11:50:41.272Z</time></trkpt><trkpt lat="44.6003637" lon="8.9003182"><ele>487.0</ele><time>2026-04-11T11:50:42.273Z</time></trkpt><trkpt lat="44.6003734" lon="8.9004296"><ele>487.0</ele><time>2026-04-11T11:50:43.272Z</time></trkpt><trkpt lat="44.600325" lon="8.900537"><ele>487.00000000000006</ele><time>2026-04-11T11:50:44.272Z</time></trkpt><trkpt lat="44.6002577" lon="8.9006033"><ele>487.00000000000006</ele><time>2026-04-11T11:50:45.272Z</time></trkpt><trkpt lat="44.6001533" lon="8.9006508"><ele>487.0</ele><time>2026-04-11T11:50:46.272Z</time></trkpt><trkpt lat="44.6000407" lon="8.9006896"><ele>487.0</ele><time>2026-04-11T11:50:47.272Z</time></trkpt><trkpt lat="44.5999476" lon="8.9007107"><ele>487.0</ele><time>2026-04-11T11:50:48.272Z</time></trkpt><trkpt lat="44.5998741" lon="8.9007364"><ele>487.00000000000006</ele><time>2026-04-11T11:50:49.273Z</time></trkpt><trkpt lat="44.5997774" lon="8.9007657"><ele>487.00000000000006</ele><time>2026-04-11T11:50:51.272Z</time></trkpt><trkpt lat="44.5996794" lon="8.9008018"><ele>487.0</ele><time>2026-04-11T11:50:53.272Z</time></trkpt><trkpt lat="44.5996037" lon="8.9008304"><ele>487.0</ele><time>2026-04-11T11:50:54.272Z</time></trkpt><trkpt lat="44.5995037" lon="8.9008545"><ele>486.20000000000005</ele><time>2026-04-11T11:50:55.272Z</time></trkpt><trkpt lat="44.59939" lon="8.9008689"><ele>485.40000000000003</ele><time>2026-04-11T11:50:56.273Z</time></trkpt><trkpt lat="44.5992869" lon="8.9008511"><ele>484.59999999999997</ele><time>2026-04-11T11:50:57.272Z</time></trkpt><trkpt lat="44.5991929" lon="8.900806"><ele>483.79999999999995</ele><time>2026-04-11T11:50:58.272Z</time></trkpt><trkpt lat="44.5991235" lon="8.9007297"><ele>483.0</ele><time>2026-04-11T11:50:59.273Z</time></trkpt><trkpt lat="44.59907" lon="8.9006209"><ele>483.0</ele><time>2026-04-11T11:51:00.272Z</time></trkpt><trkpt lat="44.5990209" lon="8.9004842"><ele>483.0</ele><time>2026-04-11T11:51:01.272Z</time></trkpt><trkpt lat="44.5989902" lon="8.9003252"><ele>483.0</ele><time>2026-04-11T11:51:02.272Z</time></trkpt><trkpt lat="44.59898" lon="8.9001599"><ele>483.0</ele><time>2026-04-11T11:51:03.272Z</time></trkpt><trkpt lat="44.5989847" lon="8.9000078"><ele>484.59999999999997</ele><time>2026-04-11T11:51:04.272Z</time></trkpt><trkpt lat="44.5989883" lon="8.8998815"><ele>486.19999999999993</ele><time>2026-04-11T11:51:05.272Z</time></trkpt><trkpt lat="44.5989966" lon="8.8997712"><ele>487.8</ele><time>2026-04-11T11:51:07.272Z</time></trkpt><trkpt lat="44.5989695" lon="8.8996486"><ele>489.4</ele><time>2026-04-11T11:52:22.271Z</time></trkpt><trkpt lat="44.5988914" lon="8.8994976"><ele>491.0</ele><time>2026-04-11T11:52:24.271Z</time></trkpt><trkpt lat="44.5988191" lon="8.8994479"><ele>491.0</ele><time>2026-04-11T11:52:25.271Z</time></trkpt><trkpt lat="44.5987388" lon="8.8994424"><ele>491.0</ele><time>2026-04-11T11:52:26.272Z</time></trkpt><trkpt lat="44.5986451" lon="8.8994583"><ele>491.0</ele><time>2026-04-11T11:52:27.272Z</time></trkpt><trkpt lat="44.5985611" lon="8.8995324"><ele>491.0</ele><time>2026-04-11T11:52:28.271Z</time></trkpt><trkpt lat="44.5985014" lon="8.8996408"><ele>491.0</ele><time>2026-04-11T11:52:29.271Z</time></trkpt><trkpt lat="44.5984662" lon="8.8997656"><ele>483.5</ele><time>2026-04-11T11:52:30.271Z</time></trkpt><trkpt lat="44.598463" lon="8.8999086"><ele>476.0</ele><time>2026-04-11T11:52:31.271Z</time></trkpt><trkpt lat="44.5984818" lon="8.900076"><ele>468.5</ele><time>2026-04-11T11:52:32.271Z</time></trkpt><trkpt lat="44.5985283" lon="8.9002452"><ele>461.0</ele><time>2026-04-11T11:52:33.271Z</time></trkpt><trkpt lat="44.5985864" lon="8.9004469"><ele>459.25</ele><time>2026-04-11T11:52:34.271Z</time></trkpt><trkpt lat="44.5986279" lon="8.9006544"><ele>457.5</ele><time>2026-04-11T11:52:35.271Z</time></trkpt><trkpt lat="44.598646" lon="8.9008541"><ele>455.75</ele><time>2026-04-11T11:52:36.271Z</time></trkpt><trkpt lat="44.5986499" lon="8.9010516"><ele>454.0</ele><time>2026-04-11T11:52:37.271Z</time></trkpt><trkpt lat="44.5986298" lon="8.9012697"><ele>451.6666666666667</ele><time>2026-04-11T11:52:38.271Z</time></trkpt><trkpt lat="44.598593" lon="8.9015183"><ele>449.33333333333337</ele><time>2026-04-11T11:52:39.271Z</time></trkpt><trkpt lat="44.5985438" lon="8.9017675"><ele>447.0</ele><time>2026-04-11T11:52:40.271Z</time></trkpt><trkpt lat="44.5984972" lon="8.902014"><ele>446.25</ele><time>2026-04-11T11:52:41.271Z</time></trkpt><trkpt lat="44.5984454" lon="8.9022282"><ele>445.5</ele><time>2026-04-11T11:52:42.272Z</time></trkpt><trkpt lat="44.5984093" lon="8.9024011"><ele>444.75</ele><time>2026-04-11T11:52:43.271Z</time></trkpt><trkpt lat="44.5983744" lon="8.9025454"><ele>444.0</ele><time>2026-04-11T11:52:44.271Z</time></trkpt><trkpt lat="44.5983906" lon="8.9026719"><ele>443.0</ele><time>2026-04-11T11:52:45.272Z</time></trkpt><trkpt lat="44.5984499" lon="8.9027898"><ele>442.0</ele><time>2026-04-11T11:52:46.271Z</time></trkpt><trkpt lat="44.598528" lon="8.902868"><ele>441.0</ele><time>2026-04-11T11:52:47.272Z</time></trkpt><trkpt lat="44.5986228" lon="8.9028757"><ele>440.0</ele><time>2026-04-11T11:52:48.271Z</time></trkpt><trkpt lat="44.5987457" lon="8.9028555"><ele>439.0</ele><time>2026-04-11T11:52:49.271Z</time></trkpt><trkpt lat="44.598888" lon="8.9028032"><ele>439.0</ele><time>2026-04-11T11:52:50.271Z</time></trkpt><trkpt lat="44.5990271" lon="8.9027539"><ele>439.0</ele><time>2026-04-11T11:52:51.272Z</time></trkpt><trkpt lat="44.5991648" lon="8.9027267"><ele>439.0</ele><time>2026-04-11T11:52:52.272Z</time></trkpt><trkpt lat="44.5992877" lon="8.9027451"><ele>439.0</ele><time>2026-04-11T11:52:53.271Z</time></trkpt><trkpt lat="44.5994142" lon="8.9027963"><ele>440.75</ele><time>2026-04-11T11:52:54.271Z</time></trkpt><trkpt lat="44.5995174" lon="8.9028911"><ele>442.5</ele><time>2026-04-11T11:52:55.271Z</time></trkpt><trkpt lat="44.5996035" lon="8.9030073"><ele>444.25</ele><time>2026-04-11T11:52:56.271Z</time></trkpt><trkpt lat="44.5996643" lon="8.9031529"><ele>446.0</ele><time>2026-04-11T11:52:57.271Z</time></trkpt><trkpt lat="44.5996941" lon="8.9033153"><ele>447.49999999999994</ele><time>2026-04-11T11:52:58.271Z</time></trkpt><trkpt lat="44.5996968" lon="8.9034616"><ele>449.0</ele><time>2026-04-11T11:52:59.271Z</time></trkpt><trkpt lat="44.5997" lon="8.9035742"><ele>450.5</ele><time>2026-04-11T11:53:00.271Z</time></trkpt><trkpt lat="44.5996802" lon="8.9036741"><ele>452.0</ele><time>2026-04-11T11:53:01.271Z</time></trkpt><trkpt lat="44.5996292" lon="8.9037528"><ele>453.49999999999994</ele><time>2026-04-11T11:53:02.271Z</time></trkpt><trkpt lat="44.5995632" lon="8.9038044"><ele>455.0</ele><time>2026-04-11T11:53:03.271Z</time></trkpt><trkpt lat="44.5994767" lon="8.9038517"><ele>450.4</ele><time>2026-04-11T11:53:04.271Z</time></trkpt><trkpt lat="44.5993869" lon="8.9038902"><ele>445.8</ele><time>2026-04-11T11:53:05.271Z</time></trkpt><trkpt lat="44.5992885" lon="8.9039385"><ele>441.20000000000005</ele><time>2026-04-11T11:53:06.272Z</time></trkpt><trkpt lat="44.5991929" lon="8.9040048"><ele>436.6</ele><time>2026-04-11T11:53:07.271Z</time></trkpt><trkpt lat="44.59911" lon="8.9040928"><ele>432.0</ele><time>2026-04-11T11:53:08.271Z</time></trkpt><trkpt lat="44.5990425" lon="8.9042052"><ele>432.40000000000003</ele><time>2026-04-11T11:53:09.271Z</time></trkpt><trkpt lat="44.5989921" lon="8.904313"><ele>432.80000000000007</ele><time>2026-04-11T11:53:10.271Z</time></trkpt><trkpt lat="44.598955" lon="8.9044407"><ele>433.2</ele><time>2026-04-11T11:53:11.271Z</time></trkpt><trkpt lat="44.5989271" lon="8.9045935"><ele>433.6</ele><time>2026-04-11T11:53:12.271Z</time></trkpt><trkpt lat="44.5989206" lon="8.9047743"><ele>434.0</ele><time>2026-04-11T11:53:13.271Z</time></trkpt><trkpt lat="44.5989328" lon="8.9049481"><ele>431.25</ele><time>2026-04-11T11:53:14.272Z</time></trkpt><trkpt lat="44.5989455" lon="8.9051331"><ele>428.5</ele><time>2026-04-11T11:53:15.271Z</time></trkpt><trkpt lat="44.598951" lon="8.9053367"><ele>425.75</ele><time>2026-04-11T11:53:16.271Z</time></trkpt><trkpt lat="44.5989365" lon="8.9055309"><ele>423.0</ele><time>2026-04-11T11:53:17.271Z</time></trkpt><trkpt lat="44.5989086" lon="8.9057138"><ele>423.0</ele><time>2026-04-11T11:53:18.271Z</time></trkpt><trkpt lat="44.5988761" lon="8.9058923"><ele>423.0</ele><time>2026-04-11T11:53:19.272Z</time></trkpt><trkpt lat="44.5988609" lon="8.9060688"><ele>423.0</ele><time>2026-04-11T11:53:20.272Z</time></trkpt><trkpt lat="44.5988551" lon="8.9062616"><ele>423.0</ele><time>2026-04-11T11:53:21.271Z</time></trkpt><trkpt lat="44.598859" lon="8.9064585"><ele>422.5</ele><time>2026-04-11T11:53:22.271Z</time></trkpt><trkpt lat="44.5988728" lon="8.9066629"><ele>422.0</ele><time>2026-04-11T11:53:23.271Z</time></trkpt><trkpt lat="44.5988924" lon="8.9068591"><ele>421.5</ele><time>2026-04-11T11:53:24.272Z</time></trkpt><trkpt lat="44.5989045" lon="8.9070429"><ele>421.0</ele><time>2026-04-11T11:53:25.272Z</time></trkpt><trkpt lat="44.5989069" lon="8.9072193"><ele>421.0</ele><time>2026-04-11T11:53:26.271Z</time></trkpt><trkpt lat="44.5988989" lon="8.9073993"><ele>421.0</ele><time>2026-04-11T11:53:27.271Z</time></trkpt><trkpt lat="44.5988749" lon="8.9075829"><ele>421.0</ele><time>2026-04-11T11:53:28.272Z</time></trkpt><trkpt lat="44.5988362" lon="8.9077817"><ele>421.0</ele><time>2026-04-11T11:53:29.271Z</time></trkpt><trkpt lat="44.5988023" lon="8.9079975"><ele>421.33333333333337</ele><time>2026-04-11T11:53:30.271Z</time></trkpt><trkpt lat="44.5987703" lon="8.9082214"><ele>421.66666666666663</ele><time>2026-04-11T11:53:31.271Z</time></trkpt><trkpt lat="44.5987369" lon="8.9084547"><ele>422.0</ele><time>2026-04-11T11:53:32.271Z</time></trkpt><trkpt lat="44.5987006" lon="8.908684"><ele>420.66666666666663</ele><time>2026-04-11T11:53:33.271Z</time></trkpt><trkpt lat="44.5986665" lon="8.9089288"><ele>419.33333333333337</ele><time>2026-04-11T11:53:34.271Z</time></trkpt><trkpt lat="44.5986303" lon="8.9091774"><ele>418.0</ele><time>2026-04-11T11:53:35.271Z</time></trkpt><trkpt lat="44.5985942" lon="8.9094286"><ele>418.0</ele><time>2026-04-11T11:53:36.272Z</time></trkpt><trkpt lat="44.5985573" lon="8.9096818"><ele>418.0</ele><time>2026-04-11T11:53:37.271Z</time></trkpt><trkpt lat="44.5985166" lon="8.9099342"><ele>418.0</ele><time>2026-04-11T11:53:38.271Z</time></trkpt><trkpt lat="44.5984699" lon="8.9101896"><ele>419.0</ele><time>2026-04-11T11:53:39.272Z</time></trkpt><trkpt lat="44.5984103" lon="8.9104091"><ele>420.0</ele><time>2026-04-11T11:53:40.271Z</time></trkpt><trkpt lat="44.5983376" lon="8.910619"><ele>421.0</ele><time>2026-04-11T11:53:41.271Z</time></trkpt><trkpt lat="44.5982564" lon="8.9108269"><ele>424.0</ele><time>2026-04-11T11:53:42.272Z</time></trkpt><trkpt lat="44.5981697" lon="8.9110291"><ele>427.0</ele><time>2026-04-11T11:53:43.272Z</time></trkpt><trkpt lat="44.5980618" lon="8.9112218"><ele>430.0</ele><time>2026-04-11T11:53:44.271Z</time></trkpt><trkpt lat="44.5979431" lon="8.9114031"><ele>424.0</ele><time>2026-04-11T11:53:45.271Z</time></trkpt><trkpt lat="44.5978338" lon="8.9115722"><ele>418.0</ele><time>2026-04-11T11:53:46.271Z</time></trkpt><trkpt lat="44.5977119" lon="8.9117601"><ele>412.0</ele><time>2026-04-11T11:53:47.271Z</time></trkpt><trkpt lat="44.597577" lon="8.9119549"><ele>411.33333333333337</ele><time>2026-04-11T11:53:48.271Z</time></trkpt><trkpt lat="44.5974469" lon="8.912138"><ele>410.66666666666663</ele><time>2026-04-11T11:53:49.271Z</time></trkpt><trkpt lat="44.5973123" lon="8.9123292"><ele>410.0</ele><time>2026-04-11T11:53:50.271Z</time></trkpt><trkpt lat="44.5971867" lon="8.9125096"><ele>409.3333333333333</ele><time>2026-04-11T11:53:51.272Z</time></trkpt><trkpt lat="44.5970576" lon="8.9126961"><ele>408.66666666666663</ele><time>2026-04-11T11:53:52.272Z</time></trkpt><trkpt lat="44.5969384" lon="8.9128765"><ele>408.0</ele><time>2026-04-11T11:53:53.272Z</time></trkpt><trkpt lat="44.5968152" lon="8.9130646"><ele>408.0</ele><time>2026-04-11T11:53:54.271Z</time></trkpt><trkpt lat="44.5967033" lon="8.913239"><ele>408.0</ele><time>2026-04-11T11:53:55.272Z</time></trkpt><trkpt lat="44.5965913" lon="8.9134096"><ele>408.0</ele><time>2026-04-11T11:53:56.271Z</time></trkpt><trkpt lat="44.5964758" lon="8.9135652"><ele>408.75</ele><time>2026-04-11T11:53:57.271Z</time></trkpt><trkpt lat="44.596359" lon="8.9136999"><ele>409.5</ele><time>2026-04-11T11:53:58.271Z</time></trkpt><trkpt lat="44.5962247" lon="8.9137973"><ele>410.25</ele><time>2026-04-11T11:53:59.271Z</time></trkpt><trkpt lat="44.5960946" lon="8.9138588"><ele>411.0</ele><time>2026-04-11T11:54:00.271Z</time></trkpt><trkpt lat="44.5959575" lon="8.9138998"><ele>411.0</ele><time>2026-04-11T11:54:01.271Z</time></trkpt><trkpt lat="44.5958253" lon="8.9139384"><ele>411.0</ele><time>2026-04-11T11:54:02.271Z</time></trkpt><trkpt lat="44.5957197" lon="8.9139809"><ele>411.0</ele><time>2026-04-11T11:54:03.272Z</time></trkpt><trkpt lat="44.5956067" lon="8.9140397"><ele>411.0</ele><time>2026-04-11T11:54:04.271Z</time></trkpt><trkpt lat="44.595513" lon="8.9141391"><ele>410.0</ele><time>2026-04-11T11:54:05.271Z</time></trkpt><trkpt lat="44.5954225" lon="8.9142871"><ele>409.0</ele><time>2026-04-11T11:54:06.271Z</time></trkpt><trkpt lat="44.5953441" lon="8.9144485"><ele>408.0</ele><time>2026-04-11T11:54:07.271Z</time></trkpt><trkpt lat="44.5952944" lon="8.9146362"><ele>407.0</ele><time>2026-04-11T11:54:08.271Z</time></trkpt><trkpt lat="44.5952633" lon="8.9148409"><ele>407.0</ele><time>2026-04-11T11:54:09.272Z</time></trkpt><trkpt lat="44.5952333" lon="8.9150666"><ele>407.0</ele><time>2026-04-11T11:54:10.271Z</time></trkpt><trkpt lat="44.5951932" lon="8.9152979"><ele>407.0</ele><time>2026-04-11T11:54:11.271Z</time></trkpt><trkpt lat="44.595123" lon="8.915521"><ele>408.3333333333333</ele><time>2026-04-11T11:54:12.271Z</time></trkpt><trkpt lat="44.5950319" lon="8.9157319"><ele>409.66666666666663</ele><time>2026-04-11T11:54:13.271Z</time></trkpt><trkpt lat="44.5949361" lon="8.9159212"><ele>411.0</ele><time>2026-04-11T11:54:14.271Z</time></trkpt><trkpt lat="44.5948554" lon="8.9161195"><ele>414.0</ele><time>2026-04-11T11:54:15.271Z</time></trkpt><trkpt lat="44.5947793" lon="8.9163104"><ele>417.0</ele><time>2026-04-11T11:54:16.272Z</time></trkpt><trkpt lat="44.5946897" lon="8.916493"><ele>420.0</ele><time>2026-04-11T11:54:17.271Z</time></trkpt><trkpt lat="44.5945783" lon="8.9166564"><ele>415.0</ele><time>2026-04-11T11:54:18.272Z</time></trkpt><trkpt lat="44.5944471" lon="8.9168184"><ele>410.0</ele><time>2026-04-11T11:54:19.271Z</time></trkpt><trkpt lat="44.5943092" lon="8.9169625"><ele>405.0</ele><time>2026-04-11T11:54:20.271Z</time></trkpt><trkpt lat="44.5941698" lon="8.9171341"><ele>405.0</ele><time>2026-04-11T11:54:21.271Z</time></trkpt><trkpt lat="44.5940233" lon="8.9173066"><ele>405.0</ele><time>2026-04-11T11:54:22.271Z</time></trkpt><trkpt lat="44.5938786" lon="8.9174782"><ele>405.0</ele><time>2026-04-11T11:54:23.271Z</time></trkpt><trkpt lat="44.5937388" lon="8.9176437"><ele>401.0</ele><time>2026-04-11T11:54:24.271Z</time></trkpt><trkpt lat="44.593604" lon="8.9178021"><ele>397.0</ele><time>2026-04-11T11:54:25.272Z</time></trkpt><trkpt lat="44.5934742" lon="8.9179543"><ele>393.0</ele><time>2026-04-11T11:54:26.271Z</time></trkpt><trkpt lat="44.5933583" lon="8.9180918"><ele>393.0</ele><time>2026-04-11T11:54:27.271Z</time></trkpt><trkpt lat="44.593259" lon="8.9182323"><ele>393.0</ele><time>2026-04-11T11:54:28.271Z</time></trkpt><trkpt lat="44.5931877" lon="8.9183917"><ele>393.0</ele><time>2026-04-11T11:54:29.272Z</time></trkpt><trkpt lat="44.5931405" lon="8.9185684"><ele>393.0</ele><time>2026-04-11T11:54:30.271Z</time></trkpt><trkpt lat="44.5931189" lon="8.9187673"><ele>395.66666666666663</ele><time>2026-04-11T11:54:31.271Z</time></trkpt><trkpt lat="44.593132" lon="8.9189848"><ele>398.3333333333333</ele><time>2026-04-11T11:54:32.271Z</time></trkpt><trkpt lat="44.5931739" lon="8.9192127"><ele>401.0</ele><time>2026-04-11T11:54:33.272Z</time></trkpt><trkpt lat="44.5932092" lon="8.9194277"><ele>403.5</ele><time>2026-04-11T11:54:34.271Z</time></trkpt><trkpt lat="44.5932011" lon="8.9196324"><ele>406.0</ele><time>2026-04-11T11:54:35.271Z</time></trkpt><trkpt lat="44.5931667" lon="8.9198243"><ele>408.5</ele><time>2026-04-11T11:54:36.272Z</time></trkpt><trkpt lat="44.593106" lon="8.9200158"><ele>411.0</ele><time>2026-04-11T11:54:37.271Z</time></trkpt><trkpt lat="44.5930198" lon="8.920198"><ele>413.5</ele><time>2026-04-11T11:54:38.272Z</time></trkpt><trkpt lat="44.5929377" lon="8.9203701"><ele>416.0</ele><time>2026-04-11T11:54:39.271Z</time></trkpt><trkpt lat="44.5928721" lon="8.920544"><ele>418.5</ele><time>2026-04-11T11:54:40.271Z</time></trkpt><trkpt lat="44.5928323" lon="8.9207533"><ele>421.0</ele><time>2026-04-11T11:54:41.271Z</time></trkpt><trkpt lat="44.5927986" lon="8.9209504"><ele>413.25</ele><time>2026-04-11T11:54:42.271Z</time></trkpt><trkpt lat="44.5927604" lon="8.9211308"><ele>405.5</ele><time>2026-04-11T11:54:43.271Z</time></trkpt><trkpt lat="44.5927205" lon="8.9213178"><ele>397.75</ele><time>2026-04-11T11:54:44.271Z</time></trkpt><trkpt lat="44.5926797" lon="8.9215107"><ele>390.0</ele><time>2026-04-11T11:54:45.271Z</time></trkpt><trkpt lat="44.592641" lon="8.9217208"><ele>389.33333333333337</ele><time>2026-04-11T11:54:46.271Z</time></trkpt><trkpt lat="44.5925994" lon="8.9219367"><ele>388.6666666666667</ele><time>2026-04-11T11:54:47.272Z</time></trkpt><trkpt lat="44.5925536" lon="8.9221574"><ele>388.0</ele><time>2026-04-11T11:54:48.271Z</time></trkpt><trkpt lat="44.5925037" lon="8.9223891"><ele>390.33333333333337</ele><time>2026-04-11T11:54:49.271Z</time></trkpt><trkpt lat="44.5924544" lon="8.9226349"><ele>392.66666666666663</ele><time>2026-04-11T11:54:50.271Z</time></trkpt><trkpt lat="44.5924027" lon="8.9228748"><ele>395.0</ele><time>2026-04-11T11:54:51.271Z</time></trkpt><trkpt lat="44.5923516" lon="8.9231299"><ele>395.0</ele><time>2026-04-11T11:54:52.272Z</time></trkpt><trkpt lat="44.5922952" lon="8.9233956"><ele>395.0</ele><time>2026-04-11T11:54:53.272Z</time></trkpt><trkpt lat="44.5922461" lon="8.9236599"><ele>395.0</ele><time>2026-04-11T11:54:54.271Z</time></trkpt><trkpt lat="44.5922007" lon="8.9239102"><ele>395.0</ele><time>2026-04-11T11:54:55.271Z</time></trkpt><trkpt lat="44.5921519" lon="8.9241397"><ele>395.0</ele><time>2026-04-11T11:54:56.271Z</time></trkpt><trkpt lat="44.5920839" lon="8.9243447"><ele>395.0</ele><time>2026-04-11T11:54:57.272Z</time></trkpt><trkpt lat="44.5919913" lon="8.9245302"><ele>391.66666666666663</ele><time>2026-04-11T11:54:58.271Z</time></trkpt><trkpt lat="44.5918716" lon="8.9246907"><ele>388.33333333333337</ele><time>2026-04-11T11:54:59.271Z</time></trkpt><trkpt lat="44.5917315" lon="8.9248285"><ele>385.0</ele><time>2026-04-11T11:55:00.272Z</time></trkpt><trkpt lat="44.5915964" lon="8.924956"><ele>387.25</ele><time>2026-04-11T11:55:01.271Z</time></trkpt><trkpt lat="44.5914796" lon="8.9250972"><ele>389.5</ele><time>2026-04-11T11:55:02.271Z</time></trkpt><trkpt lat="44.5913909" lon="8.9252583"><ele>391.75</ele><time>2026-04-11T11:55:03.271Z</time></trkpt><trkpt lat="44.5913321" lon="8.9254492"><ele>394.0</ele><time>2026-04-11T11:55:04.272Z</time></trkpt><trkpt lat="44.5912875" lon="8.9256762"><ele>396.6666666666667</ele><time>2026-04-11T11:55:05.271Z</time></trkpt><trkpt lat="44.5912324" lon="8.9259128"><ele>399.33333333333337</ele><time>2026-04-11T11:55:06.272Z</time></trkpt><trkpt lat="44.5911727" lon="8.9261571"><ele>402.0</ele><time>2026-04-11T11:55:07.271Z</time></trkpt><trkpt lat="44.591107" lon="8.9263945"><ele>395.3333333333333</ele><time>2026-04-11T11:55:08.271Z</time></trkpt><trkpt lat="44.5910529" lon="8.9266408"><ele>388.66666666666663</ele><time>2026-04-11T11:55:09.272Z</time></trkpt><trkpt lat="44.5910049" lon="8.9268809"><ele>382.0</ele><time>2026-04-11T11:55:10.271Z</time></trkpt><trkpt lat="44.5909591" lon="8.9270923"><ele>382.0</ele><time>2026-04-11T11:55:11.271Z</time></trkpt><trkpt lat="44.5909132" lon="8.9272634"><ele>382.0</ele><time>2026-04-11T11:55:12.271Z</time></trkpt><trkpt lat="44.5908423" lon="8.9274003"><ele>382.0</ele><time>2026-04-11T11:55:13.271Z</time></trkpt><trkpt lat="44.5907454" lon="8.9275082"><ele>382.0</ele><time>2026-04-11T11:55:14.271Z</time></trkpt><trkpt lat="44.5906306" lon="8.927603"><ele>383.66666666666663</ele><time>2026-04-11T11:55:15.271Z</time></trkpt><trkpt lat="44.5905149" lon="8.9277154"><ele>385.3333333333333</ele><time>2026-04-11T11:55:16.271Z</time></trkpt><trkpt lat="44.5904217" lon="8.9278757"><ele>387.0</ele><time>2026-04-11T11:55:17.271Z</time></trkpt><trkpt lat="44.5903491" lon="8.9280783"><ele>382.0</ele><time>2026-04-11T11:55:18.271Z</time></trkpt><trkpt lat="44.5902947" lon="8.9283023"><ele>377.0</ele><time>2026-04-11T11:55:19.271Z</time></trkpt><trkpt lat="44.590275" lon="8.9285425"><ele>372.0</ele><time>2026-04-11T11:55:20.272Z</time></trkpt><trkpt lat="44.5902873" lon="8.9287683"><ele>372.0</ele><time>2026-04-11T11:55:21.271Z</time></trkpt><trkpt lat="44.590309" lon="8.9289666"><ele>372.0</ele><time>2026-04-11T11:55:22.271Z</time></trkpt><trkpt lat="44.5903233" lon="8.9291687"><ele>372.0</ele><time>2026-04-11T11:55:23.272Z</time></trkpt><trkpt lat="44.590334" lon="8.9293521"><ele>372.0</ele><time>2026-04-11T11:55:24.271Z</time></trkpt><trkpt lat="44.5903475" lon="8.929534"><ele>372.5</ele><time>2026-04-11T11:55:25.272Z</time></trkpt><trkpt lat="44.5903591" lon="8.9297243"><ele>373.0</ele><time>2026-04-11T11:55:26.271Z</time></trkpt><trkpt lat="44.5903652" lon="8.9299149"><ele>373.5</ele><time>2026-04-11T11:55:27.272Z</time></trkpt><trkpt lat="44.5903691" lon="8.9300994"><ele>374.0</ele><time>2026-04-11T11:55:28.271Z</time></trkpt><trkpt lat="44.5903781" lon="8.9302847"><ele>374.0</ele><time>2026-04-11T11:55:29.271Z</time></trkpt><trkpt lat="44.5903859" lon="8.9304695"><ele>374.0</ele><time>2026-04-11T11:55:30.272Z</time></trkpt><trkpt lat="44.5903914" lon="8.9306606"><ele>374.0</ele><time>2026-04-11T11:55:31.271Z</time></trkpt><trkpt lat="44.5903945" lon="8.930865"><ele>374.0</ele><time>2026-04-11T11:55:32.271Z</time></trkpt><trkpt lat="44.5903982" lon="8.9310768"><ele>372.75</ele><time>2026-04-11T11:55:33.271Z</time></trkpt><trkpt lat="44.5904015" lon="8.9312814"><ele>371.5</ele><time>2026-04-11T11:55:34.272Z</time></trkpt><trkpt lat="44.5904029" lon="8.9314855"><ele>370.25</ele><time>2026-04-11T11:55:35.271Z</time></trkpt><trkpt lat="44.5904044" lon="8.931696"><ele>369.0</ele><time>2026-04-11T11:55:36.271Z</time></trkpt><trkpt lat="44.5904014" lon="8.9319067"><ele>368.75</ele><time>2026-04-11T11:55:37.271Z</time></trkpt><trkpt lat="44.590404" lon="8.9321081"><ele>368.5</ele><time>2026-04-11T11:55:38.272Z</time></trkpt><trkpt lat="44.5904097" lon="8.9322965"><ele>368.25</ele><time>2026-04-11T11:55:39.271Z</time></trkpt><trkpt lat="44.5904087" lon="8.9324658"><ele>368.0</ele><time>2026-04-11T11:55:40.271Z</time></trkpt><trkpt lat="44.5903944" lon="8.9326273"><ele>366.59999999999997</ele><time>2026-04-11T11:55:41.271Z</time></trkpt><trkpt lat="44.5903702" lon="8.9327759"><ele>365.2</ele><time>2026-04-11T11:55:42.271Z</time></trkpt><trkpt lat="44.590339" lon="8.9329108"><ele>363.8</ele><time>2026-04-11T11:55:43.271Z</time></trkpt><trkpt lat="44.590299" lon="8.9330445"><ele>362.4</ele><time>2026-04-11T11:55:44.272Z</time></trkpt><trkpt lat="44.5902554" lon="8.9331821"><ele>361.0</ele><time>2026-04-11T11:55:45.271Z</time></trkpt><trkpt lat="44.5902039" lon="8.9333264"><ele>361.25</ele><time>2026-04-11T11:55:46.272Z</time></trkpt><trkpt lat="44.5901472" lon="8.9334723"><ele>361.5</ele><time>2026-04-11T11:55:47.271Z</time></trkpt><trkpt lat="44.5900896" lon="8.9336068"><ele>361.75</ele><time>2026-04-11T11:55:48.272Z</time></trkpt><trkpt lat="44.5900291" lon="8.9337484"><ele>362.0</ele><time>2026-04-11T11:55:49.271Z</time></trkpt><trkpt lat="44.5899656" lon="8.9338985"><ele>362.0</ele><time>2026-04-11T11:55:50.271Z</time></trkpt><trkpt lat="44.589895" lon="8.9340626"><ele>362.0</ele><time>2026-04-11T11:55:51.271Z</time></trkpt><trkpt lat="44.5898257" lon="8.9342325"><ele>362.0</ele><time>2026-04-11T11:55:52.271Z</time></trkpt><trkpt lat="44.5897641" lon="8.9344095"><ele>362.0</ele><time>2026-04-11T11:55:53.271Z</time></trkpt><trkpt lat="44.589721" lon="8.9345945"><ele>363.6666666666667</ele><time>2026-04-11T11:55:54.272Z</time></trkpt><trkpt lat="44.589691" lon="8.9347939"><ele>365.3333333333333</ele><time>2026-04-11T11:55:55.271Z</time></trkpt><trkpt lat="44.5896687" lon="8.9350119"><ele>367.0</ele><time>2026-04-11T11:55:56.272Z</time></trkpt><trkpt lat="44.5896464" lon="8.9352213"><ele>367.0</ele><time>2026-04-11T11:55:57.272Z</time></trkpt><trkpt lat="44.589622" lon="8.9354332"><ele>367.0</ele><time>2026-04-11T11:55:58.272Z</time></trkpt><trkpt lat="44.5896018" lon="8.9356341"><ele>367.0</ele><time>2026-04-11T11:55:59.271Z</time></trkpt><trkpt lat="44.5895875" lon="8.9358223"><ele>367.0</ele><time>2026-04-11T11:56:00.271Z</time></trkpt><trkpt lat="44.5895647" lon="8.9359936"><ele>367.0</ele><time>2026-04-11T11:56:01.271Z</time></trkpt><trkpt lat="44.5895381" lon="8.9361595"><ele>367.0</ele><time>2026-04-11T11:56:02.271Z</time></trkpt><trkpt lat="44.5895166" lon="8.9363173"><ele>367.0</ele><time>2026-04-11T11:56:03.272Z</time></trkpt><trkpt lat="44.5894944" lon="8.9364686"><ele>367.0</ele><time>2026-04-11T11:56:04.271Z</time></trkpt><trkpt lat="44.5894762" lon="8.9366174"><ele>364.8333333333333</ele><time>2026-04-11T11:56:05.271Z</time></trkpt><trkpt lat="44.5894568" lon="8.9367586"><ele>362.66666666666663</ele><time>2026-04-11T11:56:06.271Z</time></trkpt><trkpt lat="44.5894378" lon="8.9368908"><ele>360.5</ele><time>2026-04-11T11:56:07.271Z</time></trkpt><trkpt lat="44.5894206" lon="8.9370041"><ele>358.3333333333333</ele><time>2026-04-11T11:56:08.271Z</time></trkpt><trkpt lat="44.5894052" lon="8.9371007"><ele>356.1666666666667</ele><time>2026-04-11T11:56:09.272Z</time></trkpt><trkpt lat="44.5893857" lon="8.937212"><ele>354.0</ele><time>2026-04-11T11:56:11.271Z</time></trkpt><trkpt lat="44.5893412" lon="8.9373217"><ele>354.0</ele><time>2026-04-11T11:56:14.271Z</time></trkpt><trkpt lat="44.5892491" lon="8.9373747"><ele>354.0</ele><time>2026-04-11T11:56:16.271Z</time></trkpt><trkpt lat="44.5891255" lon="8.9374088"><ele>354.0</ele><time>2026-04-11T11:56:18.271Z</time></trkpt><trkpt lat="44.5890604" lon="8.9374268"><ele>354.0</ele><time>2026-04-11T11:56:19.271Z</time></trkpt><trkpt lat="44.5889467" lon="8.9374529"><ele>354.0</ele><time>2026-04-11T11:56:21.271Z</time></trkpt><trkpt lat="44.5888555" lon="8.9374766"><ele>354.0</ele><time>2026-04-11T11:56:23.272Z</time></trkpt><trkpt lat="44.58878" lon="8.9375083"><ele>354.0</ele><time>2026-04-11T11:56:25.271Z</time></trkpt><trkpt lat="44.5887846" lon="8.9376143"><ele>351.0</ele><time>2026-04-11T11:56:29.271Z</time></trkpt><trkpt lat="44.5888542" lon="8.9376202"><ele>351.0</ele><time>2026-04-11T11:56:34.271Z</time></trkpt></trkseg></trk></gpx>